PWSweather.com
Personal Weather Stations
Station Observations
WOODBURYWX
Lighthouse Rd, Woodbury, Woodbury, CT 06798

Lighthouse Rd, WoodburyWoodbury, CT 06798

Lat: 41.553333, Lon: -73.224167

Elevation: 437

Station Type: Ambient Weather WS-1090

Latest ConditionsUpdated 10:57:00 PM EDT Sunday, Jul 5, 2015
Currently Today's Max Today's Min Today's Average
Temperature 66.6°F19.2°C 82.9°F28.3°C 54.1°F12.3°C 68.0°F20.0°C
Dew Point 64.2°F17.9°C 66.6°F19.2°C 53.3°F11.8°C 60.4°F15.8°C
Winds Calm Calm 3.8 mph S6.1 kmh S - 0.8 mph 1.3 kmh
Wind Gusts -- 7.9 mph12.7 kmh - -
Humidity 92% 99% 46% 79%
Pressure 29.91 in1012.9 mb 30.10 in1019.3 mb 29.83 in1010.2 mb -
Hour Temp Dew Point Humidity Winds Wind Gusts Pressure Precip Precip Rate Daily Precip Total
10:57 PM 66.6°F19.2°C 64.2°F17.9°C 92% Calm Calm -- 29.91 in1012.9 mb 0.00 in0.0 mm 0.00 in0.0 mm 0.00 in0.0 mm
10:56 PM 66.7°F19.3°C 64.3°F17.9°C 92% Calm Calm -- 29.91 in1012.9 mb 0.00 in0.0 mm 0.00 in0.0 mm 0.00 in0.0 mm
10:55 PM 66.7°F19.3°C 64.3°F17.9°C 92% Calm Calm -- 29.91 in1012.9 mb 0.00 in0.0 mm 0.00 in0.0 mm 0.00 in0.0 mm
10:54 PM 66.7°F19.3°C 64.3°F17.9°C 92% Calm Calm -- 29.91 in1012.9 mb 0.00 in0.0 mm 0.00 in0.0 mm 0.00 in0.0 mm
10:53 PM 66.6°F19.2°C 64.2°F17.9°C 92% Calm Calm -- 29.91 in1012.9 mb 0.00 in0.0 mm 0.00 in0.0 mm 0.00 in0.0 mm
10:52 PM 66.6°F19.2°C 64.2°F17.9°C 92% Calm Calm -- 29.91 in1012.9 mb 0.00 in0.0 mm 0.00 in0.0 mm 0.00 in0.0 mm
10:51 PM 66.4°F19.1°C 64.0°F17.8°C 92% Calm Calm -- 29.91 in1012.9 mb 0.00 in0.0 mm 0.00 in0.0 mm 0.00 in0.0 mm
10:50 PM 66.4°F19.1°C 64.0°F17.8°C 92% Calm Calm -- 29.91 in1012.9 mb 0.00 in0.0 mm 0.00 in0.0 mm 0.00 in0.0 mm
10:49 PM 66.4°F19.1°C 64.0°F17.8°C 92% Calm Calm -- 29.91 in1012.9 mb 0.00 in0.0 mm 0.00 in0.0 mm 0.00 in0.0 mm
10:48 PM 66.6°F19.2°C 63.9°F17.7°C 91% Calm Calm -- 29.92 in1013.2 mb 0.00 in0.0 mm 0.00 in0.0 mm 0.00 in0.0 mm
10:47 PM 66.7°F19.3°C 64.0°F17.8°C 91% Calm Calm -- 29.91 in1012.9 mb 0.00 in0.0 mm 0.00 in0.0 mm 0.00 in0.0 mm
10:46 PM 66.4°F19.1°C 63.7°F17.6°C 91% Calm Calm -- 29.91 in1012.9 mb 0.00 in0.0 mm 0.00 in0.0 mm 0.00 in0.0 mm
10:45 PM 66.6°F19.2°C 63.9°F17.7°C 91% Calm Calm -- 29.91 in1012.9 mb 0.00 in0.0 mm 0.00 in0.0 mm 0.00 in0.0 mm
10:44 PM 66.7°F19.3°C 64.3°F17.9°C 92% Calm Calm -- 29.91 in1012.9 mb 0.00 in0.0 mm 0.00 in0.0 mm 0.00 in0.0 mm
10:43 PM 67.5°F19.7°C 65.1°F18.4°C 92% Calm Calm -- 29.91 in1012.9 mb 0.00 in0.0 mm 0.00 in0.0 mm 0.00 in0.0 mm
10:42 PM 67.5°F19.7°C 65.1°F18.4°C 92% Calm Calm -- 29.91 in1012.9 mb 0.00 in0.0 mm 0.00 in0.0 mm 0.00 in0.0 mm
10:41 PM 67.5°F19.7°C 64.7°F18.2°C 91% Calm Calm -- 29.91 in1012.9 mb 0.00 in0.0 mm 0.00 in0.0 mm 0.00 in0.0 mm
10:40 PM 67.5°F19.7°C 64.7°F18.2°C 91% Calm Calm -- 29.91 in1012.9 mb 0.00 in0.0 mm 0.00 in0.0 mm 0.00 in0.0 mm
10:39 PM 67.5°F19.7°C 64.7°F18.2°C 91% Calm Calm -- 29.91 in1012.9 mb 0.00 in0.0 mm 0.00 in0.0 mm 0.00 in0.0 mm
10:38 PM 67.5°F19.7°C 64.7°F18.2°C 91% Calm Calm -- 29.91 in1012.9 mb 0.00 in0.0 mm 0.00 in0.0 mm 0.00 in0.0 mm
10:37 PM 67.5°F19.7°C 64.7°F18.2°C 91% Calm Calm -- 29.91 in1012.9 mb 0.00 in0.0 mm 0.00 in0.0 mm 0.00 in0.0 mm
10:36 PM 67.5°F19.7°C 64.7°F18.2°C 91% Calm Calm -- 29.91 in1012.9 mb 0.00 in0.0 mm 0.00 in0.0 mm 0.00 in0.0 mm
10:35 PM 67.5°F19.7°C 64.7°F18.2°C 91% Calm Calm -- 29.90 in1012.5 mb 0.00 in0.0 mm 0.00 in0.0 mm 0.00 in0.0 mm
10:34 PM 67.5°F19.7°C 64.7°F18.2°C 91% Calm Calm -- 29.91 in1012.9 mb 0.00 in0.0 mm 0.00 in0.0 mm 0.00 in0.0 mm
10:33 PM 67.5°F19.7°C 64.7°F18.2°C 91% Calm Calm -- 29.91 in1012.9 mb 0.00 in0.0 mm 0.00 in0.0 mm 0.00 in0.0 mm
10:32 PM 67.5°F19.7°C 64.7°F18.2°C 91% Calm Calm -- 29.90 in1012.5 mb 0.00 in0.0 mm 0.00 in0.0 mm 0.00 in0.0 mm
10:31 PM 67.6°F19.8°C 64.9°F18.3°C 91% Calm Calm -- 29.90 in1012.5 mb 0.00 in0.0 mm 0.00 in0.0 mm 0.00 in0.0 mm
10:30 PM 67.6°F19.8°C 64.9°F18.3°C 91% Calm Calm -- 29.91 in1012.9 mb 0.00 in0.0 mm 0.00 in0.0 mm 0.00 in0.0 mm
10:29 PM 67.6°F19.8°C 64.9°F18.3°C 91% Calm Calm -- 29.90 in1012.5 mb 0.00 in0.0 mm 0.00 in0.0 mm 0.00 in0.0 mm
10:28 PM 67.6°F19.8°C 64.9°F18.3°C 91% Calm Calm -- 29.90 in1012.5 mb 0.00 in0.0 mm 0.00 in0.0 mm 0.00 in0.0 mm
10:27 PM 67.6°F19.8°C 64.9°F18.3°C 91% Calm Calm -- 29.90 in1012.5 mb 0.00 in0.0 mm 0.00 in0.0 mm 0.00 in0.0 mm
10:26 PM 67.6°F19.8°C 64.9°F18.3°C 91% Calm Calm -- 29.91 in1012.9 mb 0.00 in0.0 mm 0.00 in0.0 mm 0.00 in0.0 mm
10:25 PM 67.6°F19.8°C 64.9°F18.3°C 91% Calm Calm -- 29.90 in1012.5 mb 0.00 in0.0 mm 0.00 in0.0 mm 0.00 in0.0 mm
10:24 PM 67.6°F19.8°C 64.9°F18.3°C 91% Calm Calm -- 29.91 in1012.9 mb 0.00 in0.0 mm 0.00 in0.0 mm 0.00 in0.0 mm
10:23 PM 67.6°F19.8°C 64.9°F18.3°C 91% Calm Calm -- 29.91 in1012.9 mb 0.00 in0.0 mm 0.00 in0.0 mm 0.00 in0.0 mm
10:22 PM 67.6°F19.8°C 64.9°F18.3°C 91% Calm Calm -- 29.90 in1012.5 mb 0.00 in0.0 mm 0.00 in0.0 mm 0.00 in0.0 mm
10:21 PM 67.6°F19.8°C 64.9°F18.3°C 91% Calm Calm -- 29.91 in1012.9 mb 0.00 in0.0 mm 0.00 in0.0 mm 0.00 in0.0 mm
10:20 PM 67.6°F19.8°C 64.9°F18.3°C 91% Calm Calm -- 29.90 in1012.5 mb 0.00 in0.0 mm 0.00 in0.0 mm 0.00 in0.0 mm
10:19 PM 67.8°F19.9°C 65.1°F18.4°C 91% Calm Calm -- 29.90 in1012.5 mb 0.00 in0.0 mm 0.00 in0.0 mm 0.00 in0.0 mm
10:18 PM 67.8°F19.9°C 65.1°F18.4°C 91% Calm Calm -- 29.90 in1012.5 mb 0.00 in0.0 mm 0.00 in0.0 mm 0.00 in0.0 mm
10:17 PM 67.8°F19.9°C 65.1°F18.4°C 91% Calm Calm -- 29.90 in1012.5 mb 0.00 in0.0 mm 0.00 in0.0 mm 0.00 in0.0 mm
10:16 PM 67.8°F19.9°C 65.1°F18.4°C 91% Calm Calm -- 29.90 in1012.5 mb 0.00 in0.0 mm 0.00 in0.0 mm 0.00 in0.0 mm
10:15 PM 67.8°F19.9°C 65.1°F18.4°C 91% Calm Calm -- 29.91 in1012.9 mb 0.00 in0.0 mm 0.00 in0.0 mm 0.00 in0.0 mm
10:14 PM 67.8°F19.9°C 65.1°F18.4°C 91% Calm Calm -- 29.90 in1012.5 mb 0.00 in0.0 mm 0.00 in0.0 mm 0.00 in0.0 mm
10:13 PM 67.8°F19.9°C 65.1°F18.4°C 91% Calm Calm -- 29.91 in1012.9 mb 0.00 in0.0 mm 0.00 in0.0 mm 0.00 in0.0 mm
10:12 PM 67.8°F19.9°C 65.1°F18.4°C 91% Calm Calm -- 29.91 in1012.9 mb 0.00 in0.0 mm 0.00 in0.0 mm 0.00 in0.0 mm
10:11 PM 68.0°F20.0°C 64.6°F18.1°C 89% Calm Calm -- 29.91 in1012.9 mb 0.00 in0.0 mm 0.00 in0.0 mm 0.00 in0.0 mm
10:10 PM 68.0°F20.0°C 64.6°F18.1°C 89% Calm Calm -- 29.91 in1012.9 mb 0.00 in0.0 mm 0.00 in0.0 mm 0.00 in0.0 mm
10:09 PM 68.0°F20.0°C 64.6°F18.1°C 89% Calm Calm -- 29.90 in1012.5 mb 0.00 in0.0 mm 0.00 in0.0 mm 0.00 in0.0 mm
10:08 PM 68.0°F20.0°C 64.6°F18.1°C 89% Calm Calm -- 29.91 in1012.9 mb 0.00 in0.0 mm 0.00 in0.0 mm 0.00 in0.0 mm
10:07 PM 68.0°F20.0°C 64.6°F18.1°C 89% Calm Calm -- 29.90 in1012.5 mb 0.00 in0.0 mm 0.00 in0.0 mm 0.00 in0.0 mm
10:06 PM 68.0°F20.0°C 64.6°F18.1°C 89% Calm Calm -- 29.90 in1012.5 mb 0.00 in0.0 mm 0.00 in0.0 mm 0.00 in0.0 mm
10:05 PM 68.0°F20.0°C 64.6°F18.1°C 89% Calm Calm -- 29.90 in1012.5 mb 0.00 in0.0 mm 0.00 in0.0 mm 0.00 in0.0 mm
10:04 PM 68.0°F20.0°C 64.6°F18.1°C 89% Calm Calm -- 29.90 in1012.5 mb 0.00 in0.0 mm 0.00 in0.0 mm 0.00 in0.0 mm
10:03 PM 68.0°F20.0°C 64.6°F18.1°C 89% Calm Calm -- 29.90 in1012.5 mb 0.00 in0.0 mm 0.00 in0.0 mm 0.00 in0.0 mm
10:02 PM 68.0°F20.0°C 64.6°F18.1°C 89% Calm Calm -- 29.90 in1012.5 mb 0.00 in0.0 mm 0.00 in0.0 mm 0.00 in0.0 mm
10:01 PM 68.0°F20.0°C 64.6°F18.1°C 89% Calm Calm -- 29.91 in1012.9 mb 0.00 in0.0 mm 0.00 in0.0 mm 0.00 in0.0 mm
10:00 PM 68.0°F20.0°C 64.6°F18.1°C 89% Calm Calm -- 29.90 in1012.5 mb 0.00 in0.0 mm 0.00 in0.0 mm 0.00 in0.0 mm
09:59 PM 68.0°F20.0°C 64.6°F18.1°C 89% Calm Calm -- 29.90 in1012.5 mb 0.00 in0.0 mm 0.00 in0.0 mm 0.00 in0.0 mm
09:58 PM 68.2°F20.1°C 64.8°F18.2°C 89% Calm Calm -- 29.91 in1012.9 mb 0.00 in0.0 mm 0.00 in0.0 mm 0.00 in0.0 mm
09:57 PM 68.2°F20.1°C 64.8°F18.2°C 89% Calm Calm -- 29.91 in1012.9 mb 0.00 in0.0 mm 0.00 in0.0 mm 0.00 in0.0 mm
09:56 PM 68.2°F20.1°C 64.8°F18.2°C 89% Calm Calm -- 29.90 in1012.5 mb 0.00 in0.0 mm 0.00 in0.0 mm 0.00 in0.0 mm
09:55 PM 68.2°F20.1°C 64.8°F18.2°C 89% Calm Calm -- 29.90 in1012.5 mb 0.00 in0.0 mm 0.00 in0.0 mm 0.00 in0.0 mm
09:54 PM 68.4°F20.2°C 65.0°F18.3°C 89% Calm Calm -- 29.90 in1012.5 mb 0.00 in0.0 mm 0.00 in0.0 mm 0.00 in0.0 mm
09:53 PM 68.2°F20.1°C 64.8°F18.2°C 89% Calm Calm -- 29.91 in1012.9 mb 0.00 in0.0 mm 0.00 in0.0 mm 0.00 in0.0 mm
09:52 PM 68.2°F20.1°C 65.1°F18.4°C 90% Calm Calm -- 29.90 in1012.5 mb 0.00 in0.0 mm 0.00 in0.0 mm 0.00 in0.0 mm
09:51 PM 68.2°F20.1°C 65.1°F18.4°C 90% Calm Calm -- 29.90 in1012.5 mb 0.00 in0.0 mm 0.00 in0.0 mm 0.00 in0.0 mm
09:50 PM 68.2°F20.1°C 65.1°F18.4°C 90% Calm Calm -- 29.90 in1012.5 mb 0.00 in0.0 mm 0.00 in0.0 mm 0.00 in0.0 mm
09:49 PM 68.2°F20.1°C 65.1°F18.4°C 90% Calm Calm -- 29.90 in1012.5 mb 0.00 in0.0 mm 0.00 in0.0 mm 0.00 in0.0 mm
09:48 PM 68.2°F20.1°C 65.1°F18.4°C 90% Calm Calm -- 29.91 in1012.9 mb 0.00 in0.0 mm 0.00 in0.0 mm 0.00 in0.0 mm
09:47 PM 68.4°F20.2°C 65.3°F18.5°C 90% Calm Calm -- 29.90 in1012.5 mb 0.00 in0.0 mm 0.00 in0.0 mm 0.00 in0.0 mm
09:46 PM 68.2°F20.1°C 65.1°F18.4°C 90% Calm Calm -- 29.90 in1012.5 mb 0.00 in0.0 mm 0.00 in0.0 mm 0.00 in0.0 mm
09:45 PM 68.4°F20.2°C 65.3°F18.5°C 90% Calm Calm -- 29.90 in1012.5 mb 0.00 in0.0 mm 0.00 in0.0 mm 0.00 in0.0 mm
09:44 PM 68.4°F20.2°C 65.3°F18.5°C 90% Calm Calm -- 29.90 in1012.5 mb 0.00 in0.0 mm 0.00 in0.0 mm 0.00 in0.0 mm
09:43 PM 68.5°F20.3°C 65.5°F18.6°C 90% Calm Calm -- 29.90 in1012.5 mb 0.00 in0.0 mm 0.00 in0.0 mm 0.00 in0.0 mm
09:42 PM 68.5°F20.3°C 65.5°F18.6°C 90% Calm Calm -- 29.90 in1012.5 mb 0.00 in0.0 mm 0.00 in0.0 mm 0.00 in0.0 mm
09:41 PM 68.5°F20.3°C 65.5°F18.6°C 90% Calm Calm -- 29.90 in1012.5 mb 0.00 in0.0 mm 0.00 in0.0 mm 0.00 in0.0 mm
09:40 PM 68.5°F20.3°C 65.5°F18.6°C 90% Calm Calm -- 29.90 in1012.5 mb 0.00 in0.0 mm 0.00 in0.0 mm 0.00 in0.0 mm
09:39 PM 68.5°F20.3°C 65.5°F18.6°C 90% Calm Calm -- 29.90 in1012.5 mb 0.00 in0.0 mm 0.00 in0.0 mm 0.00 in0.0 mm
09:38 PM 68.5°F20.3°C 65.5°F18.6°C 90% Calm Calm -- 29.90 in1012.5 mb 0.00 in0.0 mm 0.00 in0.0 mm 0.00 in0.0 mm
09:37 PM 68.5°F20.3°C 65.5°F18.6°C 90% Calm Calm -- 29.90 in1012.5 mb 0.00 in0.0 mm 0.00 in0.0 mm 0.00 in0.0 mm
09:36 PM 68.5°F20.3°C 65.5°F18.6°C 90% Calm Calm -- 29.90 in1012.5 mb 0.00 in0.0 mm 0.00 in0.0 mm 0.00 in0.0 mm
09:35 PM 68.7°F20.4°C 65.7°F18.7°C 90% Calm Calm -- 29.90 in1012.5 mb 0.00 in0.0 mm 0.00 in0.0 mm 0.00 in0.0 mm
09:34 PM 68.7°F20.4°C 65.7°F18.7°C 90% Calm Calm -- 29.89 in1012.2 mb 0.00 in0.0 mm 0.00 in0.0 mm 0.00 in0.0 mm
09:33 PM 68.9°F20.5°C 65.8°F18.8°C 90% Calm Calm -- 29.90 in1012.5 mb 0.00 in0.0 mm 0.00 in0.0 mm 0.00 in0.0 mm
09:32 PM 68.9°F20.5°C 65.5°F18.6°C 89% Calm Calm -- 29.89 in1012.2 mb 0.00 in0.0 mm 0.00 in0.0 mm 0.00 in0.0 mm
09:31 PM 68.9°F20.5°C 65.5°F18.6°C 89% Calm Calm -- 29.89 in1012.2 mb 0.00 in0.0 mm 0.00 in0.0 mm 0.00 in0.0 mm
09:30 PM 69.1°F20.6°C 65.7°F18.7°C 89% Calm Calm -- 29.89 in1012.2 mb 0.00 in0.0 mm 0.00 in0.0 mm 0.00 in0.0 mm
09:29 PM 69.1°F20.6°C 65.4°F18.6°C 88% Calm Calm -- 29.89 in1012.2 mb 0.00 in0.0 mm 0.00 in0.0 mm 0.00 in0.0 mm
09:28 PM 69.1°F20.6°C 65.4°F18.6°C 88% Calm Calm -- 29.89 in1012.2 mb 0.00 in0.0 mm 0.00 in0.0 mm 0.00 in0.0 mm
09:27 PM 69.1°F20.6°C 65.4°F18.6°C 88% Calm Calm -- 29.89 in1012.2 mb 0.00 in0.0 mm 0.00 in0.0 mm 0.00 in0.0 mm
09:26 PM 69.1°F20.6°C 65.4°F18.6°C 88% Calm Calm -- 29.89 in1012.2 mb 0.00 in0.0 mm 0.00 in0.0 mm 0.00 in0.0 mm
09:25 PM 69.1°F20.6°C 65.0°F18.3°C 87% Calm Calm -- 29.90 in1012.5 mb 0.00 in0.0 mm 0.00 in0.0 mm 0.00 in0.0 mm
09:24 PM 69.1°F20.6°C 65.0°F18.3°C 87% Calm Calm -- 29.89 in1012.2 mb 0.00 in0.0 mm 0.00 in0.0 mm 0.00 in0.0 mm
09:23 PM 69.1°F20.6°C 65.0°F18.3°C 87% Calm Calm -- 29.89 in1012.2 mb 0.00 in0.0 mm 0.00 in0.0 mm 0.00 in0.0 mm
09:22 PM 69.1°F20.6°C 65.0°F18.3°C 87% Calm Calm -- 29.89 in1012.2 mb 0.00 in0.0 mm 0.00 in0.0 mm 0.00 in0.0 mm
09:21 PM 69.3°F20.7°C 65.2°F18.4°C 87% Calm Calm -- 29.89 in1012.2 mb 0.00 in0.0 mm 0.00 in0.0 mm 0.00 in0.0 mm
09:20 PM 69.3°F20.7°C 64.9°F18.3°C 86% Calm Calm -- 29.89 in1012.2 mb 0.00 in0.0 mm 0.00 in0.0 mm 0.00 in0.0 mm
09:19 PM 69.3°F20.7°C 64.9°F18.3°C 86% Calm Calm -- 29.89 in1012.2 mb 0.00 in0.0 mm 0.00 in0.0 mm 0.00 in0.0 mm
09:18 PM 69.3°F20.7°C 64.9°F18.3°C 86% Calm Calm -- 29.89 in1012.2 mb 0.00 in0.0 mm 0.00 in0.0 mm 0.00 in0.0 mm
09:17 PM 69.3°F20.7°C 64.9°F18.3°C 86% Calm Calm -- 29.89 in1012.2 mb 0.00 in0.0 mm 0.00 in0.0 mm 0.00 in0.0 mm
09:16 PM 69.3°F20.7°C 64.6°F18.1°C 85% Calm Calm -- 29.89 in1012.2 mb 0.00 in0.0 mm 0.00 in0.0 mm 0.00 in0.0 mm
09:15 PM 69.4°F20.8°C 64.7°F18.2°C 85% Calm Calm -- 29.89 in1012.2 mb 0.00 in0.0 mm 0.00 in0.0 mm 0.00 in0.0 mm
09:14 PM 69.6°F20.9°C 64.9°F18.3°C 85% Calm Calm -- 29.89 in1012.2 mb 0.00 in0.0 mm 0.00 in0.0 mm 0.00 in0.0 mm
09:13 PM 69.6°F20.9°C 64.6°F18.1°C 84% Calm Calm -- 29.88 in1011.9 mb 0.00 in0.0 mm 0.00 in0.0 mm 0.00 in0.0 mm
09:12 PM 69.8°F21.0°C 64.4°F18.0°C 83% Calm Calm -- 29.88 in1011.9 mb 0.00 in0.0 mm 0.00 in0.0 mm 0.00 in0.0 mm
09:11 PM 70.0°F21.1°C 64.2°F17.9°C 82% Calm Calm -- 29.88 in1011.9 mb 0.00 in0.0 mm 0.00 in0.0 mm 0.00 in0.0 mm
09:10 PM 70.0°F21.1°C 63.9°F17.7°C 81% Calm Calm -- 29.89 in1012.2 mb 0.00 in0.0 mm 0.00 in0.0 mm 0.00 in0.0 mm
09:09 PM 70.0°F21.1°C 63.9°F17.7°C 81% Calm Calm -- 29.88 in1011.9 mb 0.00 in0.0 mm 0.00 in0.0 mm 0.00 in0.0 mm
09:08 PM 70.0°F21.1°C 63.9°F17.7°C 81% Calm Calm -- 29.88 in1011.9 mb 0.00 in0.0 mm 0.00 in0.0 mm 0.00 in0.0 mm
09:07 PM 70.2°F21.2°C 64.1°F17.8°C 81% Calm Calm -- 29.88 in1011.9 mb 0.00 in0.0 mm 0.00 in0.0 mm 0.00 in0.0 mm
09:06 PM 70.2°F21.2°C 64.1°F17.8°C 81% Calm Calm -- 29.88 in1011.9 mb 0.00 in0.0 mm 0.00 in0.0 mm 0.00 in0.0 mm
09:05 PM 70.2°F21.2°C 64.1°F17.8°C 81% Calm Calm -- 29.87 in1011.5 mb 0.00 in0.0 mm 0.00 in0.0 mm 0.00 in0.0 mm
09:04 PM 70.2°F21.2°C 64.1°F17.8°C 81% Calm Calm -- 29.88 in1011.9 mb 0.00 in0.0 mm 0.00 in0.0 mm 0.00 in0.0 mm
09:03 PM 70.3°F21.3°C 63.9°F17.7°C 80% Calm Calm -- 29.88 in1011.9 mb 0.00 in0.0 mm 0.00 in0.0 mm 0.00 in0.0 mm
09:02 PM 70.3°F21.3°C 63.9°F17.7°C 80% Calm Calm -- 29.88 in1011.9 mb 0.00 in0.0 mm 0.00 in0.0 mm 0.00 in0.0 mm
09:01 PM 70.3°F21.3°C 63.9°F17.7°C 80% Calm Calm -- 29.88 in1011.9 mb 0.00 in0.0 mm 0.00 in0.0 mm 0.00 in0.0 mm
09:00 PM 70.3°F21.3°C 63.9°F17.7°C 80% Calm Calm -- 29.88 in1011.9 mb 0.00 in0.0 mm 0.00 in0.0 mm 0.00 in0.0 mm
08:59 PM 70.3°F21.3°C 63.9°F17.7°C 80% Calm Calm -- 29.87 in1011.5 mb 0.00 in0.0 mm 0.00 in0.0 mm 0.00 in0.0 mm
08:58 PM 70.3°F21.3°C 63.9°F17.7°C 80% Calm Calm -- 29.87 in1011.5 mb 0.00 in0.0 mm 0.00 in0.0 mm 0.00 in0.0 mm
08:57 PM 70.5°F21.4°C 64.0°F17.8°C 80% Calm Calm -- 29.87 in1011.5 mb 0.00 in0.0 mm 0.00 in0.0 mm 0.00 in0.0 mm
08:56 PM 70.5°F21.4°C 64.0°F17.8°C 80% Calm Calm -- 29.87 in1011.5 mb 0.00 in0.0 mm 0.00 in0.0 mm 0.00 in0.0 mm
08:55 PM 70.5°F21.4°C 64.0°F17.8°C 80% Calm Calm -- 29.87 in1011.5 mb 0.00 in0.0 mm 0.00 in0.0 mm 0.00 in0.0 mm
08:54 PM 70.5°F21.4°C 64.0°F17.8°C 80% Calm Calm -- 29.87 in1011.5 mb 0.00 in0.0 mm 0.00 in0.0 mm 0.00 in0.0 mm
08:53 PM 70.5°F21.4°C 64.0°F17.8°C 80% Calm Calm -- 29.87 in1011.5 mb 0.00 in0.0 mm 0.00 in0.0 mm 0.00 in0.0 mm
08:52 PM 70.7°F21.5°C 64.2°F17.9°C 80% Calm Calm -- 29.87 in1011.5 mb 0.00 in0.0 mm 0.00 in0.0 mm 0.00 in0.0 mm
08:51 PM 70.7°F21.5°C 64.2°F17.9°C 80% Calm Calm -- 29.87 in1011.5 mb 0.00 in0.0 mm 0.00 in0.0 mm 0.00 in0.0 mm
08:50 PM 70.7°F21.5°C 64.2°F17.9°C 80% Calm Calm -- 29.87 in1011.5 mb 0.00 in0.0 mm 0.00 in0.0 mm 0.00 in0.0 mm
08:49 PM 70.7°F21.5°C 64.2°F17.9°C 80% Calm Calm -- 29.87 in1011.5 mb 0.00 in0.0 mm 0.00 in0.0 mm 0.00 in0.0 mm
08:48 PM 70.7°F21.5°C 64.2°F17.9°C 80% Calm Calm -- 29.87 in1011.5 mb 0.00 in0.0 mm 0.00 in0.0 mm 0.00 in0.0 mm
08:47 PM 70.5°F21.4°C 64.0°F17.8°C 80% Calm Calm -- 29.87 in1011.5 mb 0.00 in0.0 mm 0.00 in0.0 mm 0.00 in0.0 mm
08:46 PM 70.5°F21.4°C 64.0°F17.8°C 80% Calm Calm -- 29.87 in1011.5 mb 0.00 in0.0 mm 0.00 in0.0 mm 0.00 in0.0 mm
08:45 PM 70.5°F21.4°C 64.0°F17.8°C 80% Calm Calm -- 29.87 in1011.5 mb 0.00 in0.0 mm 0.00 in0.0 mm 0.00 in0.0 mm
08:44 PM 70.5°F21.4°C 64.0°F17.8°C 80% 0.1 mph N0.2 kmh N 1.7 mph2.7 kmh 29.87 in1011.5 mb 0.00 in0.0 mm 0.00 in0.0 mm 0.00 in0.0 mm
08:43 PM 70.7°F21.5°C 64.2°F17.9°C 80% 0.3 mph N0.5 kmh N 2.6 mph4.2 kmh 29.87 in1011.5 mb 0.00 in0.0 mm 0.00 in0.0 mm 0.00 in0.0 mm
08:42 PM 70.7°F21.5°C 64.2°F17.9°C 80% 0.6 mph NNW1.0 kmh NNW 2.6 mph4.2 kmh 29.87 in1011.5 mb 0.00 in0.0 mm 0.00 in0.0 mm 0.00 in0.0 mm
08:41 PM 70.7°F21.5°C 64.2°F17.9°C 80% 0.9 mph NW1.4 kmh NW 2.6 mph4.2 kmh 29.87 in1011.5 mb 0.00 in0.0 mm 0.00 in0.0 mm 0.00 in0.0 mm
08:40 PM 70.7°F21.5°C 64.2°F17.9°C 80% 0.9 mph NW1.4 kmh NW 2.6 mph4.2 kmh 29.87 in1011.5 mb 0.00 in0.0 mm 0.00 in0.0 mm 0.00 in0.0 mm
08:39 PM 70.7°F21.5°C 64.2°F17.9°C 80% 1.0 mph NW1.6 kmh NW 2.6 mph4.2 kmh 29.86 in1011.2 mb 0.00 in0.0 mm 0.00 in0.0 mm 0.00 in0.0 mm
08:38 PM 70.7°F21.5°C 64.2°F17.9°C 80% 1.1 mph NW1.8 kmh NW 2.6 mph4.2 kmh 29.86 in1011.2 mb 0.00 in0.0 mm 0.00 in0.0 mm 0.00 in0.0 mm
08:37 PM 70.7°F21.5°C 64.2°F17.9°C 80% 1.3 mph NNW2.1 kmh NNW 2.6 mph4.2 kmh 29.87 in1011.5 mb 0.00 in0.0 mm 0.00 in0.0 mm 0.00 in0.0 mm
08:36 PM 70.7°F21.5°C 64.2°F17.9°C 80% 1.5 mph NW2.4 kmh NW 2.6 mph4.2 kmh 29.86 in1011.2 mb 0.00 in0.0 mm 0.00 in0.0 mm 0.00 in0.0 mm
08:35 PM 70.7°F21.5°C 64.2°F17.9°C 80% 1.6 mph NW2.6 kmh NW 2.6 mph4.2 kmh 29.87 in1011.5 mb 0.00 in0.0 mm 0.00 in0.0 mm 0.00 in0.0 mm
08:34 PM 70.7°F21.5°C 64.2°F17.9°C 80% 1.6 mph NW2.6 kmh NW 2.6 mph4.2 kmh 29.86 in1011.2 mb 0.00 in0.0 mm 0.00 in0.0 mm 0.00 in0.0 mm
08:33 PM 70.7°F21.5°C 64.2°F17.9°C 80% 1.7 mph WNW2.7 kmh WNW 2.6 mph4.2 kmh 29.86 in1011.2 mb 0.00 in0.0 mm 0.00 in0.0 mm 0.00 in0.0 mm
08:32 PM 70.7°F21.5°C 64.2°F17.9°C 80% 1.7 mph WSW2.7 kmh WSW 3.5 mph5.6 kmh 29.87 in1011.5 mb 0.00 in0.0 mm 0.00 in0.0 mm 0.00 in0.0 mm
08:31 PM 70.9°F21.6°C 64.0°F17.8°C 79% 1.8 mph SW2.9 kmh SW 3.5 mph5.6 kmh 29.86 in1011.2 mb 0.00 in0.0 mm 0.00 in0.0 mm 0.00 in0.0 mm
08:30 PM 70.9°F21.6°C 64.0°F17.8°C 79% 2.0 mph SW3.2 kmh SW 3.5 mph5.6 kmh 29.86 in1011.2 mb 0.00 in0.0 mm 0.00 in0.0 mm 0.00 in0.0 mm
08:29 PM 70.9°F21.6°C 64.0°F17.8°C 79% 2.0 mph SW3.2 kmh SW 3.5 mph5.6 kmh 29.86 in1011.2 mb 0.00 in0.0 mm 0.00 in0.0 mm 0.00 in0.0 mm
08:28 PM 70.9°F21.6°C 64.0°F17.8°C 79% 1.8 mph SSW2.9 kmh SSW 3.5 mph5.6 kmh 29.86 in1011.2 mb 0.00 in0.0 mm 0.00 in0.0 mm 0.00 in0.0 mm
08:27 PM 70.9°F21.6°C 63.7°F17.6°C 78% 1.6 mph SSW2.6 kmh SSW 3.5 mph5.6 kmh 29.86 in1011.2 mb 0.00 in0.0 mm 0.00 in0.0 mm 0.00 in0.0 mm
08:26 PM 70.9°F21.6°C 63.3°F17.4°C 77% 1.5 mph SSW2.4 kmh SSW 3.5 mph5.6 kmh 29.86 in1011.2 mb 0.00 in0.0 mm 0.00 in0.0 mm 0.00 in0.0 mm
08:25 PM 70.9°F21.6°C 63.3°F17.4°C 77% 1.4 mph S2.3 kmh S 3.5 mph5.6 kmh 29.86 in1011.2 mb 0.00 in0.0 mm 0.00 in0.0 mm 0.00 in0.0 mm
08:24 PM 70.9°F21.6°C 63.3°F17.4°C 77% 1.2 mph S1.9 kmh S 3.5 mph5.6 kmh 29.86 in1011.2 mb 0.00 in0.0 mm 0.00 in0.0 mm 0.00 in0.0 mm
08:23 PM 71.4°F21.9°C 63.5°F17.5°C 76% 1.0 mph S1.6 kmh S 3.5 mph5.6 kmh 29.85 in1010.8 mb 0.00 in0.0 mm 0.00 in0.0 mm 0.00 in0.0 mm
08:22 PM 71.6°F22.0°C 62.5°F16.9°C 73% 0.6 mph S1.0 kmh S 3.5 mph5.6 kmh 29.85 in1010.8 mb 0.00 in0.0 mm 0.00 in0.0 mm 0.00 in0.0 mm
08:21 PM 72.0°F22.2°C 62.4°F16.9°C 72% 0.3 mph S0.5 kmh S 3.5 mph5.6 kmh 29.85 in1010.8 mb 0.00 in0.0 mm 0.00 in0.0 mm 0.00 in0.0 mm
08:20 PM 72.0°F22.2°C 62.4°F16.9°C 72% 0.2 mph WSW0.3 kmh WSW 1.7 mph2.7 kmh 29.85 in1010.8 mb 0.00 in0.0 mm 0.00 in0.0 mm 0.00 in0.0 mm
08:19 PM 72.1°F22.3°C 62.6°F17.0°C 72% 0.3 mph WNW0.5 kmh WNW 1.7 mph2.7 kmh 29.85 in1010.8 mb 0.00 in0.0 mm 0.00 in0.0 mm 0.00 in0.0 mm
08:18 PM 72.1°F22.3°C 62.6°F17.0°C 72% 0.5 mph NW0.8 kmh NW 1.7 mph2.7 kmh 29.85 in1010.8 mb 0.00 in0.0 mm 0.00 in0.0 mm 0.00 in0.0 mm
08:17 PM 72.1°F22.3°C 62.6°F17.0°C 72% 0.7 mph NW1.1 kmh NW 2.6 mph4.2 kmh 29.85 in1010.8 mb 0.00 in0.0 mm 0.00 in0.0 mm 0.00 in0.0 mm
08:16 PM 72.1°F22.3°C 62.6°F17.0°C 72% 1.0 mph NW1.6 kmh NW 2.6 mph4.2 kmh 29.85 in1010.8 mb 0.00 in0.0 mm 0.00 in0.0 mm 0.00 in0.0 mm
08:15 PM 72.1°F22.3°C 62.6°F17.0°C 72% 1.3 mph NW2.1 kmh NW 2.6 mph4.2 kmh 29.85 in1010.8 mb 0.00 in0.0 mm 0.00 in0.0 mm 0.00 in0.0 mm
08:14 PM 72.1°F22.3°C 63.0°F17.2°C 73% 1.5 mph NW2.4 kmh NW 2.6 mph4.2 kmh 29.85 in1010.8 mb 0.00 in0.0 mm 0.00 in0.0 mm 0.00 in0.0 mm
08:13 PM 72.1°F22.3°C 63.0°F17.2°C 73% 1.7 mph NW2.7 kmh NW 2.6 mph4.2 kmh 29.85 in1010.8 mb 0.00 in0.0 mm 0.00 in0.0 mm 0.00 in0.0 mm
08:12 PM 72.1°F22.3°C 63.0°F17.2°C 73% 1.7 mph NW2.7 kmh NW 2.6 mph4.2 kmh 29.85 in1010.8 mb 0.00 in0.0 mm 0.00 in0.0 mm 0.00 in0.0 mm
08:11 PM 72.1°F22.3°C 63.0°F17.2°C 73% 1.8 mph NW2.9 kmh NW 2.6 mph4.2 kmh 29.85 in1010.8 mb 0.00 in0.0 mm 0.00 in0.0 mm 0.00 in0.0 mm
08:10 PM 72.1°F22.3°C 63.0°F17.2°C 73% 1.6 mph NNW2.6 kmh NNW 2.6 mph4.2 kmh 29.85 in1010.8 mb 0.00 in0.0 mm 0.00 in0.0 mm 0.00 in0.0 mm
08:09 PM 72.1°F22.3°C 62.6°F17.0°C 72% 1.4 mph NNW2.3 kmh NNW 2.6 mph4.2 kmh 29.84 in1010.5 mb 0.00 in0.0 mm 0.00 in0.0 mm 0.00 in0.0 mm
08:08 PM 72.1°F22.3°C 63.0°F17.2°C 73% 1.2 mph NNW1.9 kmh NNW 2.6 mph4.2 kmh 29.85 in1010.8 mb 0.00 in0.0 mm 0.00 in0.0 mm 0.00 in0.0 mm
08:07 PM 72.1°F22.3°C 63.4°F17.4°C 74% 1.0 mph NNW1.6 kmh NNW 2.6 mph4.2 kmh 29.85 in1010.8 mb 0.00 in0.0 mm 0.00 in0.0 mm 0.00 in0.0 mm
08:06 PM 72.1°F22.3°C 63.4°F17.4°C 74% 0.7 mph NW1.1 kmh NW 2.6 mph4.2 kmh 29.84 in1010.5 mb 0.00 in0.0 mm 0.00 in0.0 mm 0.00 in0.0 mm
08:05 PM 72.1°F22.3°C 63.8°F17.7°C 75% 0.5 mph NW0.8 kmh NW 2.6 mph4.2 kmh 29.85 in1010.8 mb 0.00 in0.0 mm 0.00 in0.0 mm 0.00 in0.0 mm
08:04 PM 72.1°F22.3°C 63.8°F17.7°C 75% 0.2 mph NW0.3 kmh NW 2.6 mph4.2 kmh 29.85 in1010.8 mb 0.00 in0.0 mm 0.00 in0.0 mm 0.00 in0.0 mm
08:03 PM 72.1°F22.3°C 64.2°F17.9°C 76% Calm Calm -- 29.85 in1010.8 mb 0.00 in0.0 mm 0.00 in0.0 mm 0.00 in0.0 mm
08:02 PM 72.1°F22.3°C 64.2°F17.9°C 76% Calm Calm -- 29.85 in1010.8 mb 0.00 in0.0 mm 0.00 in0.0 mm 0.00 in0.0 mm
08:01 PM 72.1°F22.3°C 64.2°F17.9°C 76% Calm Calm -- 29.85 in1010.8 mb 0.00 in0.0 mm 0.00 in0.0 mm 0.00 in0.0 mm
08:00 PM 72.1°F22.3°C 64.2°F17.9°C 76% Calm Calm 0.9 mph1.4 kmh 29.85 in1010.8 mb 0.00 in0.0 mm 0.00 in0.0 mm 0.00 in0.0 mm
07:59 PM 72.1°F22.3°C 64.2°F17.9°C 76% 0.1 mph NNW0.2 kmh NNW 1.7 mph2.7 kmh 29.85 in1010.8 mb 0.00 in0.0 mm 0.00 in0.0 mm 0.00 in0.0 mm
07:58 PM 72.1°F22.3°C 64.2°F17.9°C 76% 0.3 mph NNW0.5 kmh NNW 1.7 mph2.7 kmh 29.85 in1010.8 mb 0.00 in0.0 mm 0.00 in0.0 mm 0.00 in0.0 mm
07:57 PM 72.1°F22.3°C 64.2°F17.9°C 76% 0.5 mph NW0.8 kmh NW 1.7 mph2.7 kmh 29.85 in1010.8 mb 0.00 in0.0 mm 0.00 in0.0 mm 0.00 in0.0 mm
07:56 PM 72.1°F22.3°C 64.2°F17.9°C 76% 0.7 mph NW1.1 kmh NW 1.7 mph2.7 kmh 29.85 in1010.8 mb 0.00 in0.0 mm 0.00 in0.0 mm 0.00 in0.0 mm
07:55 PM 72.1°F22.3°C 64.2°F17.9°C 76% 0.8 mph NW1.3 kmh NW 1.7 mph2.7 kmh 29.85 in1010.8 mb 0.00 in0.0 mm 0.00 in0.0 mm 0.00 in0.0 mm
07:54 PM 72.1°F22.3°C 63.8°F17.7°C 75% 1.0 mph NNW1.6 kmh NNW 2.6 mph4.2 kmh 29.85 in1010.8 mb 0.00 in0.0 mm 0.00 in0.0 mm 0.00 in0.0 mm
07:53 PM 72.1°F22.3°C 63.8°F17.7°C 75% 1.2 mph NW1.9 kmh NW 2.6 mph4.2 kmh 29.85 in1010.8 mb 0.00 in0.0 mm 0.00 in0.0 mm 0.00 in0.0 mm
07:52 PM 72.1°F22.3°C 63.8°F17.7°C 75% 1.4 mph NW2.3 kmh NW 2.6 mph4.2 kmh 29.85 in1010.8 mb 0.00 in0.0 mm 0.00 in0.0 mm 0.00 in0.0 mm
07:51 PM 72.7°F22.6°C 64.3°F17.9°C 75% 1.6 mph NNW2.6 kmh NNW 2.6 mph4.2 kmh 29.85 in1010.8 mb 0.00 in0.0 mm 0.00 in0.0 mm 0.00 in0.0 mm
07:50 PM 72.7°F22.6°C 63.9°F17.7°C 74% 1.7 mph NNW2.7 kmh NNW 2.6 mph4.2 kmh 29.85 in1010.8 mb 0.00 in0.0 mm 0.00 in0.0 mm 0.00 in0.0 mm
07:49 PM 72.7°F22.6°C 64.3°F17.9°C 75% 1.5 mph NW2.4 kmh NW 2.6 mph4.2 kmh 29.84 in1010.5 mb 0.00 in0.0 mm 0.00 in0.0 mm 0.00 in0.0 mm
07:48 PM 72.7°F22.6°C 64.3°F17.9°C 75% 1.4 mph NW2.3 kmh NW 2.6 mph4.2 kmh 29.85 in1010.8 mb 0.00 in0.0 mm 0.00 in0.0 mm 0.00 in0.0 mm
07:47 PM 72.7°F22.6°C 63.9°F17.7°C 74% 1.2 mph NNW1.9 kmh NNW 2.6 mph4.2 kmh 29.84 in1010.5 mb 0.00 in0.0 mm 0.00 in0.0 mm 0.00 in0.0 mm
07:46 PM 72.7°F22.6°C 64.3°F17.9°C 75% 1.1 mph NNW1.8 kmh NNW 2.6 mph4.2 kmh 29.84 in1010.5 mb 0.00 in0.0 mm 0.00 in0.0 mm 0.00 in0.0 mm
07:45 PM 72.7°F22.6°C 63.9°F17.7°C 74% 1.0 mph NNW1.6 kmh NNW 2.6 mph4.2 kmh 29.85 in1010.8 mb 0.00 in0.0 mm 0.00 in0.0 mm 0.00 in0.0 mm
07:44 PM 72.7°F22.6°C 64.3°F17.9°C 75% 0.9 mph NNW1.4 kmh NNW 2.6 mph4.2 kmh 29.85 in1010.8 mb 0.00 in0.0 mm 0.00 in0.0 mm 0.00 in0.0 mm
07:43 PM 72.7°F22.6°C 64.7°F18.2°C 76% 0.9 mph NNW1.4 kmh NNW 2.6 mph4.2 kmh 29.85 in1010.8 mb 0.00 in0.0 mm 0.00 in0.0 mm 0.00 in0.0 mm
07:42 PM 72.7°F22.6°C 65.1°F18.4°C 77% 0.9 mph NNW1.4 kmh NNW 2.6 mph4.2 kmh 29.85 in1010.8 mb 0.00 in0.0 mm 0.00 in0.0 mm 0.00 in0.0 mm
07:41 PM 72.7°F22.6°C 65.1°F18.4°C 77% 0.9 mph N1.4 kmh N 1.7 mph2.7 kmh 29.85 in1010.8 mb 0.00 in0.0 mm 0.00 in0.0 mm 0.00 in0.0 mm
07:40 PM 72.7°F22.6°C 64.7°F18.2°C 76% 1.0 mph NNW1.6 kmh NNW 2.6 mph4.2 kmh 29.85 in1010.8 mb 0.00 in0.0 mm 0.00 in0.0 mm 0.00 in0.0 mm
07:39 PM 72.7°F22.6°C 64.3°F17.9°C 75% 1.2 mph NNW1.9 kmh NNW 2.6 mph4.2 kmh 29.84 in1010.5 mb 0.00 in0.0 mm 0.00 in0.0 mm 0.00 in0.0 mm
07:38 PM 72.7°F22.6°C 64.3°F17.9°C 75% 1.4 mph NW2.3 kmh NW 2.6 mph4.2 kmh 29.85 in1010.8 mb 0.00 in0.0 mm 0.00 in0.0 mm 0.00 in0.0 mm
07:37 PM 72.7°F22.6°C 64.3°F17.9°C 75% 1.7 mph NW2.7 kmh NW 2.6 mph4.2 kmh 29.84 in1010.5 mb 0.00 in0.0 mm 0.00 in0.0 mm 0.00 in0.0 mm
07:36 PM 72.7°F22.6°C 64.3°F17.9°C 75% 1.9 mph NW3.1 kmh NW 2.6 mph4.2 kmh 29.85 in1010.8 mb 0.00 in0.0 mm 0.00 in0.0 mm 0.00 in0.0 mm
07:35 PM 72.7°F22.6°C 64.3°F17.9°C 75% 2.1 mph NW3.4 kmh NW 2.6 mph4.2 kmh 29.85 in1010.8 mb 0.00 in0.0 mm 0.00 in0.0 mm 0.00 in0.0 mm
07:34 PM 72.9°F22.7°C 64.5°F18.1°C 75% 2.3 mph NW3.7 kmh NW 2.6 mph4.2 kmh 29.84 in1010.5 mb 0.00 in0.0 mm 0.00 in0.0 mm 0.00 in0.0 mm
07:33 PM 72.9°F22.7°C 64.5°F18.1°C 75% 2.4 mph NW3.9 kmh NW 2.6 mph4.2 kmh 29.85 in1010.8 mb 0.00 in0.0 mm 0.00 in0.0 mm 0.00 in0.0 mm
07:32 PM 73.0°F22.8°C 64.6°F18.1°C 75% 2.4 mph NW3.9 kmh NW 2.6 mph4.2 kmh 29.85 in1010.8 mb 0.00 in0.0 mm 0.00 in0.0 mm 0.00 in0.0 mm
07:31 PM 73.2°F22.9°C 64.4°F18.0°C 74% 2.5 mph NW4.0 kmh NW 2.6 mph4.2 kmh 29.85 in1010.8 mb 0.00 in0.0 mm 0.00 in0.0 mm 0.00 in0.0 mm
07:30 PM 73.2°F22.9°C 64.4°F18.0°C 74% 2.5 mph NW4.0 kmh NW 2.6 mph4.2 kmh 29.84 in1010.5 mb 0.00 in0.0 mm 0.00 in0.0 mm 0.00 in0.0 mm
07:29 PM 73.4°F23.0°C 64.6°F18.1°C 74% 2.5 mph NW4.0 kmh NW 2.6 mph4.2 kmh 29.84 in1010.5 mb 0.00 in0.0 mm 0.00 in0.0 mm 0.00 in0.0 mm
07:28 PM 73.2°F22.9°C 64.0°F17.8°C 73% 2.6 mph NW4.2 kmh NW 2.6 mph4.2 kmh 29.85 in1010.8 mb 0.00 in0.0 mm 0.00 in0.0 mm 0.00 in0.0 mm
07:27 PM 73.4°F23.0°C 64.2°F17.9°C 73% 2.6 mph NW4.2 kmh NW 2.6 mph4.2 kmh 29.85 in1010.8 mb 0.00 in0.0 mm 0.00 in0.0 mm 0.00 in0.0 mm
07:26 PM 73.4°F23.0°C 64.2°F17.9°C 73% 2.6 mph NW4.2 kmh NW 2.6 mph4.2 kmh 29.85 in1010.8 mb 0.00 in0.0 mm 0.00 in0.0 mm 0.00 in0.0 mm
07:25 PM 73.4°F23.0°C 64.6°F18.1°C 74% 2.6 mph NW4.2 kmh NW 2.6 mph4.2 kmh 29.85 in1010.8 mb 0.00 in0.0 mm 0.00 in0.0 mm 0.00 in0.0 mm
07:24 PM 73.4°F23.0°C 64.6°F18.1°C 74% 2.6 mph NW4.2 kmh NW 2.6 mph4.2 kmh 29.84 in1010.5 mb 0.00 in0.0 mm 0.00 in0.0 mm 0.00 in0.0 mm
07:23 PM 73.2°F22.9°C 64.4°F18.0°C 74% 2.6 mph NW4.2 kmh NW 2.6 mph4.2 kmh 29.85 in1010.8 mb 0.00 in0.0 mm 0.00 in0.0 mm 0.00 in0.0 mm
07:22 PM 73.4°F23.0°C 64.6°F18.1°C 74% 2.6 mph NW4.2 kmh NW 2.6 mph4.2 kmh 29.85 in1010.8 mb 0.00 in0.0 mm 0.00 in0.0 mm 0.00 in0.0 mm
07:21 PM 73.4°F23.0°C 65.0°F18.3°C 75% 2.5 mph NW4.0 kmh NW 2.6 mph4.2 kmh 29.84 in1010.5 mb 0.00 in0.0 mm 0.00 in0.0 mm 0.00 in0.0 mm
07:20 PM 73.4°F23.0°C 64.6°F18.1°C 74% 2.5 mph NW4.0 kmh NW 2.6 mph4.2 kmh 29.85 in1010.8 mb 0.00 in0.0 mm 0.00 in0.0 mm 0.00 in0.0 mm
07:19 PM 73.4°F23.0°C 65.0°F18.3°C 75% 2.5 mph NW4.0 kmh NW 2.6 mph4.2 kmh 29.85 in1010.8 mb 0.00 in0.0 mm 0.00 in0.0 mm 0.00 in0.0 mm
07:18 PM 73.4°F23.0°C 65.0°F18.3°C 75% 2.5 mph NW4.0 kmh NW 2.6 mph4.2 kmh 29.85 in1010.8 mb 0.00 in0.0 mm 0.00 in0.0 mm 0.00 in0.0 mm
07:17 PM 73.4°F23.0°C 65.0°F18.3°C 75% 2.5 mph NW4.0 kmh NW 2.6 mph4.2 kmh 29.85 in1010.8 mb 0.00 in0.0 mm 0.00 in0.0 mm 0.00 in0.0 mm
07:16 PM 73.6°F23.1°C 65.2°F18.4°C 75% 2.5 mph NW4.0 kmh NW 2.6 mph4.2 kmh 29.84 in1010.5 mb 0.00 in0.0 mm 0.00 in0.0 mm 0.00 in0.0 mm
07:15 PM 73.4°F23.0°C 64.6°F18.1°C 74% 2.5 mph NW4.0 kmh NW 2.6 mph4.2 kmh 29.85 in1010.8 mb 0.00 in0.0 mm 0.00 in0.0 mm 0.00 in0.0 mm
07:14 PM 73.6°F23.1°C 65.2°F18.4°C 75% 2.5 mph NW4.0 kmh NW 2.6 mph4.2 kmh 29.85 in1010.8 mb 0.00 in0.0 mm 0.00 in0.0 mm 0.00 in0.0 mm
07:13 PM 73.6°F23.1°C 65.2°F18.4°C 75% 2.5 mph NW4.0 kmh NW 2.6 mph4.2 kmh 29.84 in1010.5 mb 0.00 in0.0 mm 0.00 in0.0 mm 0.00 in0.0 mm
07:12 PM 73.6°F23.1°C 65.2°F18.4°C 75% 2.4 mph NW3.9 kmh NW 2.6 mph4.2 kmh 29.84 in1010.5 mb 0.00 in0.0 mm 0.00 in0.0 mm 0.00 in0.0 mm
07:11 PM 73.6°F23.1°C 65.2°F18.4°C 75% 2.5 mph NW4.0 kmh NW 2.6 mph4.2 kmh 29.84 in1010.5 mb 0.00 in0.0 mm 0.00 in0.0 mm 0.00 in0.0 mm
07:10 PM 73.6°F23.1°C 65.2°F18.4°C 75% 2.5 mph NW4.0 kmh NW 2.6 mph4.2 kmh 29.84 in1010.5 mb 0.00 in0.0 mm 0.00 in0.0 mm 0.00 in0.0 mm
07:09 PM 73.6°F23.1°C 65.2°F18.4°C 75% 2.4 mph NW3.9 kmh NW 2.6 mph4.2 kmh 29.84 in1010.5 mb 0.00 in0.0 mm 0.00 in0.0 mm 0.00 in0.0 mm
07:08 PM 73.6°F23.1°C 64.8°F18.2°C 74% 2.4 mph NW3.9 kmh NW 2.6 mph4.2 kmh 29.84 in1010.5 mb 0.00 in0.0 mm 0.00 in0.0 mm 0.00 in0.0 mm
07:07 PM 73.6°F23.1°C 64.8°F18.2°C 74% 2.5 mph NNW4.0 kmh NNW 2.6 mph4.2 kmh 29.84 in1010.5 mb 0.00 in0.0 mm 0.00 in0.0 mm 0.00 in0.0 mm
07:06 PM 73.8°F23.2°C 65.0°F18.3°C 74% 2.5 mph NNW4.0 kmh NNW 2.6 mph4.2 kmh 29.84 in1010.5 mb 0.00 in0.0 mm 0.00 in0.0 mm 0.00 in0.0 mm
07:05 PM 73.8°F23.2°C 65.3°F18.5°C 75% 2.4 mph NNW3.9 kmh NNW 2.6 mph4.2 kmh 29.85 in1010.8 mb 0.00 in0.0 mm 0.00 in0.0 mm 0.00 in0.0 mm
07:04 PM 73.6°F23.1°C 64.8°F18.2°C 74% 2.3 mph NNW3.7 kmh NNW 2.6 mph4.2 kmh 29.84 in1010.5 mb 0.00 in0.0 mm 0.00 in0.0 mm 0.00 in0.0 mm
07:03 PM 73.6°F23.1°C 65.2°F18.4°C 75% 2.3 mph NNW3.7 kmh NNW 2.6 mph4.2 kmh 29.84 in1010.5 mb 0.00 in0.0 mm 0.00 in0.0 mm 0.00 in0.0 mm
07:02 PM 73.8°F23.2°C 65.0°F18.3°C 74% 2.3 mph NNW3.7 kmh NNW 2.6 mph4.2 kmh 29.85 in1010.8 mb 0.00 in0.0 mm 0.00 in0.0 mm 0.00 in0.0 mm
07:01 PM 73.8°F23.2°C 65.3°F18.5°C 75% 2.4 mph NW3.9 kmh NW 2.6 mph4.2 kmh 29.84 in1010.5 mb 0.00 in0.0 mm 0.00 in0.0 mm 0.00 in0.0 mm
07:00 PM 73.8°F23.2°C 65.0°F18.3°C 74% 2.3 mph NW3.7 kmh NW 2.6 mph4.2 kmh 29.84 in1010.5 mb 0.00 in0.0 mm 0.00 in0.0 mm 0.00 in0.0 mm
06:59 PM 73.8°F23.2°C 65.0°F18.3°C 74% 2.4 mph NW3.9 kmh NW 2.6 mph4.2 kmh 29.84 in1010.5 mb 0.00 in0.0 mm 0.00 in0.0 mm 0.00 in0.0 mm
06:58 PM 73.9°F23.3°C 65.1°F18.4°C 74% 2.4 mph NW3.9 kmh NW 2.6 mph4.2 kmh 29.84 in1010.5 mb 0.00 in0.0 mm 0.00 in0.0 mm 0.00 in0.0 mm
06:57 PM 73.8°F23.2°C 65.0°F18.3°C 74% 2.4 mph NW3.9 kmh NW 2.6 mph4.2 kmh 29.84 in1010.5 mb 0.00 in0.0 mm 0.00 in0.0 mm 0.00 in0.0 mm
06:56 PM 73.9°F23.3°C 65.1°F18.4°C 74% 2.4 mph NW3.9 kmh NW 2.6 mph4.2 kmh 29.84 in1010.5 mb 0.00 in0.0 mm 0.00 in0.0 mm 0.00 in0.0 mm
06:55 PM 73.9°F23.3°C 65.1°F18.4°C 74% 2.5 mph NW4.0 kmh NW 2.6 mph4.2 kmh 29.84 in1010.5 mb 0.00 in0.0 mm 0.00 in0.0 mm 0.00 in0.0 mm
06:54 PM 73.9°F23.3°C 65.1°F18.4°C 74% 2.4 mph NW3.9 kmh NW 2.6 mph4.2 kmh 29.84 in1010.5 mb 0.00 in0.0 mm 0.00 in0.0 mm 0.00 in0.0 mm
06:53 PM 73.9°F23.3°C 65.1°F18.4°C 74% 2.2 mph WNW3.5 kmh WNW 2.6 mph4.2 kmh 29.84 in1010.5 mb 0.00 in0.0 mm 0.00 in0.0 mm 0.00 in0.0 mm
06:52 PM 73.9°F23.3°C 65.1°F18.4°C 74% 2.0 mph WNW3.2 kmh WNW 2.6 mph4.2 kmh 29.84 in1010.5 mb 0.00 in0.0 mm 0.00 in0.0 mm 0.00 in0.0 mm
06:51 PM 73.9°F23.3°C 65.1°F18.4°C 74% 1.7 mph WNW2.7 kmh WNW 2.6 mph4.2 kmh 29.84 in1010.5 mb 0.00 in0.0 mm 0.00 in0.0 mm 0.00 in0.0 mm
06:50 PM 73.9°F23.3°C 65.1°F18.4°C 74% 1.6 mph WNW2.6 kmh WNW 2.6 mph4.2 kmh 29.84 in1010.5 mb 0.00 in0.0 mm 0.00 in0.0 mm 0.00 in0.0 mm
06:49 PM 73.9°F23.3°C 65.1°F18.4°C 74% 1.3 mph WNW2.1 kmh WNW 2.6 mph4.2 kmh 29.84 in1010.5 mb 0.00 in0.0 mm 0.00 in0.0 mm 0.00 in0.0 mm
06:48 PM 74.1°F23.4°C 65.3°F18.5°C 74% 1.0 mph W1.6 kmh W 2.6 mph4.2 kmh 29.84 in1010.5 mb 0.00 in0.0 mm 0.00 in0.0 mm 0.00 in0.0 mm
06:47 PM 74.1°F23.4°C 65.3°F18.5°C 74% 0.8 mph WNW1.3 kmh WNW 2.6 mph4.2 kmh 29.84 in1010.5 mb 0.00 in0.0 mm 0.00 in0.0 mm 0.00 in0.0 mm
06:46 PM 74.3°F23.5°C 65.5°F18.6°C 74% 0.5 mph WNW0.8 kmh WNW 2.6 mph4.2 kmh 29.84 in1010.5 mb 0.00 in0.0 mm 0.00 in0.0 mm 0.00 in0.0 mm
06:45 PM 74.5°F23.6°C 65.6°F18.7°C 74% 0.3 mph NW0.5 kmh NW 1.7 mph2.7 kmh 29.84 in1010.5 mb 0.00 in0.0 mm 0.00 in0.0 mm 0.00 in0.0 mm
06:44 PM 74.5°F23.6°C 65.6°F18.7°C 74% 0.3 mph WNW0.5 kmh WNW 1.7 mph2.7 kmh 29.84 in1010.5 mb 0.00 in0.0 mm 0.00 in0.0 mm 0.00 in0.0 mm
06:43 PM 74.5°F23.6°C 65.6°F18.7°C 74% 0.4 mph NW0.6 kmh NW 1.7 mph2.7 kmh 29.84 in1010.5 mb 0.00 in0.0 mm 0.00 in0.0 mm 0.00 in0.0 mm
06:42 PM 74.7°F23.7°C 65.8°F18.8°C 74% 0.5 mph WNW0.8 kmh WNW 1.7 mph2.7 kmh 29.84 in1010.5 mb 0.00 in0.0 mm 0.00 in0.0 mm 0.00 in0.0 mm
06:41 PM 74.7°F23.7°C 65.8°F18.8°C 74% 0.6 mph W1.0 kmh W 1.7 mph2.7 kmh 29.84 in1010.5 mb 0.00 in0.0 mm 0.00 in0.0 mm 0.00 in0.0 mm
06:40 PM 74.7°F23.7°C 65.4°F18.6°C 73% 0.8 mph W1.3 kmh W 2.6 mph4.2 kmh 29.84 in1010.5 mb 0.00 in0.0 mm 0.00 in0.0 mm 0.00 in0.0 mm
06:39 PM 74.7°F23.7°C 65.4°F18.6°C 73% 1.0 mph WNW1.6 kmh WNW 2.6 mph4.2 kmh 29.84 in1010.5 mb 0.00 in0.0 mm 0.00 in0.0 mm 0.00 in0.0 mm
06:38 PM 74.8°F23.8°C 65.6°F18.7°C 73% 1.2 mph NW1.9 kmh NW 2.6 mph4.2 kmh 29.84 in1010.5 mb 0.00 in0.0 mm 0.00 in0.0 mm 0.00 in0.0 mm
06:37 PM 74.7°F23.7°C 65.4°F18.6°C 73% 1.4 mph NW2.3 kmh NW 2.6 mph4.2 kmh 29.84 in1010.5 mb 0.00 in0.0 mm 0.00 in0.0 mm 0.00 in0.0 mm
06:36 PM 74.8°F23.8°C 65.6°F18.7°C 73% 1.5 mph NW2.4 kmh NW 2.6 mph4.2 kmh 29.84 in1010.5 mb 0.00 in0.0 mm 0.00 in0.0 mm 0.00 in0.0 mm
06:35 PM 74.7°F23.7°C 65.4°F18.6°C 73% 1.6 mph NW2.6 kmh NW 2.6 mph4.2 kmh 29.85 in1010.8 mb 0.00 in0.0 mm 0.00 in0.0 mm 0.00 in0.0 mm
06:34 PM 74.8°F23.8°C 65.6°F18.7°C 73% 1.6 mph NW2.6 kmh NW 2.6 mph4.2 kmh 29.84 in1010.5 mb 0.00 in0.0 mm 0.00 in0.0 mm 0.00 in0.0 mm
06:33 PM 74.8°F23.8°C 65.6°F18.7°C 73% 1.6 mph NW2.6 kmh NW 2.6 mph4.2 kmh 29.84 in1010.5 mb 0.00 in0.0 mm 0.00 in0.0 mm 0.00 in0.0 mm
06:32 PM 74.7°F23.7°C 65.4°F18.6°C 73% 1.6 mph NW2.6 kmh NW 2.6 mph4.2 kmh 29.84 in1010.5 mb 0.00 in0.0 mm 0.00 in0.0 mm 0.00 in0.0 mm
06:31 PM 74.7°F23.7°C 65.4°F18.6°C 73% 1.5 mph NW2.4 kmh NW 2.6 mph4.2 kmh 29.84 in1010.5 mb 0.00 in0.0 mm 0.00 in0.0 mm 0.00 in0.0 mm
06:30 PM 74.8°F23.8°C 65.6°F18.7°C 73% 1.5 mph NW2.4 kmh NW 1.7 mph2.7 kmh 29.84 in1010.5 mb 0.00 in0.0 mm 0.00 in0.0 mm 0.00 in0.0 mm
06:29 PM 74.8°F23.8°C 65.6°F18.7°C 73% 1.5 mph NW2.4 kmh NW 1.7 mph2.7 kmh 29.84 in1010.5 mb 0.00 in0.0 mm 0.00 in0.0 mm 0.00 in0.0 mm
06:28 PM 74.8°F23.8°C 65.6°F18.7°C 73% 1.5 mph WNW2.4 kmh WNW 1.7 mph2.7 kmh 29.84 in1010.5 mb 0.00 in0.0 mm 0.00 in0.0 mm 0.00 in0.0 mm
06:27 PM 75.0°F23.9°C 65.4°F18.6°C 72% 1.5 mph W2.4 kmh W 1.7 mph2.7 kmh 29.84 in1010.5 mb 0.00 in0.0 mm 0.00 in0.0 mm 0.00 in0.0 mm
06:26 PM 75.2°F24.0°C 65.1°F18.4°C 71% 1.5 mph W2.4 kmh W 1.7 mph2.7 kmh 29.85 in1010.8 mb 0.00 in0.0 mm 0.00 in0.0 mm 0.00 in0.0 mm
06:25 PM 75.2°F24.0°C 65.1°F18.4°C 71% 1.6 mph W2.6 kmh W 1.7 mph2.7 kmh 29.84 in1010.5 mb 0.00 in0.0 mm 0.00 in0.0 mm 0.00 in0.0 mm
06:24 PM 75.2°F24.0°C 65.1°F18.4°C 71% 1.6 mph W2.6 kmh W 1.7 mph2.7 kmh 29.84 in1010.5 mb 0.00 in0.0 mm 0.00 in0.0 mm 0.00 in0.0 mm
06:23 PM 75.4°F24.1°C 65.3°F18.5°C 71% 1.6 mph W2.6 kmh W 1.7 mph2.7 kmh 29.84 in1010.5 mb 0.00 in0.0 mm 0.00 in0.0 mm 0.00 in0.0 mm
06:22 PM 75.6°F24.2°C 65.1°F18.4°C 70% 1.6 mph W2.6 kmh W 1.7 mph2.7 kmh 29.84 in1010.5 mb 0.00 in0.0 mm 0.00 in0.0 mm 0.00 in0.0 mm
06:21 PM 75.4°F24.1°C 65.3°F18.5°C 71% 1.5 mph W2.4 kmh W 1.7 mph2.7 kmh 29.84 in1010.5 mb 0.00 in0.0 mm 0.00 in0.0 mm 0.00 in0.0 mm
06:20 PM 75.4°F24.1°C 65.3°F18.5°C 71% 1.4 mph W2.3 kmh W 1.7 mph2.7 kmh 29.84 in1010.5 mb 0.00 in0.0 mm 0.00 in0.0 mm 0.00 in0.0 mm
06:19 PM 75.4°F24.1°C 65.3°F18.5°C 71% 1.4 mph W2.3 kmh W 1.7 mph2.7 kmh 29.84 in1010.5 mb 0.00 in0.0 mm 0.00 in0.0 mm 0.00 in0.0 mm
06:18 PM 75.4°F24.1°C 65.3°F18.5°C 71% 1.4 mph W2.3 kmh W 2.6 mph4.2 kmh 29.84 in1010.5 mb 0.00 in0.0 mm 0.00 in0.0 mm 0.00 in0.0 mm
06:17 PM 75.4°F24.1°C 65.3°F18.5°C 71% 1.3 mph WNW2.1 kmh WNW 2.6 mph4.2 kmh 29.84 in1010.5 mb 0.00 in0.0 mm 0.00 in0.0 mm 0.00 in0.0 mm
06:16 PM 75.4°F24.1°C 65.3°F18.5°C 71% 1.1 mph WNW1.8 kmh WNW 2.6 mph4.2 kmh 29.84 in1010.5 mb 0.00 in0.0 mm 0.00 in0.0 mm 0.00 in0.0 mm
06:15 PM 75.4°F24.1°C 64.9°F18.3°C 70% 1.0 mph WNW1.6 kmh WNW 2.6 mph4.2 kmh 29.84 in1010.5 mb 0.00 in0.0 mm 0.00 in0.0 mm 0.00 in0.0 mm
06:14 PM 75.6°F24.2°C 65.1°F18.4°C 70% 0.8 mph WNW1.3 kmh WNW 2.6 mph4.2 kmh 29.84 in1010.5 mb 0.00 in0.0 mm 0.00 in0.0 mm 0.00 in0.0 mm
06:13 PM 75.4°F24.1°C 64.9°F18.3°C 70% 0.7 mph NW1.1 kmh NW 2.6 mph4.2 kmh 29.83 in1010.2 mb 0.00 in0.0 mm 0.00 in0.0 mm 0.00 in0.0 mm
06:12 PM 75.6°F24.2°C 65.1°F18.4°C 70% 0.6 mph NW1.0 kmh NW 2.6 mph4.2 kmh 29.84 in1010.5 mb 0.00 in0.0 mm 0.00 in0.0 mm 0.00 in0.0 mm
06:11 PM 75.6°F24.2°C 65.1°F18.4°C 70% 0.7 mph WNW1.1 kmh WNW 2.6 mph4.2 kmh 29.83 in1010.2 mb 0.00 in0.0 mm 0.00 in0.0 mm 0.00 in0.0 mm
06:10 PM 75.6°F24.2°C 64.7°F18.2°C 69% 0.8 mph WNW1.3 kmh WNW 2.6 mph4.2 kmh 29.84 in1010.5 mb 0.00 in0.0 mm 0.00 in0.0 mm 0.00 in0.0 mm
06:09 PM 75.7°F24.3°C 64.8°F18.2°C 69% 0.7 mph W1.1 kmh W 2.6 mph4.2 kmh 29.84 in1010.5 mb 0.00 in0.0 mm 0.00 in0.0 mm 0.00 in0.0 mm
06:08 PM 75.9°F24.4°C 64.6°F18.1°C 68% 0.6 mph W1.0 kmh W 2.6 mph4.2 kmh 29.84 in1010.5 mb 0.00 in0.0 mm 0.00 in0.0 mm 0.00 in0.0 mm
06:07 PM 75.9°F24.4°C 65.0°F18.3°C 69% 0.8 mph WNW1.3 kmh WNW 2.6 mph4.2 kmh 29.84 in1010.5 mb 0.00 in0.0 mm 0.00 in0.0 mm 0.00 in0.0 mm
06:06 PM 75.9°F24.4°C 65.0°F18.3°C 69% 1.0 mph W1.6 kmh W 2.6 mph4.2 kmh 29.84 in1010.5 mb 0.00 in0.0 mm 0.00 in0.0 mm 0.00 in0.0 mm
06:05 PM 75.9°F24.4°C 64.6°F18.1°C 68% 1.1 mph WNW1.8 kmh WNW 2.6 mph4.2 kmh 29.84 in1010.5 mb 0.00 in0.0 mm 0.00 in0.0 mm 0.00 in0.0 mm
06:04 PM 75.9°F24.4°C 65.0°F18.3°C 69% 1.3 mph WNW2.1 kmh WNW 2.6 mph4.2 kmh 29.84 in1010.5 mb 0.00 in0.0 mm 0.00 in0.0 mm 0.00 in0.0 mm
06:03 PM 75.7°F24.3°C 64.8°F18.2°C 69% 1.5 mph NW2.4 kmh NW 2.6 mph4.2 kmh 29.84 in1010.5 mb 0.00 in0.0 mm 0.00 in0.0 mm 0.00 in0.0 mm
06:02 PM 75.7°F24.3°C 64.8°F18.2°C 69% 1.6 mph NW2.6 kmh NW 2.6 mph4.2 kmh 29.84 in1010.5 mb 0.00 in0.0 mm 0.00 in0.0 mm 0.00 in0.0 mm
06:01 PM 75.7°F24.3°C 64.8°F18.2°C 69% 1.4 mph NW2.3 kmh NW 2.6 mph4.2 kmh 29.84 in1010.5 mb 0.00 in0.0 mm 0.00 in0.0 mm 0.00 in0.0 mm
06:00 PM 75.7°F24.3°C 64.8°F18.2°C 69% 1.3 mph NW2.1 kmh NW 2.6 mph4.2 kmh 29.84 in1010.5 mb 0.00 in0.0 mm 0.00 in0.0 mm 0.00 in0.0 mm
05:59 PM 75.7°F24.3°C 64.4°F18.0°C 68% 1.3 mph NW2.1 kmh NW 2.6 mph4.2 kmh 29.85 in1010.8 mb 0.00 in0.0 mm 0.00 in0.0 mm 0.00 in0.0 mm
05:58 PM 75.7°F24.3°C 64.4°F18.0°C 68% 1.1 mph NW1.8 kmh NW 2.6 mph4.2 kmh 29.84 in1010.5 mb 0.00 in0.0 mm 0.00 in0.0 mm 0.00 in0.0 mm
05:57 PM 75.7°F24.3°C 64.4°F18.0°C 68% 1.0 mph NW1.6 kmh NW 2.6 mph4.2 kmh 29.84 in1010.5 mb 0.00 in0.0 mm 0.00 in0.0 mm 0.00 in0.0 mm
05:56 PM 75.7°F24.3°C 64.4°F18.0°C 68% 1.0 mph NW1.6 kmh NW 2.6 mph4.2 kmh 29.84 in1010.5 mb 0.00 in0.0 mm 0.00 in0.0 mm 0.00 in0.0 mm
05:55 PM 75.7°F24.3°C 64.4°F18.0°C 68% 1.0 mph NW1.6 kmh NW 2.6 mph4.2 kmh 29.84 in1010.5 mb 0.00 in0.0 mm 0.00 in0.0 mm 0.00 in0.0 mm
05:54 PM 75.9°F24.4°C 64.6°F18.1°C 68% 1.0 mph NW1.6 kmh NW 2.6 mph4.2 kmh 29.84 in1010.5 mb 0.00 in0.0 mm 0.00 in0.0 mm 0.00 in0.0 mm
05:53 PM 76.1°F24.5°C 64.8°F18.2°C 68% 0.8 mph NW1.3 kmh NW 1.7 mph2.7 kmh 29.84 in1010.5 mb 0.00 in0.0 mm 0.00 in0.0 mm 0.00 in0.0 mm
05:52 PM 76.3°F24.6°C 64.9°F18.3°C 68% 0.7 mph WNW1.1 kmh WNW 1.7 mph2.7 kmh 29.84 in1010.5 mb 0.00 in0.0 mm 0.00 in0.0 mm 0.00 in0.0 mm
05:51 PM 76.8°F24.9°C 65.5°F18.6°C 68% 0.7 mph WNW1.1 kmh WNW 1.7 mph2.7 kmh 29.84 in1010.5 mb 0.00 in0.0 mm 0.00 in0.0 mm 0.00 in0.0 mm
05:50 PM 76.6°F24.8°C 64.9°F18.3°C 67% 0.7 mph WNW1.1 kmh WNW 1.7 mph2.7 kmh 29.84 in1010.5 mb 0.00 in0.0 mm 0.00 in0.0 mm 0.00 in0.0 mm
05:49 PM 76.5°F24.7°C 64.7°F18.2°C 67% 0.8 mph WNW1.3 kmh WNW 1.7 mph2.7 kmh 29.84 in1010.5 mb 0.00 in0.0 mm 0.00 in0.0 mm 0.00 in0.0 mm
05:48 PM 76.6°F24.8°C 65.3°F18.5°C 68% 0.8 mph WNW1.3 kmh WNW 1.7 mph2.7 kmh 29.84 in1010.5 mb 0.00 in0.0 mm 0.00 in0.0 mm 0.00 in0.0 mm
05:47 PM 76.6°F24.8°C 64.9°F18.3°C 67% 0.7 mph WNW1.1 kmh WNW 1.7 mph2.7 kmh 29.84 in1010.5 mb 0.00 in0.0 mm 0.00 in0.0 mm 0.00 in0.0 mm
05:46 PM 77.0°F25.0°C 65.2°F18.4°C 67% 0.6 mph WNW1.0 kmh WNW 1.7 mph2.7 kmh 29.84 in1010.5 mb 0.00 in0.0 mm 0.00 in0.0 mm 0.00 in0.0 mm
05:45 PM 77.0°F25.0°C 64.8°F18.2°C 66% 0.5 mph W0.8 kmh W 1.7 mph2.7 kmh 29.84 in1010.5 mb 0.00 in0.0 mm 0.00 in0.0 mm 0.00 in0.0 mm
05:44 PM 77.4°F25.2°C 65.1°F18.4°C 66% 0.5 mph W0.8 kmh W 1.7 mph2.7 kmh 29.84 in1010.5 mb 0.00 in0.0 mm 0.00 in0.0 mm 0.00 in0.0 mm
05:43 PM 77.5°F25.3°C 64.8°F18.2°C 65% 0.6 mph WNW1.0 kmh WNW 1.7 mph2.7 kmh 29.84 in1010.5 mb 0.00 in0.0 mm 0.00 in0.0 mm 0.00 in0.0 mm
05:42 PM 77.7°F25.4°C 64.6°F18.1°C 64% 0.6 mph WNW1.0 kmh WNW 1.7 mph2.7 kmh 29.84 in1010.5 mb 0.00 in0.0 mm 0.00 in0.0 mm 0.00 in0.0 mm
05:41 PM 77.7°F25.4°C 64.1°F17.8°C 63% 0.6 mph WNW1.0 kmh WNW 1.7 mph2.7 kmh 29.84 in1010.5 mb 0.00 in0.0 mm 0.00 in0.0 mm 0.00 in0.0 mm
05:40 PM 77.5°F25.3°C 63.5°F17.5°C 62% 0.6 mph WNW1.0 kmh WNW 1.7 mph2.7 kmh 29.84 in1010.5 mb 0.00 in0.0 mm 0.00 in0.0 mm 0.00 in0.0 mm
05:39 PM 77.2°F25.1°C 65.4°F18.6°C 67% 0.6 mph NW1.0 kmh NW 1.7 mph2.7 kmh 29.84 in1010.5 mb 0.00 in0.0 mm 0.00 in0.0 mm 0.00 in0.0 mm
05:38 PM 77.4°F25.2°C 65.1°F18.4°C 66% 0.5 mph NW0.8 kmh NW 1.7 mph2.7 kmh 29.84 in1010.5 mb 0.00 in0.0 mm 0.00 in0.0 mm 0.00 in0.0 mm
05:37 PM 77.2°F25.1°C 64.9°F18.3°C 66% 0.6 mph WNW1.0 kmh WNW 1.7 mph2.7 kmh 29.84 in1010.5 mb 0.00 in0.0 mm 0.00 in0.0 mm 0.00 in0.0 mm
05:36 PM 77.0°F25.0°C 64.3°F17.9°C 65% 0.7 mph WNW1.1 kmh WNW 1.7 mph2.7 kmh 29.84 in1010.5 mb 0.00 in0.0 mm 0.00 in0.0 mm 0.00 in0.0 mm
05:35 PM 76.8°F24.9°C 64.6°F18.1°C 66% 0.6 mph NW1.0 kmh NW 1.7 mph2.7 kmh 29.84 in1010.5 mb 0.00 in0.0 mm 0.00 in0.0 mm 0.00 in0.0 mm
05:34 PM 77.0°F25.0°C 64.3°F17.9°C 65% 0.4 mph NW0.6 kmh NW 1.7 mph2.7 kmh 29.84 in1010.5 mb 0.00 in0.0 mm 0.00 in0.0 mm 0.00 in0.0 mm
05:33 PM 77.5°F25.3°C 64.8°F18.2°C 65% 0.2 mph WNW0.3 kmh WNW 1.7 mph2.7 kmh 29.84 in1010.5 mb 0.00 in0.0 mm 0.00 in0.0 mm 0.00 in0.0 mm
05:32 PM 77.7°F25.4°C 64.6°F18.1°C 64% 0.2 mph W0.3 kmh W 1.7 mph2.7 kmh 29.84 in1010.5 mb 0.00 in0.0 mm 0.00 in0.0 mm 0.00 in0.0 mm
05:31 PM 77.5°F25.3°C 64.4°F18.0°C 64% 0.2 mph W0.3 kmh W 1.7 mph2.7 kmh 29.85 in1010.8 mb 0.00 in0.0 mm 0.00 in0.0 mm 0.00 in0.0 mm
05:30 PM 77.7°F25.4°C 64.6°F18.1°C 64% 0.2 mph W0.3 kmh W 1.7 mph2.7 kmh 29.84 in1010.5 mb 0.00 in0.0 mm 0.00 in0.0 mm 0.00 in0.0 mm
05:29 PM 77.9°F25.5°C 64.7°F18.2°C 64% 0.2 mph W0.3 kmh W 1.7 mph2.7 kmh 29.84 in1010.5 mb 0.00 in0.0 mm 0.00 in0.0 mm 0.00 in0.0 mm
05:28 PM 77.5°F25.3°C 63.9°F17.7°C 63% 0.2 mph W0.3 kmh W 1.7 mph2.7 kmh 29.84 in1010.5 mb 0.00 in0.0 mm 0.00 in0.0 mm 0.00 in0.0 mm
05:27 PM 77.7°F25.4°C 63.7°F17.6°C 62% Calm Calm -- 29.84 in1010.5 mb 0.00 in0.0 mm 0.00 in0.0 mm 0.00 in0.0 mm
05:26 PM 77.7°F25.4°C 63.2°F17.3°C 61% Calm Calm -- 29.84 in1010.5 mb 0.00 in0.0 mm 0.00 in0.0 mm 0.00 in0.0 mm
05:25 PM 77.7°F25.4°C 63.7°F17.6°C 62% Calm Calm -- 29.84 in1010.5 mb 0.00 in0.0 mm 0.00 in0.0 mm 0.00 in0.0 mm
05:24 PM 77.9°F25.5°C 64.3°F17.9°C 63% Calm Calm -- 29.84 in1010.5 mb 0.00 in0.0 mm 0.00 in0.0 mm 0.00 in0.0 mm
05:23 PM 77.9°F25.5°C 63.8°F17.7°C 62% Calm Calm -- 29.84 in1010.5 mb 0.00 in0.0 mm 0.00 in0.0 mm 0.00 in0.0 mm
05:22 PM 77.9°F25.5°C 63.8°F17.7°C 62% 0.1 mph N0.2 kmh N 1.7 mph2.7 kmh 29.84 in1010.5 mb 0.00 in0.0 mm 0.00 in0.0 mm 0.00 in0.0 mm
05:21 PM 78.1°F25.6°C 64.0°F17.8°C 62% 0.1 mph N0.2 kmh N 1.7 mph2.7 kmh 29.84 in1010.5 mb 0.00 in0.0 mm 0.00 in0.0 mm 0.00 in0.0 mm
05:20 PM 78.3°F25.7°C 64.2°F17.9°C 62% 0.3 mph N0.5 kmh N 2.6 mph4.2 kmh 29.84 in1010.5 mb 0.00 in0.0 mm 0.00 in0.0 mm 0.00 in0.0 mm
05:19 PM 78.4°F25.8°C 64.3°F17.9°C 62% 0.6 mph NNW1.0 kmh NNW 2.6 mph4.2 kmh 29.84 in1010.5 mb 0.00 in0.0 mm 0.00 in0.0 mm 0.00 in0.0 mm
05:18 PM 78.6°F25.9°C 64.5°F18.1°C 62% 0.7 mph NW1.1 kmh NW 2.6 mph4.2 kmh 29.84 in1010.5 mb 0.00 in0.0 mm 0.00 in0.0 mm 0.00 in0.0 mm
05:17 PM 78.4°F25.8°C 63.9°F17.7°C 61% 0.7 mph NW1.1 kmh NW 2.6 mph4.2 kmh 29.84 in1010.5 mb 0.00 in0.0 mm 0.00 in0.0 mm 0.00 in0.0 mm
05:16 PM 78.1°F25.6°C 63.5°F17.5°C 61% 0.7 mph NW1.1 kmh NW 2.6 mph4.2 kmh 29.84 in1010.5 mb 0.00 in0.0 mm 0.00 in0.0 mm 0.00 in0.0 mm
05:15 PM 78.1°F25.6°C 63.5°F17.5°C 61% 0.7 mph NW1.1 kmh NW 2.6 mph4.2 kmh 29.84 in1010.5 mb 0.00 in0.0 mm 0.00 in0.0 mm 0.00 in0.0 mm
05:14 PM 78.1°F25.6°C 63.1°F17.3°C 60% 0.7 mph NW1.1 kmh NW 2.6 mph4.2 kmh 29.84 in1010.5 mb 0.00 in0.0 mm 0.00 in0.0 mm 0.00 in0.0 mm
05:13 PM 77.9°F25.5°C 62.9°F17.2°C 60% 0.7 mph NW1.1 kmh NW 2.6 mph4.2 kmh 29.85 in1010.8 mb 0.00 in0.0 mm 0.00 in0.0 mm 0.00 in0.0 mm
05:12 PM 77.9°F25.5°C 62.9°F17.2°C 60% 0.6 mph NW1.0 kmh NW 2.6 mph4.2 kmh 29.84 in1010.5 mb 0.00 in0.0 mm 0.00 in0.0 mm 0.00 in0.0 mm
05:11 PM 78.3°F25.7°C 62.8°F17.1°C 59% 0.6 mph NW1.0 kmh NW 2.6 mph4.2 kmh 29.85 in1010.8 mb 0.00 in0.0 mm 0.00 in0.0 mm 0.00 in0.0 mm
05:10 PM 78.8°F26.0°C 62.8°F17.1°C 58% 0.4 mph WNW0.6 kmh WNW 2.6 mph4.2 kmh 29.85 in1010.8 mb 0.00 in0.0 mm 0.00 in0.0 mm 0.00 in0.0 mm
05:09 PM 79.7°F26.5°C 63.6°F17.6°C 58% 0.1 mph W0.2 kmh W 2.6 mph4.2 kmh 29.85 in1010.8 mb 0.00 in0.0 mm 0.00 in0.0 mm 0.00 in0.0 mm
05:08 PM 80.2°F26.8°C 63.6°F17.6°C 57% Calm Calm -- 29.85 in1010.8 mb 0.00 in0.0 mm 0.00 in0.0 mm 0.00 in0.0 mm
05:07 PM 80.2°F26.8°C 62.6°F17.0°C 55% 0.1 mph W0.2 kmh W 1.7 mph2.7 kmh 29.85 in1010.8 mb 0.00 in0.0 mm 0.00 in0.0 mm 0.00 in0.0 mm
05:06 PM 80.2°F26.8°C 62.1°F16.7°C 54% 0.2 mph W0.3 kmh W 1.7 mph2.7 kmh 29.85 in1010.8 mb 0.00 in0.0 mm 0.00 in0.0 mm 0.00 in0.0 mm
05:05 PM 80.2°F26.8°C 62.1°F16.7°C 54% 0.2 mph W0.3 kmh W 1.7 mph2.7 kmh 29.85 in1010.8 mb 0.00 in0.0 mm 0.00 in0.0 mm 0.00 in0.0 mm
05:04 PM 80.2°F26.8°C 62.1°F16.7°C 54% 0.2 mph W0.3 kmh W 1.7 mph2.7 kmh 29.85 in1010.8 mb 0.00 in0.0 mm 0.00 in0.0 mm 0.00 in0.0 mm
05:03 PM 79.7°F26.5°C 61.6°F16.4°C 54% 0.2 mph W0.3 kmh W 1.7 mph2.7 kmh 29.85 in1010.8 mb 0.00 in0.0 mm 0.00 in0.0 mm 0.00 in0.0 mm
05:02 PM 79.7°F26.5°C 62.1°F16.7°C 55% 0.2 mph W0.3 kmh W 1.7 mph2.7 kmh 29.85 in1010.8 mb 0.00 in0.0 mm 0.00 in0.0 mm 0.00 in0.0 mm
05:01 PM 79.7°F26.5°C 62.1°F16.7°C 55% 0.2 mph W0.3 kmh W 1.7 mph2.7 kmh 29.85 in1010.8 mb 0.00 in0.0 mm 0.00 in0.0 mm 0.00 in0.0 mm
05:00 PM 79.7°F26.5°C 62.6°F17.0°C 56% 0.2 mph W0.3 kmh W 1.7 mph2.7 kmh 29.85 in1010.8 mb 0.00 in0.0 mm 0.00 in0.0 mm 0.00 in0.0 mm
04:59 PM 79.7°F26.5°C 61.6°F16.4°C 54% 0.3 mph WSW0.5 kmh WSW 2.6 mph4.2 kmh 29.85 in1010.8 mb 0.00 in0.0 mm 0.00 in0.0 mm 0.00 in0.0 mm
04:58 PM 79.7°F26.5°C 62.1°F16.7°C 55% 0.6 mph SW1.0 kmh SW 2.6 mph4.2 kmh 29.85 in1010.8 mb 0.00 in0.0 mm 0.00 in0.0 mm 0.00 in0.0 mm
04:57 PM 80.2°F26.8°C 62.6°F17.0°C 55% 0.5 mph SW0.8 kmh SW 2.6 mph4.2 kmh 29.85 in1010.8 mb 0.00 in0.0 mm 0.00 in0.0 mm 0.00 in0.0 mm
04:56 PM 80.4°F26.9°C 62.2°F16.8°C 54% 0.6 mph WSW1.0 kmh WSW 2.6 mph4.2 kmh 29.84 in1010.5 mb 0.00 in0.0 mm 0.00 in0.0 mm 0.00 in0.0 mm
04:55 PM 80.2°F26.8°C 61.6°F16.4°C 53% 0.8 mph W1.3 kmh W 2.6 mph4.2 kmh 29.85 in1010.8 mb 0.00 in0.0 mm 0.00 in0.0 mm 0.00 in0.0 mm
04:54 PM 80.2°F26.8°C 62.1°F16.7°C 54% 1.1 mph W1.8 kmh W 2.6 mph4.2 kmh 29.85 in1010.8 mb 0.00 in0.0 mm 0.00 in0.0 mm 0.00 in0.0 mm
04:53 PM 80.2°F26.8°C 62.1°F16.7°C 54% 1.1 mph WNW1.8 kmh WNW 2.6 mph4.2 kmh 29.85 in1010.8 mb 0.00 in0.0 mm 0.00 in0.0 mm 0.00 in0.0 mm
04:52 PM 80.2°F26.8°C 62.6°F17.0°C 55% 1.1 mph WNW1.8 kmh WNW 2.6 mph4.2 kmh 29.85 in1010.8 mb 0.00 in0.0 mm 0.00 in0.0 mm 0.00 in0.0 mm
04:51 PM 79.7°F26.5°C 60.5°F15.8°C 52% 1.1 mph WNW1.8 kmh WNW 2.6 mph4.2 kmh 29.85 in1010.8 mb 0.00 in0.0 mm 0.00 in0.0 mm 0.00 in0.0 mm
04:50 PM 79.7°F26.5°C 60.5°F15.8°C 52% 1.1 mph WNW1.8 kmh WNW 2.6 mph4.2 kmh 29.86 in1011.2 mb 0.00 in0.0 mm 0.00 in0.0 mm 0.00 in0.0 mm
04:49 PM 79.3°F26.3°C 61.8°F16.6°C 55% 1.2 mph WNW1.9 kmh WNW 2.6 mph4.2 kmh 29.86 in1011.2 mb 0.00 in0.0 mm 0.00 in0.0 mm 0.00 in0.0 mm
04:48 PM 79.0°F26.1°C 61.4°F16.3°C 55% 1.0 mph WNW1.6 kmh WNW 2.6 mph4.2 kmh 29.86 in1011.2 mb 0.00 in0.0 mm 0.00 in0.0 mm 0.00 in0.0 mm
04:47 PM 79.2°F26.2°C 60.6°F15.9°C 53% 1.0 mph WNW1.6 kmh WNW 2.6 mph4.2 kmh 29.85 in1010.8 mb 0.00 in0.0 mm 0.00 in0.0 mm 0.00 in0.0 mm
04:46 PM 79.0°F26.1°C 59.9°F15.5°C 52% 0.8 mph WNW1.3 kmh WNW 2.6 mph4.2 kmh 29.85 in1010.8 mb 0.00 in0.0 mm 0.00 in0.0 mm 0.00 in0.0 mm
04:45 PM 79.5°F26.4°C 59.8°F15.4°C 51% 0.7 mph W1.1 kmh W 2.6 mph4.2 kmh 29.86 in1011.2 mb 0.00 in0.0 mm 0.00 in0.0 mm 0.00 in0.0 mm
04:44 PM 80.6°F27.0°C 60.2°F15.7°C 50% 0.7 mph W1.1 kmh W 2.6 mph4.2 kmh 29.86 in1011.2 mb 0.00 in0.0 mm 0.00 in0.0 mm 0.00 in0.0 mm
04:43 PM 80.8°F27.1°C 58.7°F14.8°C 47% 0.8 mph W1.3 kmh W 2.6 mph4.2 kmh 29.85 in1010.8 mb 0.00 in0.0 mm 0.00 in0.0 mm 0.00 in0.0 mm
04:42 PM 80.2°F26.8°C 59.3°F15.2°C 49% 0.8 mph W1.3 kmh W 2.6 mph4.2 kmh 29.86 in1011.2 mb 0.00 in0.0 mm 0.00 in0.0 mm 0.00 in0.0 mm
04:41 PM 80.2°F26.8°C 59.3°F15.2°C 49% 0.7 mph W1.1 kmh W 2.6 mph4.2 kmh 29.86 in1011.2 mb 0.00 in0.0 mm 0.00 in0.0 mm 0.00 in0.0 mm
04:40 PM 79.7°F26.5°C 60.0°F15.6°C 51% 0.9 mph W1.4 kmh W 2.6 mph4.2 kmh 29.86 in1011.2 mb 0.00 in0.0 mm 0.00 in0.0 mm 0.00 in0.0 mm
04:39 PM 80.8°F27.1°C 60.4°F15.8°C 50% 0.9 mph WNW1.4 kmh WNW 2.6 mph4.2 kmh 29.86 in1011.2 mb 0.00 in0.0 mm 0.00 in0.0 mm 0.00 in0.0 mm
04:38 PM 80.4°F26.9°C 61.2°F16.2°C 52% 1.0 mph WNW1.6 kmh WNW 2.6 mph4.2 kmh 29.86 in1011.2 mb 0.00 in0.0 mm 0.00 in0.0 mm 0.00 in0.0 mm
04:37 PM 80.8°F27.1°C 59.8°F15.4°C 49% 1.1 mph W1.8 kmh W 2.6 mph4.2 kmh 29.86 in1011.2 mb 0.00 in0.0 mm 0.00 in0.0 mm 0.00 in0.0 mm
04:36 PM 80.2°F26.8°C 61.0°F16.1°C 52% 1.3 mph W2.1 kmh W 2.6 mph4.2 kmh 29.86 in1011.2 mb 0.00 in0.0 mm 0.00 in0.0 mm 0.00 in0.0 mm
04:35 PM 79.7°F26.5°C 60.5°F15.8°C 52% 1.3 mph W2.1 kmh W 2.6 mph4.2 kmh 29.86 in1011.2 mb 0.00 in0.0 mm 0.00 in0.0 mm 0.00 in0.0 mm
04:34 PM 81.1°F27.3°C 61.3°F16.3°C 51% 1.1 mph W1.8 kmh W 2.6 mph4.2 kmh 29.86 in1011.2 mb 0.00 in0.0 mm 0.00 in0.0 mm 0.00 in0.0 mm
04:33 PM 81.5°F27.5°C 61.1°F16.2°C 50% 1.1 mph WNW1.8 kmh WNW 2.6 mph4.2 kmh 29.86 in1011.2 mb 0.00 in0.0 mm 0.00 in0.0 mm 0.00 in0.0 mm
04:32 PM 81.3°F27.4°C 60.3°F15.7°C 49% 1.4 mph NW2.3 kmh NW 2.6 mph4.2 kmh 29.86 in1011.2 mb 0.00 in0.0 mm 0.00 in0.0 mm 0.00 in0.0 mm
04:31 PM 79.7°F26.5°C 61.1°F16.2°C 53% 1.6 mph NW2.6 kmh NW 2.6 mph4.2 kmh 29.86 in1011.2 mb 0.00 in0.0 mm 0.00 in0.0 mm 0.00 in0.0 mm
04:30 PM 80.6°F27.0°C 61.3°F16.3°C 52% 1.6 mph NNW2.6 kmh NNW 2.6 mph4.2 kmh 29.86 in1011.2 mb 0.00 in0.0 mm 0.00 in0.0 mm 0.00 in0.0 mm
04:29 PM 80.4°F26.9°C 61.7°F16.5°C 53% 1.4 mph NNW2.3 kmh NNW 2.6 mph4.2 kmh 29.86 in1011.2 mb 0.00 in0.0 mm 0.00 in0.0 mm 0.00 in0.0 mm
04:28 PM 80.6°F27.0°C 61.9°F16.6°C 53% 1.3 mph NNW2.1 kmh NNW 2.6 mph4.2 kmh 29.86 in1011.2 mb 0.00 in0.0 mm 0.00 in0.0 mm 0.00 in0.0 mm
04:27 PM 79.7°F26.5°C 61.6°F16.4°C 54% 1.2 mph NNW1.9 kmh NNW 2.6 mph4.2 kmh 29.86 in1011.2 mb 0.00 in0.0 mm 0.00 in0.0 mm 0.00 in0.0 mm
04:26 PM 80.4°F26.9°C 61.7°F16.5°C 53% 1.0 mph N1.6 kmh N 2.6 mph4.2 kmh 29.86 in1011.2 mb 0.00 in0.0 mm 0.00 in0.0 mm 0.00 in0.0 mm
04:25 PM 80.2°F26.8°C 61.0°F16.1°C 52% 0.9 mph N1.4 kmh N 2.6 mph4.2 kmh 29.87 in1011.5 mb 0.00 in0.0 mm 0.00 in0.0 mm 0.00 in0.0 mm
04:24 PM 79.7°F26.5°C 60.0°F15.6°C 51% 0.9 mph N1.4 kmh N 2.6 mph4.2 kmh 29.86 in1011.2 mb 0.00 in0.0 mm 0.00 in0.0 mm 0.00 in0.0 mm
04:23 PM 80.4°F26.9°C 60.1°F15.6°C 50% 0.7 mph N1.1 kmh N 2.6 mph4.2 kmh 29.87 in1011.5 mb 0.00 in0.0 mm 0.00 in0.0 mm 0.00 in0.0 mm
04:22 PM 81.1°F27.3°C 60.2°F15.7°C 49% 0.5 mph N0.8 kmh N 2.6 mph4.2 kmh 29.86 in1011.2 mb 0.00 in0.0 mm 0.00 in0.0 mm 0.00 in0.0 mm
04:21 PM 81.5°F27.5°C 59.9°F15.5°C 48% 0.5 mph N0.8 kmh N 1.7 mph2.7 kmh 29.86 in1011.2 mb 0.00 in0.0 mm 0.00 in0.0 mm 0.00 in0.0 mm
04:20 PM 82.0°F27.8°C 61.0°F16.1°C 49% 0.5 mph N0.8 kmh N 2.6 mph4.2 kmh 29.86 in1011.2 mb 0.00 in0.0 mm 0.00 in0.0 mm 0.00 in0.0 mm
04:19 PM 82.6°F28.1°C 62.1°F16.7°C 50% 0.6 mph NNW1.0 kmh NNW 2.6 mph4.2 kmh 29.86 in1011.2 mb 0.00 in0.0 mm 0.00 in0.0 mm 0.00 in0.0 mm
04:18 PM 82.8°F28.2°C 62.8°F17.1°C 51% 0.6 mph NNW1.0 kmh NNW 2.6 mph4.2 kmh 29.86 in1011.2 mb 0.00 in0.0 mm 0.00 in0.0 mm 0.00 in0.0 mm
04:17 PM 82.6°F28.1°C 63.2°F17.3°C 52% 0.6 mph NNW1.0 kmh NNW 2.6 mph4.2 kmh 29.87 in1011.5 mb 0.00 in0.0 mm 0.00 in0.0 mm 0.00 in0.0 mm
04:16 PM 82.4°F28.0°C 63.0°F17.2°C 52% 0.7 mph NNW1.1 kmh NNW 2.6 mph4.2 kmh 29.86 in1011.2 mb 0.00 in0.0 mm 0.00 in0.0 mm 0.00 in0.0 mm
04:15 PM 81.7°F27.6°C 62.3°F16.8°C 52% 0.9 mph NW1.4 kmh NW 3.5 mph5.6 kmh 29.87 in1011.5 mb 0.00 in0.0 mm 0.00 in0.0 mm 0.00 in0.0 mm
04:14 PM 80.4°F26.9°C 61.2°F16.2°C 52% 1.2 mph NW1.9 kmh NW 3.5 mph5.6 kmh 29.87 in1011.5 mb 0.00 in0.0 mm 0.00 in0.0 mm 0.00 in0.0 mm
04:13 PM 80.2°F26.8°C 60.5°F15.8°C 51% 1.2 mph NW1.9 kmh NW 3.5 mph5.6 kmh 29.87 in1011.5 mb 0.00 in0.0 mm 0.00 in0.0 mm 0.00 in0.0 mm
04:12 PM 79.7°F26.5°C 60.0°F15.6°C 51% 1.3 mph NW2.1 kmh NW 3.5 mph5.6 kmh 29.87 in1011.5 mb 0.00 in0.0 mm 0.00 in0.0 mm 0.00 in0.0 mm
04:11 PM 81.0°F27.2°C 59.4°F15.2°C 48% 1.3 mph WNW2.1 kmh WNW 3.5 mph5.6 kmh 29.87 in1011.5 mb 0.00 in0.0 mm 0.00 in0.0 mm 0.00 in0.0 mm
04:10 PM 81.9°F27.7°C 60.2°F15.7°C 48% 1.3 mph W2.1 kmh W 3.5 mph5.6 kmh 29.86 in1011.2 mb 0.00 in0.0 mm 0.00 in0.0 mm 0.00 in0.0 mm
04:09 PM 81.9°F27.7°C 59.7°F15.4°C 47% 1.4 mph W2.3 kmh W 3.5 mph5.6 kmh 29.87 in1011.5 mb 0.00 in0.0 mm 0.00 in0.0 mm 0.00 in0.0 mm
04:08 PM 82.4°F28.0°C 60.1°F15.6°C 47% 1.4 mph W2.3 kmh W 3.5 mph5.6 kmh 29.87 in1011.5 mb 0.00 in0.0 mm 0.00 in0.0 mm 0.00 in0.0 mm
04:07 PM 82.2°F27.9°C 60.0°F15.6°C 47% 1.4 mph W2.3 kmh W 3.5 mph5.6 kmh 29.87 in1011.5 mb 0.00 in0.0 mm 0.00 in0.0 mm 0.00 in0.0 mm
04:06 PM 81.7°F27.6°C 60.1°F15.6°C 48% 1.5 mph WNW2.4 kmh WNW 3.5 mph5.6 kmh 29.87 in1011.5 mb 0.00 in0.0 mm 0.00 in0.0 mm 0.00 in0.0 mm
04:05 PM 80.6°F27.0°C 59.1°F15.1°C 48% 1.4 mph WNW2.3 kmh WNW 3.5 mph5.6 kmh 29.86 in1011.2 mb 0.00 in0.0 mm 0.00 in0.0 mm 0.00 in0.0 mm
04:04 PM 81.3°F27.4°C 59.8°F15.4°C 48% 1.2 mph WNW1.9 kmh WNW 2.6 mph4.2 kmh 29.87 in1011.5 mb 0.00 in0.0 mm 0.00 in0.0 mm 0.00 in0.0 mm
04:03 PM 82.4°F28.0°C 61.9°F16.6°C 50% 1.4 mph WNW2.3 kmh WNW 2.6 mph4.2 kmh 29.87 in1011.5 mb 0.00 in0.0 mm 0.00 in0.0 mm 0.00 in0.0 mm
04:02 PM 82.4°F28.0°C 61.9°F16.6°C 50% 1.5 mph WNW2.4 kmh WNW 2.6 mph4.2 kmh 29.87 in1011.5 mb 0.00 in0.0 mm 0.00 in0.0 mm 0.00 in0.0 mm
04:01 PM 82.4°F28.0°C 61.9°F16.6°C 50% 1.6 mph W2.6 kmh W 2.6 mph4.2 kmh 29.87 in1011.5 mb 0.00 in0.0 mm 0.00 in0.0 mm 0.00 in0.0 mm
04:00 PM 82.4°F28.0°C 61.9°F16.6°C 50% 1.6 mph NW2.6 kmh NW 2.6 mph4.2 kmh 29.87 in1011.5 mb 0.00 in0.0 mm 0.00 in0.0 mm 0.00 in0.0 mm
03:59 PM 81.9°F27.7°C 62.0°F16.7°C 51% 1.6 mph WNW2.6 kmh WNW 2.6 mph4.2 kmh 29.87 in1011.5 mb 0.00 in0.0 mm 0.00 in0.0 mm 0.00 in0.0 mm
03:58 PM 82.4°F28.0°C 61.9°F16.6°C 50% 1.5 mph WNW2.4 kmh WNW 2.6 mph4.2 kmh 29.87 in1011.5 mb 0.00 in0.0 mm 0.00 in0.0 mm 0.00 in0.0 mm
03:57 PM 82.4°F28.0°C 61.3°F16.3°C 49% 1.6 mph WNW2.6 kmh WNW 2.6 mph4.2 kmh 29.87 in1011.5 mb 0.00 in0.0 mm 0.00 in0.0 mm 0.00 in0.0 mm
03:56 PM 82.4°F28.0°C 61.3°F16.3°C 49% 1.6 mph WNW2.6 kmh WNW 2.6 mph4.2 kmh 29.87 in1011.5 mb 0.00 in0.0 mm 0.00 in0.0 mm 0.00 in0.0 mm
03:55 PM 81.7°F27.6°C 61.8°F16.6°C 51% 1.5 mph WNW2.4 kmh WNW 2.6 mph4.2 kmh 29.87 in1011.5 mb 0.00 in0.0 mm 0.00 in0.0 mm 0.00 in0.0 mm
03:54 PM 81.5°F27.5°C 61.1°F16.2°C 50% 1.5 mph NW2.4 kmh NW 2.6 mph4.2 kmh 29.87 in1011.5 mb 0.00 in0.0 mm 0.00 in0.0 mm 0.00 in0.0 mm
03:53 PM 81.3°F27.4°C 60.9°F16.1°C 50% 1.6 mph NW2.6 kmh NW 2.6 mph4.2 kmh 29.87 in1011.5 mb 0.00 in0.0 mm 0.00 in0.0 mm 0.00 in0.0 mm
03:52 PM 80.4°F26.9°C 60.6°F15.9°C 51% 1.3 mph NNW2.1 kmh NNW 2.6 mph4.2 kmh 29.88 in1011.9 mb 0.00 in0.0 mm 0.00 in0.0 mm 0.00 in0.0 mm
03:51 PM 80.6°F27.0°C 60.8°F16.0°C 51% 1.2 mph N1.9 kmh N 3.5 mph5.6 kmh 29.87 in1011.5 mb 0.00 in0.0 mm 0.00 in0.0 mm 0.00 in0.0 mm
03:50 PM 81.7°F27.6°C 62.3°F16.8°C 52% 1.2 mph N1.9 kmh N 3.5 mph5.6 kmh 29.87 in1011.5 mb 0.00 in0.0 mm 0.00 in0.0 mm 0.00 in0.0 mm
03:49 PM 81.5°F27.5°C 60.5°F15.8°C 49% 1.3 mph SSE2.1 kmh SSE 3.5 mph5.6 kmh 29.87 in1011.5 mb 0.00 in0.0 mm 0.00 in0.0 mm 0.00 in0.0 mm
03:48 PM 82.2°F27.9°C 62.8°F17.1°C 52% 1.6 mph S2.6 kmh S 3.5 mph5.6 kmh 29.87 in1011.5 mb 0.00 in0.0 mm 0.00 in0.0 mm 0.00 in0.0 mm
03:47 PM 81.3°F27.4°C 61.5°F16.4°C 51% 1.8 mph S2.9 kmh S 3.5 mph5.6 kmh 29.87 in1011.5 mb 0.00 in0.0 mm 0.00 in0.0 mm 0.00 in0.0 mm
03:46 PM 81.7°F27.6°C 62.9°F17.2°C 53% 2.1 mph S3.4 kmh S 5.2 mph8.4 kmh 29.88 in1011.9 mb 0.00 in0.0 mm 0.00 in0.0 mm 0.00 in0.0 mm
03:45 PM 81.3°F27.4°C 62.6°F17.0°C 53% 2.1 mph S3.4 kmh S 5.2 mph8.4 kmh 29.87 in1011.5 mb 0.00 in0.0 mm 0.00 in0.0 mm 0.00 in0.0 mm
03:44 PM 81.0°F27.2°C 61.7°F16.5°C 52% 2.1 mph S3.4 kmh S 5.2 mph8.4 kmh 29.88 in1011.9 mb 0.00 in0.0 mm 0.00 in0.0 mm 0.00 in0.0 mm
03:43 PM 81.0°F27.2°C 62.7°F17.1°C 54% 2.0 mph S3.2 kmh S 5.2 mph8.4 kmh 29.87 in1011.5 mb 0.00 in0.0 mm 0.00 in0.0 mm 0.00 in0.0 mm
03:42 PM 80.8°F27.1°C 61.5°F16.4°C 52% 2.2 mph S3.5 kmh S 5.2 mph8.4 kmh 29.88 in1011.9 mb 0.00 in0.0 mm 0.00 in0.0 mm 0.00 in0.0 mm
03:41 PM 81.1°F27.3°C 60.2°F15.7°C 49% 2.0 mph S3.2 kmh S 5.2 mph8.4 kmh 29.88 in1011.9 mb 0.00 in0.0 mm 0.00 in0.0 mm 0.00 in0.0 mm
03:40 PM 81.5°F27.5°C 62.2°F16.8°C 52% 2.0 mph S3.2 kmh S 5.2 mph8.4 kmh 29.87 in1011.5 mb 0.00 in0.0 mm 0.00 in0.0 mm 0.00 in0.0 mm
03:39 PM 81.9°F27.7°C 60.8°F16.0°C 49% 1.8 mph S2.9 kmh S 5.2 mph8.4 kmh 29.87 in1011.5 mb 0.00 in0.0 mm 0.00 in0.0 mm 0.00 in0.0 mm
03:38 PM 82.8°F28.2°C 59.9°F15.5°C 46% 1.6 mph S2.6 kmh S 5.2 mph8.4 kmh 29.87 in1011.5 mb 0.00 in0.0 mm 0.00 in0.0 mm 0.00 in0.0 mm
03:37 PM 82.4°F28.0°C 60.7°F15.9°C 48% 1.4 mph S2.3 kmh S 5.2 mph8.4 kmh 29.88 in1011.9 mb 0.00 in0.0 mm 0.00 in0.0 mm 0.00 in0.0 mm
03:36 PM 82.4°F28.0°C 60.7°F15.9°C 48% 1.1 mph SW1.8 kmh SW 5.2 mph8.4 kmh 29.88 in1011.9 mb 0.00 in0.0 mm 0.00 in0.0 mm 0.00 in0.0 mm
03:35 PM 82.2°F27.9°C 61.2°F16.2°C 49% 1.2 mph WSW1.9 kmh WSW 2.6 mph4.2 kmh 29.87 in1011.5 mb 0.00 in0.0 mm 0.00 in0.0 mm 0.00 in0.0 mm
03:34 PM 81.3°F27.4°C 59.8°F15.4°C 48% 1.2 mph W1.9 kmh W 2.6 mph4.2 kmh 29.88 in1011.9 mb 0.00 in0.0 mm 0.00 in0.0 mm 0.00 in0.0 mm
03:33 PM 81.9°F27.7°C 60.8°F16.0°C 49% 1.1 mph W1.8 kmh W 2.6 mph4.2 kmh 29.88 in1011.9 mb 0.00 in0.0 mm 0.00 in0.0 mm 0.00 in0.0 mm
03:32 PM 82.6°F28.1°C 62.1°F16.7°C 50% 1.0 mph WNW1.6 kmh WNW 3.5 mph5.6 kmh 29.88 in1011.9 mb 0.00 in0.0 mm 0.00 in0.0 mm 0.00 in0.0 mm
03:31 PM 82.9°F28.3°C 61.8°F16.6°C 49% 1.3 mph WNW2.1 kmh WNW 3.5 mph5.6 kmh 29.88 in1011.9 mb 0.00 in0.0 mm 0.00 in0.0 mm 0.00 in0.0 mm
03:30 PM 82.9°F28.3°C 63.5°F17.5°C 52% 1.4 mph SW2.3 kmh SW 3.5 mph5.6 kmh 29.88 in1011.9 mb 0.00 in0.0 mm 0.00 in0.0 mm 0.00 in0.0 mm
03:29 PM 82.2°F27.9°C 61.7°F16.5°C 50% 1.6 mph SSW2.6 kmh SSW 3.5 mph5.6 kmh 29.88 in1011.9 mb 0.00 in0.0 mm 0.00 in0.0 mm 0.00 in0.0 mm
03:28 PM 82.0°F27.8°C 62.7°F17.1°C 52% 1.9 mph SSW3.1 kmh SSW 4.4 mph7.1 kmh 29.88 in1011.9 mb 0.00 in0.0 mm 0.00 in0.0 mm 0.00 in0.0 mm
03:27 PM 82.8°F28.2°C 61.1°F16.2°C 48% 2.2 mph SW3.5 kmh SW 4.4 mph7.1 kmh 29.88 in1011.9 mb 0.00 in0.0 mm 0.00 in0.0 mm 0.00 in0.0 mm
03:26 PM 82.9°F28.3°C 61.2°F16.2°C 48% 2.3 mph SW3.7 kmh SW 4.4 mph7.1 kmh 29.89 in1012.2 mb 0.00 in0.0 mm 0.00 in0.0 mm 0.00 in0.0 mm
03:25 PM 81.9°F27.7°C 60.8°F16.0°C 49% 2.2 mph SSW3.5 kmh SSW 4.4 mph7.1 kmh 29.88 in1011.9 mb 0.00 in0.0 mm 0.00 in0.0 mm 0.00 in0.0 mm
03:24 PM 81.5°F27.5°C 59.9°F15.5°C 48% 2.3 mph S3.7 kmh S 4.4 mph7.1 kmh 29.88 in1011.9 mb 0.00 in0.0 mm 0.00 in0.0 mm 0.00 in0.0 mm
03:23 PM 82.2°F27.9°C 60.6°F15.9°C 48% 2.6 mph S4.2 kmh S 4.4 mph7.1 kmh 29.88 in1011.9 mb 0.00 in0.0 mm 0.00 in0.0 mm 0.00 in0.0 mm
03:22 PM 81.9°F27.7°C 60.2°F15.7°C 48% 2.7 mph S4.3 kmh S 4.4 mph7.1 kmh 29.89 in1012.2 mb 0.00 in0.0 mm 0.00 in0.0 mm 0.00 in0.0 mm
03:21 PM 82.2°F27.9°C 61.2°F16.2°C 49% 2.7 mph SSW4.3 kmh SSW 4.4 mph7.1 kmh 29.89 in1012.2 mb 0.00 in0.0 mm 0.00 in0.0 mm 0.00 in0.0 mm
03:20 PM 81.7°F27.6°C 60.1°F15.6°C 48% 2.8 mph SSW4.5 kmh SSW 4.4 mph7.1 kmh 29.89 in1012.2 mb 0.00 in0.0 mm 0.00 in0.0 mm 0.00 in0.0 mm
03:19 PM 82.8°F28.2°C 61.1°F16.2°C 48% 2.7 mph SW4.3 kmh SW 4.4 mph7.1 kmh 29.89 in1012.2 mb 0.00 in0.0 mm 0.00 in0.0 mm 0.00 in0.0 mm
03:18 PM 82.4°F28.0°C 63.0°F17.2°C 52% 2.3 mph SW3.7 kmh SW 4.4 mph7.1 kmh 29.88 in1011.9 mb 0.00 in0.0 mm 0.00 in0.0 mm 0.00 in0.0 mm
03:17 PM 81.7°F27.6°C 62.3°F16.8°C 52% 2.3 mph SW3.7 kmh SW 4.4 mph7.1 kmh 29.89 in1012.2 mb 0.00 in0.0 mm 0.00 in0.0 mm 0.00 in0.0 mm
03:16 PM 81.0°F27.2°C 60.0°F15.6°C 49% 2.4 mph SW3.9 kmh SW 4.4 mph7.1 kmh 29.89 in1012.2 mb 0.00 in0.0 mm 0.00 in0.0 mm 0.00 in0.0 mm
03:15 PM 81.3°F27.4°C 60.3°F15.7°C 49% 2.4 mph SW3.9 kmh SW 4.4 mph7.1 kmh 29.89 in1012.2 mb 0.00 in0.0 mm 0.00 in0.0 mm 0.00 in0.0 mm
03:14 PM 81.1°F27.3°C 61.3°F16.3°C 51% 2.5 mph SSW4.0 kmh SSW 4.4 mph7.1 kmh 29.89 in1012.2 mb 0.00 in0.0 mm 0.00 in0.0 mm 0.00 in0.0 mm
03:13 PM 81.0°F27.2°C 62.7°F17.1°C 54% 2.2 mph N3.5 kmh N 4.4 mph7.1 kmh 29.89 in1012.2 mb 0.00 in0.0 mm 0.00 in0.0 mm 0.00 in0.0 mm
03:12 PM 79.7°F26.5°C 63.6°F17.6°C 58% 2.2 mph N3.5 kmh N 4.4 mph7.1 kmh 29.89 in1012.2 mb 0.00 in0.0 mm 0.00 in0.0 mm 0.00 in0.0 mm
03:11 PM 80.6°F27.0°C 62.9°F17.2°C 55% 1.9 mph NE3.1 kmh NE 3.5 mph5.6 kmh 29.89 in1012.2 mb 0.00 in0.0 mm 0.00 in0.0 mm 0.00 in0.0 mm
03:10 PM 81.1°F27.3°C 62.9°F17.2°C 54% 1.8 mph NE2.9 kmh NE 2.6 mph4.2 kmh 29.90 in1012.5 mb 0.00 in0.0 mm 0.00 in0.0 mm 0.00 in0.0 mm
03:09 PM 81.1°F27.3°C 61.3°F16.3°C 51% 1.7 mph ENE2.7 kmh ENE 2.6 mph4.2 kmh 29.89 in1012.2 mb 0.00 in0.0 mm 0.00 in0.0 mm 0.00 in0.0 mm
03:08 PM 81.1°F27.3°C 60.2°F15.7°C 49% 1.7 mph E2.7 kmh E 2.6 mph4.2 kmh 29.89 in1012.2 mb 0.00 in0.0 mm 0.00 in0.0 mm 0.00 in0.0 mm
03:07 PM 81.1°F27.3°C 59.6°F15.3°C 48% 1.6 mph SE2.6 kmh SE 2.6 mph4.2 kmh 29.89 in1012.2 mb 0.00 in0.0 mm 0.00 in0.0 mm 0.00 in0.0 mm
03:06 PM 81.7°F27.6°C 60.7°F15.9°C 49% 1.5 mph SE2.4 kmh SE 2.6 mph4.2 kmh 29.90 in1012.5 mb 0.00 in0.0 mm 0.00 in0.0 mm 0.00 in0.0 mm
03:05 PM 82.4°F28.0°C 60.1°F15.6°C 47% 1.5 mph S2.4 kmh S 2.6 mph4.2 kmh 29.90 in1012.5 mb 0.00 in0.0 mm 0.00 in0.0 mm 0.00 in0.0 mm
03:04 PM 82.6°F28.1°C 60.3°F15.7°C 47% 1.4 mph NW2.3 kmh NW 2.6 mph4.2 kmh 29.90 in1012.5 mb 0.00 in0.0 mm 0.00 in0.0 mm 0.00 in0.0 mm
03:03 PM 82.2°F27.9°C 62.8°F17.1°C 52% 1.5 mph NNW2.4 kmh NNW 2.6 mph4.2 kmh 29.90 in1012.5 mb 0.00 in0.0 mm 0.00 in0.0 mm 0.00 in0.0 mm
03:02 PM 82.4°F28.0°C 63.0°F17.2°C 52% 1.4 mph NNW2.3 kmh NNW 2.6 mph4.2 kmh 29.91 in1012.9 mb 0.00 in0.0 mm 0.00 in0.0 mm 0.00 in0.0 mm
03:01 PM 81.3°F27.4°C 60.9°F16.1°C 50% 1.4 mph NNW2.3 kmh NNW 2.6 mph4.2 kmh 29.91 in1012.9 mb 0.00 in0.0 mm 0.00 in0.0 mm 0.00 in0.0 mm
03:00 PM 81.5°F27.5°C 60.5°F15.8°C 49% 1.5 mph N2.4 kmh N 3.5 mph5.6 kmh 29.90 in1012.5 mb 0.00 in0.0 mm 0.00 in0.0 mm 0.00 in0.0 mm
02:59 PM 81.1°F27.3°C 60.7°F15.9°C 50% 1.7 mph NNE2.7 kmh NNE 3.5 mph5.6 kmh 29.90 in1012.5 mb 0.00 in0.0 mm 0.00 in0.0 mm 0.00 in0.0 mm
02:58 PM 80.4°F26.9°C 61.2°F16.2°C 52% 1.9 mph N3.1 kmh N 3.5 mph5.6 kmh 29.90 in1012.5 mb 0.00 in0.0 mm 0.00 in0.0 mm 0.00 in0.0 mm
02:57 PM 80.8°F27.1°C 62.1°F16.7°C 53% 2.1 mph W3.4 kmh W 3.5 mph5.6 kmh 29.90 in1012.5 mb 0.00 in0.0 mm 0.00 in0.0 mm 0.00 in0.0 mm
02:56 PM 81.5°F27.5°C 62.7°F17.1°C 53% 2.1 mph W3.4 kmh W 3.5 mph5.6 kmh 29.90 in1012.5 mb 0.00 in0.0 mm 0.00 in0.0 mm 0.00 in0.0 mm
02:55 PM 81.7°F27.6°C 61.8°F16.6°C 51% 2.1 mph W3.4 kmh W 3.5 mph5.6 kmh 29.91 in1012.9 mb 0.00 in0.0 mm 0.00 in0.0 mm 0.00 in0.0 mm
02:54 PM 82.0°F27.8°C 61.0°F16.1°C 49% 2.1 mph SW3.4 kmh SW 3.5 mph5.6 kmh 29.91 in1012.9 mb 0.00 in0.0 mm 0.00 in0.0 mm 0.00 in0.0 mm
02:53 PM 82.6°F28.1°C 60.9°F16.1°C 48% 2.2 mph SW3.5 kmh SW 3.5 mph5.6 kmh 29.91 in1012.9 mb 0.00 in0.0 mm 0.00 in0.0 mm 0.00 in0.0 mm
02:52 PM 82.0°F27.8°C 60.4°F15.8°C 48% 2.1 mph SW3.4 kmh SW 3.5 mph5.6 kmh 29.90 in1012.5 mb 0.00 in0.0 mm 0.00 in0.0 mm 0.00 in0.0 mm
02:51 PM 81.7°F27.6°C 60.7°F15.9°C 49% 1.8 mph SW2.9 kmh SW 3.5 mph5.6 kmh 29.91 in1012.9 mb 0.00 in0.0 mm 0.00 in0.0 mm 0.00 in0.0 mm
02:50 PM 81.9°F27.7°C 61.4°F16.3°C 50% 1.6 mph WSW2.6 kmh WSW 3.5 mph5.6 kmh 29.91 in1012.9 mb 0.00 in0.0 mm 0.00 in0.0 mm 0.00 in0.0 mm
02:49 PM 82.4°F28.0°C 61.9°F16.6°C 50% 1.5 mph SW2.4 kmh SW 3.5 mph5.6 kmh 29.91 in1012.9 mb 0.00 in0.0 mm 0.00 in0.0 mm 0.00 in0.0 mm
02:48 PM 82.4°F28.0°C 61.9°F16.6°C 50% 1.5 mph SW2.4 kmh SW 3.5 mph5.6 kmh 29.92 in1013.2 mb 0.00 in0.0 mm 0.00 in0.0 mm 0.00 in0.0 mm
02:47 PM 82.0°F27.8°C 62.1°F16.7°C 51% 1.3 mph SSW2.1 kmh SSW 3.5 mph5.6 kmh 29.91 in1012.9 mb 0.00 in0.0 mm 0.00 in0.0 mm 0.00 in0.0 mm
02:46 PM 81.9°F27.7°C 60.8°F16.0°C 49% 1.4 mph SSW2.3 kmh SSW 3.5 mph5.6 kmh 29.91 in1012.9 mb 0.00 in0.0 mm 0.00 in0.0 mm 0.00 in0.0 mm
02:45 PM 81.1°F27.3°C 60.7°F15.9°C 50% 1.5 mph S2.4 kmh S 3.5 mph5.6 kmh 29.91 in1012.9 mb 0.00 in0.0 mm 0.00 in0.0 mm 0.00 in0.0 mm
02:44 PM 81.5°F27.5°C 61.6°F16.4°C 51% 1.4 mph S2.3 kmh S 3.5 mph5.6 kmh 29.92 in1013.2 mb 0.00 in0.0 mm 0.00 in0.0 mm 0.00 in0.0 mm
02:43 PM 81.1°F27.3°C 62.4°F16.9°C 53% 1.3 mph S2.1 kmh S 2.6 mph4.2 kmh 29.91 in1012.9 mb 0.00 in0.0 mm 0.00 in0.0 mm 0.00 in0.0 mm
02:42 PM 81.3°F27.4°C 64.1°F17.8°C 56% 1.6 mph S2.6 kmh S 3.5 mph5.6 kmh 29.91 in1012.9 mb 0.00 in0.0 mm 0.00 in0.0 mm 0.00 in0.0 mm
02:41 PM 81.5°F27.5°C 65.8°F18.8°C 59% 2.0 mph S3.2 kmh S 3.5 mph5.6 kmh 29.91 in1012.9 mb 0.00 in0.0 mm 0.00 in0.0 mm 0.00 in0.0 mm
02:40 PM 81.1°F27.3°C 65.0°F18.3°C 58% 2.3 mph S3.7 kmh S 3.5 mph5.6 kmh 29.92 in1013.2 mb 0.00 in0.0 mm 0.00 in0.0 mm 0.00 in0.0 mm
02:39 PM 80.2°F26.8°C 63.1°F17.3°C 56% 2.4 mph S3.9 kmh S 3.5 mph5.6 kmh 29.92 in1013.2 mb 0.00 in0.0 mm 0.00 in0.0 mm 0.00 in0.0 mm
02:38 PM 80.2°F26.8°C 61.0°F16.1°C 52% 2.4 mph S3.9 kmh S 3.5 mph5.6 kmh 29.92 in1013.2 mb 0.00 in0.0 mm 0.00 in0.0 mm 0.00 in0.0 mm
02:37 PM 80.1°F26.7°C 61.4°F16.3°C 53% 2.4 mph S3.9 kmh S 3.5 mph5.6 kmh 29.91 in1012.9 mb 0.00 in0.0 mm 0.00 in0.0 mm 0.00 in0.0 mm
02:36 PM 80.1°F26.7°C 61.9°F16.6°C 54% 2.5 mph S4.0 kmh S 3.5 mph5.6 kmh 29.92 in1013.2 mb 0.00 in0.0 mm 0.00 in0.0 mm 0.00 in0.0 mm
02:35 PM 80.4°F26.9°C 60.6°F15.9°C 51% 2.5 mph S4.0 kmh S 3.5 mph5.6 kmh 29.92 in1013.2 mb 0.00 in0.0 mm 0.00 in0.0 mm 0.00 in0.0 mm
02:34 PM 80.1°F26.7°C 60.8°F16.0°C 52% 2.5 mph S4.0 kmh S 3.5 mph5.6 kmh 29.92 in1013.2 mb 0.00 in0.0 mm 0.00 in0.0 mm 0.00 in0.0 mm
02:33 PM 80.1°F26.7°C 60.8°F16.0°C 52% 2.5 mph SSE4.0 kmh SSE 3.5 mph5.6 kmh 29.92 in1013.2 mb 0.00 in0.0 mm 0.00 in0.0 mm 0.00 in0.0 mm
02:32 PM 81.0°F27.2°C 60.6°F15.9°C 50% 2.5 mph SE4.0 kmh SE 3.5 mph5.6 kmh 29.92 in1013.2 mb 0.00 in0.0 mm 0.00 in0.0 mm 0.00 in0.0 mm
02:31 PM 81.1°F27.3°C 61.8°F16.6°C 52% 2.4 mph E3.9 kmh E 3.5 mph5.6 kmh 29.92 in1013.2 mb 0.00 in0.0 mm 0.00 in0.0 mm 0.00 in0.0 mm
02:30 PM 80.4°F26.9°C 60.6°F15.9°C 51% 2.3 mph ENE3.7 kmh ENE 2.6 mph4.2 kmh 29.92 in1013.2 mb 0.00 in0.0 mm 0.00 in0.0 mm 0.00 in0.0 mm
02:29 PM 80.2°F26.8°C 60.5°F15.8°C 51% 2.1 mph ENE3.4 kmh ENE 2.6 mph4.2 kmh 29.92 in1013.2 mb 0.00 in0.0 mm 0.00 in0.0 mm 0.00 in0.0 mm
02:28 PM 79.7°F26.5°C 59.4°F15.2°C 50% 1.9 mph E3.1 kmh E 2.6 mph4.2 kmh 29.93 in1013.5 mb 0.00 in0.0 mm 0.00 in0.0 mm 0.00 in0.0 mm
02:27 PM 80.2°F26.8°C 61.6°F16.4°C 53% 1.7 mph E2.7 kmh E 2.6 mph4.2 kmh 29.93 in1013.5 mb 0.00 in0.0 mm 0.00 in0.0 mm 0.00 in0.0 mm
02:26 PM 80.1°F26.7°C 60.3°F15.7°C 51% 1.8 mph E2.9 kmh E 2.6 mph4.2 kmh 29.93 in1013.5 mb 0.00 in0.0 mm 0.00 in0.0 mm 0.00 in0.0 mm
02:25 PM 80.1°F26.7°C 60.3°F15.7°C 51% 1.8 mph ESE2.9 kmh ESE 2.6 mph4.2 kmh 29.92 in1013.2 mb 0.00 in0.0 mm 0.00 in0.0 mm 0.00 in0.0 mm
02:24 PM 80.2°F26.8°C 61.6°F16.4°C 53% 2.0 mph SE3.2 kmh SE 4.4 mph7.1 kmh 29.92 in1013.2 mb 0.00 in0.0 mm 0.00 in0.0 mm 0.00 in0.0 mm
02:23 PM 80.4°F26.9°C 60.6°F15.9°C 51% 1.9 mph SSE3.1 kmh SSE 4.4 mph7.1 kmh 29.93 in1013.5 mb 0.00 in0.0 mm 0.00 in0.0 mm 0.00 in0.0 mm
02:22 PM 80.4°F26.9°C 60.6°F15.9°C 51% 1.9 mph SSE3.1 kmh SSE 4.4 mph7.1 kmh 29.93 in1013.5 mb 0.00 in0.0 mm 0.00 in0.0 mm 0.00 in0.0 mm
02:21 PM 81.0°F27.2°C 60.6°F15.9°C 50% 1.9 mph SSE3.1 kmh SSE 4.4 mph7.1 kmh 29.93 in1013.5 mb 0.00 in0.0 mm 0.00 in0.0 mm 0.00 in0.0 mm
02:20 PM 81.3°F27.4°C 61.5°F16.4°C 51% 1.7 mph SSE2.7 kmh SSE 4.4 mph7.1 kmh 29.93 in1013.5 mb 0.00 in0.0 mm 0.00 in0.0 mm 0.00 in0.0 mm
02:19 PM 80.1°F26.7°C 60.3°F15.7°C 51% 1.7 mph S2.7 kmh S 4.4 mph7.1 kmh 29.93 in1013.5 mb 0.00 in0.0 mm 0.00 in0.0 mm 0.00 in0.0 mm
02:18 PM 80.1°F26.7°C 60.3°F15.7°C 51% 1.9 mph S3.1 kmh S 4.4 mph7.1 kmh 29.94 in1013.9 mb 0.00 in0.0 mm 0.00 in0.0 mm 0.00 in0.0 mm
02:17 PM 79.5°F26.4°C 59.2°F15.1°C 50% 2.1 mph S3.4 kmh S 4.4 mph7.1 kmh 29.93 in1013.5 mb 0.00 in0.0 mm 0.00 in0.0 mm 0.00 in0.0 mm
02:16 PM 80.4°F26.9°C 60.1°F15.6°C 50% 2.2 mph S3.5 kmh S 4.4 mph7.1 kmh 29.93 in1013.5 mb 0.00 in0.0 mm 0.00 in0.0 mm 0.00 in0.0 mm
02:15 PM 80.2°F26.8°C 59.9°F15.5°C 50% 2.2 mph S3.5 kmh S 4.4 mph7.1 kmh 29.93 in1013.5 mb 0.00 in0.0 mm 0.00 in0.0 mm 0.00 in0.0 mm
02:14 PM 80.8°F27.1°C 59.8°F15.4°C 49% 2.1 mph SSE3.4 kmh SSE 4.4 mph7.1 kmh 29.93 in1013.5 mb 0.00 in0.0 mm 0.00 in0.0 mm 0.00 in0.0 mm
02:13 PM 81.0°F27.2°C 60.0°F15.6°C 49% 2.2 mph SSE3.5 kmh SSE 4.4 mph7.1 kmh 29.93 in1013.5 mb 0.00 in0.0 mm 0.00 in0.0 mm 0.00 in0.0 mm
02:12 PM 81.3°F27.4°C 60.9°F16.1°C 50% 2.2 mph SSE3.5 kmh SSE 4.4 mph7.1 kmh 29.94 in1013.9 mb 0.00 in0.0 mm 0.00 in0.0 mm 0.00 in0.0 mm
02:11 PM 81.1°F27.3°C 60.7°F15.9°C 50% 2.2 mph SSE3.5 kmh SSE 4.4 mph7.1 kmh 29.94 in1013.9 mb 0.00 in0.0 mm 0.00 in0.0 mm 0.00 in0.0 mm
02:10 PM 80.8°F27.1°C 59.8°F15.4°C 49% 2.4 mph SE3.9 kmh SE 4.4 mph7.1 kmh 29.94 in1013.9 mb 0.00 in0.0 mm 0.00 in0.0 mm 0.00 in0.0 mm
02:09 PM 80.8°F27.1°C 59.3°F15.2°C 48% 2.7 mph SSE4.3 kmh SSE 4.4 mph7.1 kmh 29.93 in1013.5 mb 0.00 in0.0 mm 0.00 in0.0 mm 0.00 in0.0 mm
02:08 PM 81.0°F27.2°C 59.4°F15.2°C 48% 2.8 mph SSE4.5 kmh SSE 4.4 mph7.1 kmh 29.94 in1013.9 mb 0.00 in0.0 mm 0.00 in0.0 mm 0.00 in0.0 mm
02:07 PM 80.2°F26.8°C 59.9°F15.5°C 50% 2.7 mph SSE4.3 kmh SSE 4.4 mph7.1 kmh 29.94 in1013.9 mb 0.00 in0.0 mm 0.00 in0.0 mm 0.00 in0.0 mm
02:06 PM 79.3°F26.3°C 59.1°F15.1°C 50% 2.6 mph SSE4.2 kmh SSE 3.5 mph5.6 kmh 29.93 in1013.5 mb 0.00 in0.0 mm 0.00 in0.0 mm 0.00 in0.0 mm
02:05 PM 79.0°F26.1°C 58.8°F14.9°C 50% 2.7 mph SSE4.3 kmh SSE 3.5 mph5.6 kmh 29.93 in1013.5 mb 0.00 in0.0 mm 0.00 in0.0 mm 0.00 in0.0 mm
02:04 PM 79.0°F26.1°C 58.8°F14.9°C 50% 3.1 mph SSE5.0 kmh SSE 6.1 mph9.8 kmh 29.94 in1013.9 mb 0.00 in0.0 mm 0.00 in0.0 mm 0.00 in0.0 mm
02:03 PM 79.0°F26.1°C 58.8°F14.9°C 50% 3.2 mph S5.1 kmh S 6.1 mph9.8 kmh 29.94 in1013.9 mb 0.00 in0.0 mm 0.00 in0.0 mm 0.00 in0.0 mm
02:02 PM 79.0°F26.1°C 58.8°F14.9°C 50% 3.2 mph S5.1 kmh S 6.1 mph9.8 kmh 29.95 in1014.2 mb 0.00 in0.0 mm 0.00 in0.0 mm 0.00 in0.0 mm
02:01 PM 79.0°F26.1°C 58.8°F14.9°C 50% 3.3 mph S5.3 kmh S 6.1 mph9.8 kmh 29.94 in1013.9 mb 0.00 in0.0 mm 0.00 in0.0 mm 0.00 in0.0 mm
02:00 PM 79.0°F26.1°C 58.8°F14.9°C 50% 3.6 mph S5.8 kmh S 6.1 mph9.8 kmh 29.94 in1013.9 mb 0.00 in0.0 mm 0.00 in0.0 mm 0.00 in0.0 mm
01:59 PM 79.5°F26.4°C 59.8°F15.4°C 51% 3.8 mph S6.1 kmh S 6.1 mph9.8 kmh 29.94 in1013.9 mb 0.00 in0.0 mm 0.00 in0.0 mm 0.00 in0.0 mm
01:58 PM 79.5°F26.4°C 59.8°F15.4°C 51% 3.7 mph S6.0 kmh S 6.1 mph9.8 kmh 29.94 in1013.9 mb 0.00 in0.0 mm 0.00 in0.0 mm 0.00 in0.0 mm
01:57 PM 79.3°F26.3°C 58.5°F14.7°C 49% 3.8 mph S6.1 kmh S 6.1 mph9.8 kmh 29.95 in1014.2 mb 0.00 in0.0 mm 0.00 in0.0 mm 0.00 in0.0 mm
01:56 PM 79.5°F26.4°C 57.5°F14.2°C 47% 3.8 mph S6.1 kmh S 6.1 mph9.8 kmh 29.95 in1014.2 mb 0.00 in0.0 mm 0.00 in0.0 mm 0.00 in0.0 mm
01:55 PM 80.8°F27.1°C 59.8°F15.4°C 49% 3.7 mph S6.0 kmh S 6.1 mph9.8 kmh 29.93 in1013.5 mb 0.00 in0.0 mm 0.00 in0.0 mm 0.00 in0.0 mm
01:54 PM 80.1°F26.7°C 59.7°F15.4°C 50% 3.2 mph SSW5.1 kmh SSW 6.1 mph9.8 kmh 29.95 in1014.2 mb 0.00 in0.0 mm 0.00 in0.0 mm 0.00 in0.0 mm
01:53 PM 80.8°F27.1°C 59.8°F15.4°C 49% 3.0 mph SSW4.8 kmh SSW 6.1 mph9.8 kmh 29.94 in1013.9 mb 0.00 in0.0 mm 0.00 in0.0 mm 0.00 in0.0 mm
01:52 PM 80.4°F26.9°C 59.5°F15.3°C 49% 3.0 mph SW4.8 kmh SW 6.1 mph9.8 kmh 29.94 in1013.9 mb 0.00 in0.0 mm 0.00 in0.0 mm 0.00 in0.0 mm
01:51 PM 80.2°F26.8°C 59.9°F15.5°C 50% 2.9 mph SSW4.7 kmh SSW 6.1 mph9.8 kmh 29.94 in1013.9 mb 0.00 in0.0 mm 0.00 in0.0 mm 0.00 in0.0 mm
01:50 PM 80.2°F26.8°C 60.5°F15.8°C 51% 2.6 mph S4.2 kmh S 6.1 mph9.8 kmh 29.95 in1014.2 mb 0.00 in0.0 mm 0.00 in0.0 mm 0.00 in0.0 mm
01:49 PM 80.4°F26.9°C 60.1°F15.6°C 50% 2.4 mph SSW3.9 kmh SSW 4.4 mph7.1 kmh 29.95 in1014.2 mb 0.00 in0.0 mm 0.00 in0.0 mm 0.00 in0.0 mm
01:48 PM 80.6°F27.0°C 60.2°F15.7°C 50% 2.7 mph SSW4.3 kmh SSW 6.1 mph9.8 kmh 29.95 in1014.2 mb 0.00 in0.0 mm 0.00 in0.0 mm 0.00 in0.0 mm
01:47 PM 80.4°F26.9°C 60.1°F15.6°C 50% 2.5 mph SW4.0 kmh SW 6.1 mph9.8 kmh 29.95 in1014.2 mb 0.00 in0.0 mm 0.00 in0.0 mm 0.00 in0.0 mm
01:46 PM 81.1°F27.3°C 60.7°F15.9°C 50% 2.5 mph SW4.0 kmh SW 6.1 mph9.8 kmh 29.95 in1014.2 mb 0.00 in0.0 mm 0.00 in0.0 mm 0.00 in0.0 mm
01:45 PM 81.1°F27.3°C 60.2°F15.7°C 49% 2.5 mph SSW4.0 kmh SSW 6.1 mph9.8 kmh 29.95 in1014.2 mb 0.00 in0.0 mm 0.00 in0.0 mm 0.00 in0.0 mm
01:44 PM 81.7°F27.6°C 60.7°F15.9°C 49% 2.6 mph SSW4.2 kmh SSW 6.1 mph9.8 kmh 29.95 in1014.2 mb 0.00 in0.0 mm 0.00 in0.0 mm 0.00 in0.0 mm
01:43 PM 81.3°F27.4°C 59.2°F15.1°C 47% 2.6 mph SSW4.2 kmh SSW 6.1 mph9.8 kmh 29.95 in1014.2 mb 0.00 in0.0 mm 0.00 in0.0 mm 0.00 in0.0 mm
01:42 PM 81.1°F27.3°C 59.6°F15.3°C 48% 2.5 mph S4.0 kmh S 6.1 mph9.8 kmh 29.95 in1014.2 mb 0.00 in0.0 mm 0.00 in0.0 mm 0.00 in0.0 mm
01:41 PM 81.1°F27.3°C 60.7°F15.9°C 50% 2.5 mph S4.0 kmh S 6.1 mph9.8 kmh 29.95 in1014.2 mb 0.00 in0.0 mm 0.00 in0.0 mm 0.00 in0.0 mm
01:40 PM 80.2°F26.8°C 60.5°F15.8°C 51% 2.5 mph SSE4.0 kmh SSE 6.1 mph9.8 kmh 29.95 in1014.2 mb 0.00 in0.0 mm 0.00 in0.0 mm 0.00 in0.0 mm
01:39 PM 80.1°F26.7°C 62.4°F16.9°C 55% 2.4 mph SSE3.9 kmh SSE 6.1 mph9.8 kmh 29.95 in1014.2 mb 0.00 in0.0 mm 0.00 in0.0 mm 0.00 in0.0 mm
01:38 PM 79.5°F26.4°C 62.4°F16.9°C 56% 2.3 mph SE3.7 kmh SE 4.4 mph7.1 kmh 29.95 in1014.2 mb 0.00 in0.0 mm 0.00 in0.0 mm 0.00 in0.0 mm
01:37 PM 79.3°F26.3°C 62.3°F16.8°C 56% 2.3 mph SE3.7 kmh SE 4.4 mph7.1 kmh 29.95 in1014.2 mb 0.00 in0.0 mm 0.00 in0.0 mm 0.00 in0.0 mm
01:36 PM 79.3°F26.3°C 62.3°F16.8°C 56% 2.3 mph SE3.7 kmh SE 4.4 mph7.1 kmh 29.95 in1014.2 mb 0.00 in0.0 mm 0.00 in0.0 mm 0.00 in0.0 mm
01:35 PM 79.5°F26.4°C 61.9°F16.6°C 55% 2.4 mph SE3.9 kmh SE 4.4 mph7.1 kmh 29.96 in1014.6 mb 0.00 in0.0 mm 0.00 in0.0 mm 0.00 in0.0 mm
01:34 PM 79.3°F26.3°C 61.2°F16.2°C 54% 2.6 mph SE4.2 kmh SE 4.4 mph7.1 kmh 29.95 in1014.2 mb 0.00 in0.0 mm 0.00 in0.0 mm 0.00 in0.0 mm
01:33 PM 79.5°F26.4°C 61.4°F16.3°C 54% 2.6 mph SE4.2 kmh SE 4.4 mph7.1 kmh 29.96 in1014.6 mb 0.00 in0.0 mm 0.00 in0.0 mm 0.00 in0.0 mm
01:32 PM 79.5°F26.4°C 60.9°F16.1°C 53% 2.4 mph SE3.9 kmh SE 4.4 mph7.1 kmh 29.96 in1014.6 mb 0.00 in0.0 mm 0.00 in0.0 mm 0.00 in0.0 mm
01:31 PM 79.5°F26.4°C 60.4°F15.8°C 52% 2.2 mph ESE3.5 kmh ESE 4.4 mph7.1 kmh 29.96 in1014.6 mb 0.00 in0.0 mm 0.00 in0.0 mm 0.00 in0.0 mm
01:30 PM 79.5°F26.4°C 60.9°F16.1°C 53% 2.2 mph ESE3.5 kmh ESE 4.4 mph7.1 kmh 29.96 in1014.6 mb 0.00 in0.0 mm 0.00 in0.0 mm 0.00 in0.0 mm
01:29 PM 80.1°F26.7°C 61.9°F16.6°C 54% 2.1 mph ESE3.4 kmh ESE 4.4 mph7.1 kmh 29.96 in1014.6 mb 0.00 in0.0 mm 0.00 in0.0 mm 0.00 in0.0 mm
01:28 PM 79.5°F26.4°C 62.9°F17.2°C 57% 1.9 mph E3.1 kmh E 2.6 mph4.2 kmh 29.96 in1014.6 mb 0.00 in0.0 mm 0.00 in0.0 mm 0.00 in0.0 mm
01:27 PM 79.5°F26.4°C 64.4°F18.0°C 60% 2.0 mph E3.2 kmh E 3.5 mph5.6 kmh 29.96 in1014.6 mb 0.00 in0.0 mm 0.00 in0.0 mm 0.00 in0.0 mm
01:26 PM 80.1°F26.7°C 64.4°F18.0°C 59% 2.0 mph ENE3.2 kmh ENE 3.5 mph5.6 kmh 29.96 in1014.6 mb 0.00 in0.0 mm 0.00 in0.0 mm 0.00 in0.0 mm
01:25 PM 80.1°F26.7°C 64.4°F18.0°C 59% 1.9 mph NE3.1 kmh NE 3.5 mph5.6 kmh 29.96 in1014.6 mb 0.00 in0.0 mm 0.00 in0.0 mm 0.00 in0.0 mm
01:24 PM 79.5°F26.4°C 63.9°F17.7°C 59% 2.0 mph SE3.2 kmh SE 3.5 mph5.6 kmh 29.96 in1014.6 mb 0.00 in0.0 mm 0.00 in0.0 mm 0.00 in0.0 mm
01:23 PM 79.5°F26.4°C 64.4°F18.0°C 60% 2.0 mph SE3.2 kmh SE 3.5 mph5.6 kmh 29.96 in1014.6 mb 0.00 in0.0 mm 0.00 in0.0 mm 0.00 in0.0 mm
01:22 PM 79.2°F26.2°C 63.6°F17.6°C 59% 1.8 mph SSE2.9 kmh SSE 3.5 mph5.6 kmh 29.96 in1014.6 mb 0.00 in0.0 mm 0.00 in0.0 mm 0.00 in0.0 mm
01:21 PM 78.6°F25.9°C 63.6°F17.6°C 60% 1.8 mph SSE2.9 kmh SSE 3.5 mph5.6 kmh 29.96 in1014.6 mb 0.00 in0.0 mm 0.00 in0.0 mm 0.00 in0.0 mm
01:20 PM 79.0°F26.1°C 62.9°F17.2°C 58% 1.9 mph SSE3.1 kmh SSE 4.4 mph7.1 kmh 29.96 in1014.6 mb 0.00 in0.0 mm 0.00 in0.0 mm 0.00 in0.0 mm
01:19 PM 79.0°F26.1°C 62.4°F16.9°C 57% 2.1 mph SSE3.4 kmh SSE 4.4 mph7.1 kmh 29.96 in1014.6 mb 0.00 in0.0 mm 0.00 in0.0 mm 0.00 in0.0 mm
01:18 PM 78.8°F26.0°C 62.8°F17.1°C 58% 2.3 mph SSE3.7 kmh SSE 4.4 mph7.1 kmh 29.97 in1014.9 mb 0.00 in0.0 mm 0.00 in0.0 mm 0.00 in0.0 mm
01:17 PM 79.3°F26.3°C 62.8°F17.1°C 57% 2.4 mph S3.9 kmh S 5.2 mph8.4 kmh 29.97 in1014.9 mb 0.00 in0.0 mm 0.00 in0.0 mm 0.00 in0.0 mm
01:16 PM 79.2°F26.2°C 62.1°F16.7°C 56% 2.4 mph S3.9 kmh S 5.2 mph8.4 kmh 29.97 in1014.9 mb 0.00 in0.0 mm 0.00 in0.0 mm 0.00 in0.0 mm
01:15 PM 79.5°F26.4°C 62.9°F17.2°C 57% 2.4 mph S3.9 kmh S 5.2 mph8.4 kmh 29.97 in1014.9 mb 0.00 in0.0 mm 0.00 in0.0 mm 0.00 in0.0 mm
01:14 PM 80.1°F26.7°C 64.0°F17.8°C 58% 2.2 mph S3.5 kmh S 5.2 mph8.4 kmh 29.97 in1014.9 mb 0.00 in0.0 mm 0.00 in0.0 mm 0.00 in0.0 mm
01:13 PM 79.5°F26.4°C 62.9°F17.2°C 57% 2.1 mph S3.4 kmh S 5.2 mph8.4 kmh 29.97 in1014.9 mb 0.00 in0.0 mm 0.00 in0.0 mm 0.00 in0.0 mm
01:12 PM 79.3°F26.3°C 61.8°F16.6°C 55% 2.4 mph S3.9 kmh S 5.2 mph8.4 kmh 29.97 in1014.9 mb 0.00 in0.0 mm 0.00 in0.0 mm 0.00 in0.0 mm
01:11 PM 78.6°F25.9°C 61.1°F16.2°C 55% 2.5 mph SSE4.0 kmh SSE 5.2 mph8.4 kmh 29.97 in1014.9 mb 0.00 in0.0 mm 0.00 in0.0 mm 0.00 in0.0 mm
01:10 PM 78.8°F26.0°C 61.3°F16.3°C 55% 2.6 mph SSE4.2 kmh SSE 5.2 mph8.4 kmh 29.98 in1015.2 mb 0.00 in0.0 mm 0.00 in0.0 mm 0.00 in0.0 mm
01:09 PM 78.6°F25.9°C 61.1°F16.2°C 55% 2.6 mph ENE4.2 kmh ENE 5.2 mph8.4 kmh 29.97 in1014.9 mb 0.00 in0.0 mm 0.00 in0.0 mm 0.00 in0.0 mm
01:08 PM 79.2°F26.2°C 61.6°F16.4°C 55% 2.3 mph NE3.7 kmh NE 5.2 mph8.4 kmh 29.98 in1015.2 mb 0.00 in0.0 mm 0.00 in0.0 mm 0.00 in0.0 mm
01:07 PM 78.6°F25.9°C 61.6°F16.4°C 56% 1.9 mph NNE3.1 kmh NNE 3.5 mph5.6 kmh 29.98 in1015.2 mb 0.00 in0.0 mm 0.00 in0.0 mm 0.00 in0.0 mm
01:06 PM 78.8°F26.0°C 62.3°F16.8°C 57% 1.9 mph N3.1 kmh N 3.5 mph5.6 kmh 29.98 in1015.2 mb 0.00 in0.0 mm 0.00 in0.0 mm 0.00 in0.0 mm
01:05 PM 78.8°F26.0°C 63.3°F17.4°C 59% 2.0 mph NNE3.2 kmh NNE 3.5 mph5.6 kmh 29.98 in1015.2 mb 0.00 in0.0 mm 0.00 in0.0 mm 0.00 in0.0 mm
01:04 PM 78.6°F25.9°C 64.5°F18.1°C 62% 2.2 mph ENE3.5 kmh ENE 3.5 mph5.6 kmh 29.98 in1015.2 mb 0.00 in0.0 mm 0.00 in0.0 mm 0.00 in0.0 mm
01:03 PM 78.6°F25.9°C 65.0°F18.3°C 63% 2.4 mph E3.9 kmh E 3.5 mph5.6 kmh 29.98 in1015.2 mb 0.00 in0.0 mm 0.00 in0.0 mm 0.00 in0.0 mm
01:02 PM 79.0°F26.1°C 64.4°F18.0°C 61% 2.6 mph ESE4.2 kmh ESE 4.4 mph7.1 kmh 29.98 in1015.2 mb 0.00 in0.0 mm 0.00 in0.0 mm 0.00 in0.0 mm
01:01 PM 79.2°F26.2°C 63.6°F17.6°C 59% 2.6 mph ESE4.2 kmh ESE 4.4 mph7.1 kmh 29.98 in1015.2 mb 0.00 in0.0 mm 0.00 in0.0 mm 0.00 in0.0 mm
01:00 PM 79.5°F26.4°C 63.9°F17.7°C 59% 2.3 mph SE3.7 kmh SE 4.4 mph7.1 kmh 29.98 in1015.2 mb 0.00 in0.0 mm 0.00 in0.0 mm 0.00 in0.0 mm
12:59 PM 79.5°F26.4°C 64.4°F18.0°C 60% 2.0 mph SE3.2 kmh SE 4.4 mph7.1 kmh 29.98 in1015.2 mb 0.00 in0.0 mm 0.00 in0.0 mm 0.00 in0.0 mm
12:58 PM 79.5°F26.4°C 64.4°F18.0°C 60% 1.8 mph SE2.9 kmh SE 4.4 mph7.1 kmh 29.98 in1015.2 mb 0.00 in0.0 mm 0.00 in0.0 mm 0.00 in0.0 mm
12:57 PM 79.0°F26.1°C 63.4°F17.4°C 59% 1.8 mph SE2.9 kmh SE 4.4 mph7.1 kmh 29.98 in1015.2 mb 0.00 in0.0 mm 0.00 in0.0 mm 0.00 in0.0 mm
12:56 PM 78.8°F26.0°C 61.3°F16.3°C 55% 1.6 mph SE2.6 kmh SE 4.4 mph7.1 kmh 29.98 in1015.2 mb 0.00 in0.0 mm 0.00 in0.0 mm 0.00 in0.0 mm
12:55 PM 78.8°F26.0°C 61.3°F16.3°C 55% 1.3 mph SE2.1 kmh SE 4.4 mph7.1 kmh 29.98 in1015.2 mb 0.00 in0.0 mm 0.00 in0.0 mm 0.00 in0.0 mm
12:54 PM 79.5°F26.4°C 61.9°F16.6°C 55% 1.0 mph SE1.6 kmh SE 4.4 mph7.1 kmh 29.98 in1015.2 mb 0.00 in0.0 mm 0.00 in0.0 mm 0.00 in0.0 mm
12:53 PM 79.2°F26.2°C 61.1°F16.2°C 54% 0.7 mph E1.1 kmh E 4.4 mph7.1 kmh 29.98 in1015.2 mb 0.00 in0.0 mm 0.00 in0.0 mm 0.00 in0.0 mm
12:52 PM 79.5°F26.4°C 61.9°F16.6°C 55% 0.4 mph ENE0.6 kmh ENE 4.4 mph7.1 kmh 29.98 in1015.2 mb 0.00 in0.0 mm 0.00 in0.0 mm 0.00 in0.0 mm
12:51 PM 80.1°F26.7°C 62.9°F17.2°C 56% 0.6 mph S1.0 kmh S 3.5 mph5.6 kmh 29.98 in1015.2 mb 0.00 in0.0 mm 0.00 in0.0 mm 0.00 in0.0 mm
12:50 PM 80.1°F26.7°C 64.9°F18.3°C 60% 0.8 mph S1.3 kmh S 3.5 mph5.6 kmh 29.99 in1015.6 mb 0.00 in0.0 mm 0.00 in0.0 mm 0.00 in0.0 mm
12:49 PM 80.8°F27.1°C 65.1°F18.4°C 59% 1.1 mph S1.8 kmh S 3.5 mph5.6 kmh 29.99 in1015.6 mb 0.00 in0.0 mm 0.00 in0.0 mm 0.00 in0.0 mm
12:48 PM 81.0°F27.2°C 65.3°F18.5°C 59% 1.2 mph SSE1.9 kmh SSE 3.5 mph5.6 kmh 29.99 in1015.6 mb 0.00 in0.0 mm 0.00 in0.0 mm 0.00 in0.0 mm
12:47 PM 80.2°F26.8°C 65.1°F18.4°C 60% 1.6 mph SE2.6 kmh SE 4.4 mph7.1 kmh 29.99 in1015.6 mb 0.00 in0.0 mm 0.00 in0.0 mm 0.00 in0.0 mm
12:46 PM 80.6°F27.0°C 65.4°F18.6°C 60% 1.9 mph SE3.1 kmh SE 4.4 mph7.1 kmh 29.99 in1015.6 mb 0.00 in0.0 mm 0.00 in0.0 mm 0.00 in0.0 mm
12:45 PM 79.5°F26.4°C 64.9°F18.3°C 61% 2.3 mph ESE3.7 kmh ESE 4.4 mph7.1 kmh 29.99 in1015.6 mb 0.00 in0.0 mm 0.00 in0.0 mm 0.00 in0.0 mm
12:44 PM 78.8°F26.0°C 63.3°F17.4°C 59% 2.6 mph E4.2 kmh E 4.4 mph7.1 kmh 30.00 in1015.9 mb 0.00 in0.0 mm 0.00 in0.0 mm 0.00 in0.0 mm
12:43 PM 78.6°F25.9°C 63.1°F17.3°C 59% 2.7 mph E4.3 kmh E 4.4 mph7.1 kmh 30.00 in1015.9 mb 0.00 in0.0 mm 0.00 in0.0 mm 0.00 in0.0 mm
12:42 PM 78.6°F25.9°C 63.1°F17.3°C 59% 2.7 mph E4.3 kmh E 4.4 mph7.1 kmh 29.99 in1015.6 mb 0.00 in0.0 mm 0.00 in0.0 mm 0.00 in0.0 mm
12:41 PM 78.3°F25.7°C 62.8°F17.1°C 59% 2.7 mph E4.3 kmh E 4.4 mph7.1 kmh 29.99 in1015.6 mb 0.00 in0.0 mm 0.00 in0.0 mm 0.00 in0.0 mm
12:40 PM 78.4°F25.8°C 62.9°F17.2°C 59% 2.8 mph E4.5 kmh E 4.4 mph7.1 kmh 30.00 in1015.9 mb 0.00 in0.0 mm 0.00 in0.0 mm 0.00 in0.0 mm
12:39 PM 77.9°F25.5°C 62.9°F17.2°C 60% 2.8 mph E4.5 kmh E 5.2 mph8.4 kmh 30.00 in1015.9 mb 0.00 in0.0 mm 0.00 in0.0 mm 0.00 in0.0 mm
12:38 PM 77.4°F25.2°C 61.4°F16.3°C 58% 3.5 mph SSE5.6 kmh SSE 7.0 mph11.3 kmh 30.00 in1015.9 mb 0.00 in0.0 mm 0.00 in0.0 mm 0.00 in0.0 mm
12:37 PM 77.7°F25.4°C 62.7°F17.1°C 60% 3.5 mph S5.6 kmh S 7.0 mph11.3 kmh 30.00 in1015.9 mb 0.00 in0.0 mm 0.00 in0.0 mm 0.00 in0.0 mm
12:36 PM 78.3°F25.7°C 63.2°F17.3°C 60% 3.6 mph S5.8 kmh S 7.0 mph11.3 kmh 30.00 in1015.9 mb 0.00 in0.0 mm 0.00 in0.0 mm 0.00 in0.0 mm
12:35 PM 78.6°F25.9°C 63.6°F17.6°C 60% 3.6 mph S5.8 kmh S 7.0 mph11.3 kmh 30.00 in1015.9 mb 0.00 in0.0 mm 0.00 in0.0 mm 0.00 in0.0 mm
12:34 PM 79.2°F26.2°C 62.6°F17.0°C 57% 3.6 mph S5.8 kmh S 7.0 mph11.3 kmh 30.00 in1015.9 mb 0.00 in0.0 mm 0.00 in0.0 mm 0.00 in0.0 mm
12:33 PM 78.6°F25.9°C 61.6°F16.4°C 56% 3.6 mph S5.8 kmh S 7.0 mph11.3 kmh 30.00 in1015.9 mb 0.00 in0.0 mm 0.00 in0.0 mm 0.00 in0.0 mm
12:32 PM 79.0°F26.1°C 60.9°F16.1°C 54% 3.7 mph S6.0 kmh S 7.0 mph11.3 kmh 30.00 in1015.9 mb 0.00 in0.0 mm 0.00 in0.0 mm 0.00 in0.0 mm
12:31 PM 79.2°F26.2°C 61.1°F16.2°C 54% 3.7 mph S6.0 kmh S 7.0 mph11.3 kmh 30.00 in1015.9 mb 0.00 in0.0 mm 0.00 in0.0 mm 0.00 in0.0 mm
12:30 PM 78.6°F25.9°C 60.6°F15.9°C 54% 3.5 mph S5.6 kmh S 7.0 mph11.3 kmh 30.01 in1016.3 mb 0.00 in0.0 mm 0.00 in0.0 mm 0.00 in0.0 mm
12:29 PM 79.2°F26.2°C 61.6°F16.4°C 55% 3.6 mph S5.8 kmh S 7.0 mph11.3 kmh 30.01 in1016.3 mb 0.00 in0.0 mm 0.00 in0.0 mm 0.00 in0.0 mm
12:28 PM 79.3°F26.3°C 62.3°F16.8°C 56% 3.3 mph S5.3 kmh S 7.0 mph11.3 kmh 30.01 in1016.3 mb 0.00 in0.0 mm 0.00 in0.0 mm 0.00 in0.0 mm
12:27 PM 79.0°F26.1°C 62.9°F17.2°C 58% 3.2 mph S5.1 kmh S 7.0 mph11.3 kmh 30.00 in1015.9 mb 0.00 in0.0 mm 0.00 in0.0 mm 0.00 in0.0 mm
12:26 PM 79.0°F26.1°C 63.4°F17.4°C 59% 2.9 mph SSW4.7 kmh SSW 7.0 mph11.3 kmh 30.01 in1016.3 mb 0.00 in0.0 mm 0.00 in0.0 mm 0.00 in0.0 mm
12:25 PM 79.3°F26.3°C 64.7°F18.2°C 61% 2.4 mph SW3.9 kmh SW 5.2 mph8.4 kmh 30.01 in1016.3 mb 0.00 in0.0 mm 0.00 in0.0 mm 0.00 in0.0 mm
12:24 PM 79.0°F26.1°C 63.9°F17.7°C 60% 2.3 mph SW3.7 kmh SW 5.2 mph8.4 kmh 30.01 in1016.3 mb 0.00 in0.0 mm 0.00 in0.0 mm 0.00 in0.0 mm
12:23 PM 79.2°F26.2°C 63.6°F17.6°C 59% 2.5 mph SW4.0 kmh SW 5.2 mph8.4 kmh 30.01 in1016.3 mb 0.00 in0.0 mm 0.00 in0.0 mm 0.00 in0.0 mm
12:22 PM 79.0°F26.1°C 62.9°F17.2°C 58% 2.6 mph SSW4.2 kmh SSW 5.2 mph8.4 kmh 30.01 in1016.3 mb 0.00 in0.0 mm 0.00 in0.0 mm 0.00 in0.0 mm
12:21 PM 79.3°F26.3°C 63.3°F17.4°C 58% 2.8 mph SSW4.5 kmh SSW 5.2 mph8.4 kmh 30.01 in1016.3 mb 0.00 in0.0 mm 0.00 in0.0 mm 0.00 in0.0 mm
12:20 PM 78.8°F26.0°C 63.7°F17.6°C 60% 2.6 mph SSW4.2 kmh SSW 5.2 mph8.4 kmh 30.01 in1016.3 mb 0.00 in0.0 mm 0.00 in0.0 mm 0.00 in0.0 mm
12:19 PM 78.8°F26.0°C 64.2°F17.9°C 61% 2.1 mph S3.4 kmh S 4.4 mph7.1 kmh 30.01 in1016.3 mb 0.00 in0.0 mm 0.00 in0.0 mm 0.00 in0.0 mm
12:18 PM 78.4°F25.8°C 64.3°F17.9°C 62% 2.0 mph SE3.2 kmh SE 4.4 mph7.1 kmh 30.01 in1016.3 mb 0.00 in0.0 mm 0.00 in0.0 mm 0.00 in0.0 mm
12:17 PM 78.6°F25.9°C 64.0°F17.8°C 61% 2.2 mph SSE3.5 kmh SSE 4.4 mph7.1 kmh 30.02 in1016.6 mb 0.00 in0.0 mm 0.00 in0.0 mm 0.00 in0.0 mm
12:16 PM 78.4°F25.8°C 62.4°F16.9°C 58% 2.7 mph SSE4.3 kmh SSE 7.9 mph12.7 kmh 30.02 in1016.6 mb 0.00 in0.0 mm 0.00 in0.0 mm 0.00 in0.0 mm
12:15 PM 77.9°F25.5°C 60.4°F15.8°C 55% 3.0 mph S4.8 kmh S 7.9 mph12.7 kmh 30.02 in1016.6 mb 0.00 in0.0 mm 0.00 in0.0 mm 0.00 in0.0 mm
12:14 PM 78.1°F25.6°C 60.1°F15.6°C 54% 2.7 mph S4.3 kmh S 7.9 mph12.7 kmh 30.01 in1016.3 mb 0.00 in0.0 mm 0.00 in0.0 mm 0.00 in0.0 mm
12:13 PM 78.4°F25.8°C 60.9°F16.1°C 55% 2.5 mph SSE4.0 kmh SSE 7.9 mph12.7 kmh 30.01 in1016.3 mb 0.00 in0.0 mm 0.00 in0.0 mm 0.00 in0.0 mm
12:12 PM 79.3°F26.3°C 64.2°F17.9°C 60% 2.0 mph SSE3.2 kmh SSE 7.9 mph12.7 kmh 30.02 in1016.6 mb 0.00 in0.0 mm 0.00 in0.0 mm 0.00 in0.0 mm
12:11 PM 79.2°F26.2°C 63.1°F17.3°C 58% 1.6 mph SSE2.6 kmh SSE 7.9 mph12.7 kmh 30.02 in1016.6 mb 0.00 in0.0 mm 0.00 in0.0 mm 0.00 in0.0 mm
12:10 PM 78.8°F26.0°C 62.3°F16.8°C 57% 1.5 mph SSE2.4 kmh SSE 7.9 mph12.7 kmh 30.02 in1016.6 mb 0.00 in0.0 mm 0.00 in0.0 mm 0.00 in0.0 mm
12:09 PM 78.4°F25.8°C 62.4°F16.9°C 58% 1.5 mph SSE2.4 kmh SSE 7.9 mph12.7 kmh 30.02 in1016.6 mb 0.00 in0.0 mm 0.00 in0.0 mm 0.00 in0.0 mm
12:08 PM 78.8°F26.0°C 63.3°F17.4°C 59% 1.5 mph S2.4 kmh S 7.9 mph12.7 kmh 30.02 in1016.6 mb 0.00 in0.0 mm 0.00 in0.0 mm 0.00 in0.0 mm
12:07 PM 78.4°F25.8°C 62.9°F17.2°C 59% 1.5 mph S2.4 kmh S 7.9 mph12.7 kmh 30.02 in1016.6 mb 0.00 in0.0 mm 0.00 in0.0 mm 0.00 in0.0 mm
12:06 PM 78.3°F25.7°C 65.1°F18.4°C 64% 1.5 mph S2.4 kmh S 7.9 mph12.7 kmh 30.02 in1016.6 mb 0.00 in0.0 mm 0.00 in0.0 mm 0.00 in0.0 mm
12:05 PM 78.1°F25.6°C 64.9°F18.3°C 64% 1.5 mph S2.4 kmh S 4.4 mph7.1 kmh 30.02 in1016.6 mb 0.00 in0.0 mm 0.00 in0.0 mm 0.00 in0.0 mm
12:04 PM 78.1°F25.6°C 64.9°F18.3°C 64% 1.8 mph S2.9 kmh S 4.4 mph7.1 kmh 30.02 in1016.6 mb 0.00 in0.0 mm 0.00 in0.0 mm 0.00 in0.0 mm
12:03 PM 78.1°F25.6°C 64.9°F18.3°C 64% 2.0 mph S3.2 kmh S 4.4 mph7.1 kmh 30.03 in1016.9 mb 0.00 in0.0 mm 0.00 in0.0 mm 0.00 in0.0 mm
12:02 PM 78.1°F25.6°C 64.9°F18.3°C 64% 2.2 mph S3.5 kmh S 4.4 mph7.1 kmh 30.02 in1016.6 mb 0.00 in0.0 mm 0.00 in0.0 mm 0.00 in0.0 mm
12:01 PM 78.1°F25.6°C 64.9°F18.3°C 64% 2.6 mph S4.2 kmh S 4.4 mph7.1 kmh 30.02 in1016.6 mb 0.00 in0.0 mm 0.00 in0.0 mm 0.00 in0.0 mm
12:00 PM 77.4°F25.2°C 64.2°F17.9°C 64% 2.9 mph S4.7 kmh S 4.4 mph7.1 kmh 30.02 in1016.6 mb 0.00 in0.0 mm 0.00 in0.0 mm 0.00 in0.0 mm
11:59 AM 77.0°F25.0°C 63.9°F17.7°C 64% 3.0 mph S4.8 kmh S 4.4 mph7.1 kmh 30.02 in1016.6 mb 0.00 in0.0 mm 0.00 in0.0 mm 0.00 in0.0 mm
11:58 AM 77.2°F25.1°C 64.5°F18.1°C 65% 2.9 mph S4.7 kmh S 4.4 mph7.1 kmh 30.03 in1016.9 mb 0.00 in0.0 mm 0.00 in0.0 mm 0.00 in0.0 mm
11:57 AM 77.2°F25.1°C 64.1°F17.8°C 64% 2.6 mph S4.2 kmh S 4.4 mph7.1 kmh 30.02 in1016.6 mb 0.00 in0.0 mm 0.00 in0.0 mm 0.00 in0.0 mm
11:56 AM 77.5°F25.3°C 64.4°F18.0°C 64% 2.2 mph S3.5 kmh S 4.4 mph7.1 kmh 30.02 in1016.6 mb 0.00 in0.0 mm 0.00 in0.0 mm 0.00 in0.0 mm
11:55 AM 77.5°F25.3°C 63.9°F17.7°C 63% 1.9 mph S3.1 kmh S 3.5 mph5.6 kmh 30.03 in1016.9 mb 0.00 in0.0 mm 0.00 in0.0 mm 0.00 in0.0 mm
11:54 AM 77.2°F25.1°C 64.1°F17.8°C 64% 1.8 mph SSE2.9 kmh SSE 3.5 mph5.6 kmh 30.02 in1016.6 mb 0.00 in0.0 mm 0.00 in0.0 mm 0.00 in0.0 mm
11:53 AM 77.4°F25.2°C 63.8°F17.7°C 63% 1.8 mph SE2.9 kmh SE 3.5 mph5.6 kmh 30.03 in1016.9 mb 0.00 in0.0 mm 0.00 in0.0 mm 0.00 in0.0 mm
11:52 AM 77.9°F25.5°C 64.7°F18.2°C 64% 1.8 mph S2.9 kmh S 3.5 mph5.6 kmh 30.03 in1016.9 mb 0.00 in0.0 mm 0.00 in0.0 mm 0.00 in0.0 mm
11:51 AM 78.4°F25.8°C 65.7°F18.7°C 65% 1.6 mph SSE2.6 kmh SSE 3.5 mph5.6 kmh 30.03 in1016.9 mb 0.00 in0.0 mm 0.00 in0.0 mm 0.00 in0.0 mm
11:50 AM 78.6°F25.9°C 65.0°F18.3°C 63% 1.6 mph E2.6 kmh E 3.5 mph5.6 kmh 30.03 in1016.9 mb 0.00 in0.0 mm 0.00 in0.0 mm 0.00 in0.0 mm
11:49 AM 78.1°F25.6°C 64.9°F18.3°C 64% 1.8 mph E2.9 kmh E 3.5 mph5.6 kmh 30.03 in1016.9 mb 0.00 in0.0 mm 0.00 in0.0 mm 0.00 in0.0 mm
11:48 AM 78.4°F25.8°C 66.6°F19.2°C 67% 1.7 mph E2.7 kmh E 3.5 mph5.6 kmh 30.03 in1016.9 mb 0.00 in0.0 mm 0.00 in0.0 mm 0.00 in0.0 mm
11:47 AM 78.1°F25.6°C 66.2°F19.0°C 67% 1.8 mph E2.9 kmh E 3.5 mph5.6 kmh 30.03 in1016.9 mb 0.00 in0.0 mm 0.00 in0.0 mm 0.00 in0.0 mm
11:46 AM 77.7°F25.4°C 65.0°F18.3°C 65% 1.9 mph E3.1 kmh E 3.5 mph5.6 kmh 30.03 in1016.9 mb 0.00 in0.0 mm 0.00 in0.0 mm 0.00 in0.0 mm
11:45 AM 77.4°F25.2°C 64.2°F17.9°C 64% 1.9 mph E3.1 kmh E 3.5 mph5.6 kmh 30.02 in1016.6 mb 0.00 in0.0 mm 0.00 in0.0 mm 0.00 in0.0 mm
11:44 AM 77.5°F25.3°C 63.9°F17.7°C 63% 2.0 mph E3.2 kmh E 3.5 mph5.6 kmh 30.03 in1016.9 mb 0.00 in0.0 mm 0.00 in0.0 mm 0.00 in0.0 mm
11:43 AM 77.5°F25.3°C 64.4°F18.0°C 64% 2.0 mph E3.2 kmh E 3.5 mph5.6 kmh 30.03 in1016.9 mb 0.00 in0.0 mm 0.00 in0.0 mm 0.00 in0.0 mm
11:42 AM 77.2°F25.1°C 63.6°F17.6°C 63% 1.9 mph ENE3.1 kmh ENE 3.5 mph5.6 kmh 30.03 in1016.9 mb 0.00 in0.0 mm 0.00 in0.0 mm 0.00 in0.0 mm
11:41 AM 76.8°F24.9°C 63.3°F17.4°C 63% 1.9 mph E3.1 kmh E 3.5 mph5.6 kmh 30.03 in1016.9 mb 0.00 in0.0 mm 0.00 in0.0 mm 0.00 in0.0 mm
11:40 AM 77.7°F25.4°C 65.0°F18.3°C 65% 1.9 mph E3.1 kmh E 3.5 mph5.6 kmh 30.03 in1016.9 mb 0.00 in0.0 mm 0.00 in0.0 mm 0.00 in0.0 mm
11:39 AM 77.7°F25.4°C 64.6°F18.1°C 64% 1.9 mph E3.1 kmh E 3.5 mph5.6 kmh 30.03 in1016.9 mb 0.00 in0.0 mm 0.00 in0.0 mm 0.00 in0.0 mm
11:38 AM 77.2°F25.1°C 64.5°F18.1°C 65% 2.0 mph E3.2 kmh E 3.5 mph5.6 kmh 30.03 in1016.9 mb 0.00 in0.0 mm 0.00 in0.0 mm 0.00 in0.0 mm
11:37 AM 77.7°F25.4°C 65.5°F18.6°C 66% 2.2 mph E3.5 kmh E 3.5 mph5.6 kmh 30.03 in1016.9 mb 0.00 in0.0 mm 0.00 in0.0 mm 0.00 in0.0 mm
11:36 AM 77.4°F25.2°C 64.7°F18.2°C 65% 2.8 mph ESE4.5 kmh ESE 7.0 mph11.3 kmh 30.03 in1016.9 mb 0.00 in0.0 mm 0.00 in0.0 mm 0.00 in0.0 mm
11:35 AM 77.2°F25.1°C 63.6°F17.6°C 63% 3.0 mph SE4.8 kmh SE 7.0 mph11.3 kmh 30.04 in1017.3 mb 0.00 in0.0 mm 0.00 in0.0 mm 0.00 in0.0 mm
11:34 AM 77.2°F25.1°C 63.6°F17.6°C 63% 2.9 mph SE4.7 kmh SE 7.0 mph11.3 kmh 30.04 in1017.3 mb 0.00 in0.0 mm 0.00 in0.0 mm 0.00 in0.0 mm
11:33 AM 77.4°F25.2°C 63.8°F17.7°C 63% 2.9 mph SSE4.7 kmh SSE 7.0 mph11.3 kmh 30.03 in1016.9 mb 0.00 in0.0 mm 0.00 in0.0 mm 0.00 in0.0 mm
11:32 AM 77.0°F25.0°C 63.9°F17.7°C 64% 3.0 mph S4.8 kmh S 7.0 mph11.3 kmh 30.03 in1016.9 mb 0.00 in0.0 mm 0.00 in0.0 mm 0.00 in0.0 mm
11:31 AM 76.8°F24.9°C 64.2°F17.9°C 65% 3.1 mph S5.0 kmh S 7.0 mph11.3 kmh 30.03 in1016.9 mb 0.00 in0.0 mm 0.00 in0.0 mm 0.00 in0.0 mm
11:30 AM 77.2°F25.1°C 64.5°F18.1°C 65% 3.0 mph S4.8 kmh S 7.0 mph11.3 kmh 30.04 in1017.3 mb 0.00 in0.0 mm 0.00 in0.0 mm 0.00 in0.0 mm
11:29 AM 77.5°F25.3°C 64.8°F18.2°C 65% 2.8 mph S4.5 kmh S 7.0 mph11.3 kmh 30.04 in1017.3 mb 0.00 in0.0 mm 0.00 in0.0 mm 0.00 in0.0 mm
11:28 AM 76.8°F24.9°C 63.7°F17.6°C 64% 2.6 mph SSW4.2 kmh SSW 7.0 mph11.3 kmh 30.03 in1016.9 mb 0.00 in0.0 mm 0.00 in0.0 mm 0.00 in0.0 mm
11:27 AM 77.0°F25.0°C 64.8°F18.2°C 66% 2.4 mph SSW3.9 kmh SSW 7.0 mph11.3 kmh 30.04 in1017.3 mb 0.00 in0.0 mm 0.00 in0.0 mm 0.00 in0.0 mm
11:26 AM 77.5°F25.3°C 66.1°F18.9°C 68% 2.1 mph SSW3.4 kmh SSW 7.0 mph11.3 kmh 30.04 in1017.3 mb 0.00 in0.0 mm 0.00 in0.0 mm 0.00 in0.0 mm
11:25 AM 77.0°F25.0°C 64.8°F18.2°C 66% 1.8 mph SSW2.9 kmh SSW 3.5 mph5.6 kmh 30.04 in1017.3 mb 0.00 in0.0 mm 0.00 in0.0 mm 0.00 in0.0 mm
11:24 AM 77.9°F25.5°C 64.7°F18.2°C 64% 1.6 mph SSW2.6 kmh SSW 3.5 mph5.6 kmh 30.04 in1017.3 mb 0.00 in0.0 mm 0.00 in0.0 mm 0.00 in0.0 mm
11:23 AM 78.6°F25.9°C 65.4°F18.6°C 64% 1.5 mph SSW2.4 kmh SSW 3.5 mph5.6 kmh 30.04 in1017.3 mb 0.00 in0.0 mm 0.00 in0.0 mm 0.00 in0.0 mm
11:22 AM 78.6°F25.9°C 65.0°F18.3°C 63% 1.4 mph SSW2.3 kmh SSW 3.5 mph5.6 kmh 30.04 in1017.3 mb 0.00 in0.0 mm 0.00 in0.0 mm 0.00 in0.0 mm
11:21 AM 79.0°F26.1°C 65.3°F18.5°C 63% 1.3 mph S2.1 kmh S 3.5 mph5.6 kmh 30.04 in1017.3 mb 0.00 in0.0 mm 0.00 in0.0 mm 0.00 in0.0 mm
11:20 AM 78.3°F25.7°C 65.1°F18.4°C 64% 1.3 mph SSW2.1 kmh SSW 2.6 mph4.2 kmh 30.04 in1017.3 mb 0.00 in0.0 mm 0.00 in0.0 mm 0.00 in0.0 mm
11:19 AM 77.9°F25.5°C 65.6°F18.7°C 66% 1.3 mph SSW2.1 kmh SSW 2.6 mph4.2 kmh 30.04 in1017.3 mb 0.00 in0.0 mm 0.00 in0.0 mm 0.00 in0.0 mm
11:18 AM 77.2°F25.1°C 64.1°F17.8°C 64% 1.5 mph S2.4 kmh S 3.5 mph5.6 kmh 30.04 in1017.3 mb 0.00 in0.0 mm 0.00 in0.0 mm 0.00 in0.0 mm
11:17 AM 77.4°F25.2°C 64.2°F17.9°C 64% 1.8 mph S2.9 kmh S 5.2 mph8.4 kmh 30.04 in1017.3 mb 0.00 in0.0 mm 0.00 in0.0 mm 0.00 in0.0 mm
11:16 AM 77.7°F25.4°C 65.0°F18.3°C 65% 1.8 mph S2.9 kmh S 5.2 mph8.4 kmh 30.04 in1017.3 mb 0.00 in0.0 mm 0.00 in0.0 mm 0.00 in0.0 mm
11:15 AM 78.1°F25.6°C 65.4°F18.6°C 65% 2.0 mph S3.2 kmh S 6.1 mph9.8 kmh 30.04 in1017.3 mb 0.00 in0.0 mm 0.00 in0.0 mm 0.00 in0.0 mm
11:14 AM 77.7°F25.4°C 65.0°F18.3°C 65% 2.4 mph S3.9 kmh S 6.1 mph9.8 kmh 30.04 in1017.3 mb 0.00 in0.0 mm 0.00 in0.0 mm 0.00 in0.0 mm
11:13 AM 77.5°F25.3°C 65.3°F18.5°C 66% 2.4 mph S3.9 kmh S 6.1 mph9.8 kmh 30.04 in1017.3 mb 0.00 in0.0 mm 0.00 in0.0 mm 0.00 in0.0 mm
11:12 AM 77.4°F25.2°C 64.7°F18.2°C 65% 2.7 mph S4.3 kmh S 6.1 mph9.8 kmh 30.04 in1017.3 mb 0.00 in0.0 mm 0.00 in0.0 mm 0.00 in0.0 mm
11:11 AM 77.2°F25.1°C 64.5°F18.1°C 65% 3.0 mph S4.8 kmh S 6.1 mph9.8 kmh 30.04 in1017.3 mb 0.00 in0.0 mm 0.00 in0.0 mm 0.00 in0.0 mm
11:10 AM 76.6°F24.8°C 64.4°F18.0°C 66% 3.2 mph S5.1 kmh S 6.1 mph9.8 kmh 30.04 in1017.3 mb 0.00 in0.0 mm 0.00 in0.0 mm 0.00 in0.0 mm
11:09 AM 76.3°F24.6°C 63.6°F17.6°C 65% 3.3 mph S5.3 kmh S 6.1 mph9.8 kmh 30.04 in1017.3 mb 0.00 in0.0 mm 0.00 in0.0 mm 0.00 in0.0 mm
11:08 AM 77.0°F25.0°C 64.8°F18.2°C 66% 3.2 mph S5.1 kmh S 6.1 mph9.8 kmh 30.04 in1017.3 mb 0.00 in0.0 mm 0.00 in0.0 mm 0.00 in0.0 mm
11:07 AM 76.3°F24.6°C 64.1°F17.8°C 66% 2.9 mph S4.7 kmh S 6.1 mph9.8 kmh 30.04 in1017.3 mb 0.00 in0.0 mm 0.00 in0.0 mm 0.00 in0.0 mm
11:06 AM 76.1°F24.5°C 64.3°F17.9°C 67% 3.0 mph S4.8 kmh S 6.1 mph9.8 kmh 30.05 in1017.6 mb 0.00 in0.0 mm 0.00 in0.0 mm 0.00 in0.0 mm
11:05 AM 76.6°F24.8°C 65.7°F18.7°C 69% 2.7 mph S4.3 kmh S 6.1 mph9.8 kmh 30.04 in1017.3 mb 0.00 in0.0 mm 0.00 in0.0 mm 0.00 in0.0 mm
11:04 AM 75.9°F24.4°C 63.7°F17.6°C 66% 2.2 mph S3.5 kmh S 5.2 mph8.4 kmh 30.05 in1017.6 mb 0.00 in0.0 mm 0.00 in0.0 mm 0.00 in0.0 mm
11:03 AM 75.9°F24.4°C 63.3°F17.4°C 65% 2.1 mph S3.4 kmh S 5.2 mph8.4 kmh 30.04 in1017.3 mb 0.00 in0.0 mm 0.00 in0.0 mm 0.00 in0.0 mm
11:02 AM 76.3°F24.6°C 64.1°F17.8°C 66% 1.9 mph S3.1 kmh S 5.2 mph8.4 kmh 30.04 in1017.3 mb 0.00 in0.0 mm 0.00 in0.0 mm 0.00 in0.0 mm
11:01 AM 77.2°F25.1°C 64.9°F18.3°C 66% 1.5 mph S2.4 kmh S 5.2 mph8.4 kmh 30.05 in1017.6 mb 0.00 in0.0 mm 0.00 in0.0 mm 0.00 in0.0 mm
11:00 AM 77.2°F25.1°C 64.9°F18.3°C 66% 1.4 mph S2.3 kmh S 3.5 mph5.6 kmh 30.05 in1017.6 mb 0.00 in0.0 mm 0.00 in0.0 mm 0.00 in0.0 mm
10:59 AM 76.8°F24.9°C 65.5°F18.6°C 68% 1.4 mph S2.3 kmh S 3.5 mph5.6 kmh 30.04 in1017.3 mb 0.00 in0.0 mm 0.00 in0.0 mm 0.00 in0.0 mm
10:58 AM 76.8°F24.9°C 65.9°F18.8°C 69% 1.3 mph S2.1 kmh S 3.5 mph5.6 kmh 30.05 in1017.6 mb 0.00 in0.0 mm 0.00 in0.0 mm 0.00 in0.0 mm
10:57 AM 76.6°F24.8°C 65.7°F18.7°C 69% 1.2 mph S1.9 kmh S 3.5 mph5.6 kmh 30.05 in1017.6 mb 0.00 in0.0 mm 0.00 in0.0 mm 0.00 in0.0 mm
10:56 AM 76.5°F24.7°C 66.4°F19.1°C 71% 0.9 mph S1.4 kmh S 3.5 mph5.6 kmh 30.05 in1017.6 mb 0.00 in0.0 mm 0.00 in0.0 mm 0.00 in0.0 mm
10:55 AM 76.1°F24.5°C 66.0°F18.9°C 71% 0.9 mph S1.4 kmh S 3.5 mph5.6 kmh 30.05 in1017.6 mb 0.00 in0.0 mm 0.00 in0.0 mm 0.00 in0.0 mm
10:54 AM 75.7°F24.3°C 65.3°F18.5°C 70% 1.0 mph S1.6 kmh S 3.5 mph5.6 kmh 30.04 in1017.3 mb 0.00 in0.0 mm 0.00 in0.0 mm 0.00 in0.0 mm
10:53 AM 75.9°F24.4°C 64.6°F18.1°C 68% 1.3 mph S2.1 kmh S 3.5 mph5.6 kmh 30.04 in1017.3 mb 0.00 in0.0 mm 0.00 in0.0 mm 0.00 in0.0 mm
10:52 AM 75.9°F24.4°C 63.7°F17.6°C 66% 1.6 mph S2.6 kmh S 4.4 mph7.1 kmh 30.05 in1017.6 mb 0.00 in0.0 mm 0.00 in0.0 mm 0.00 in0.0 mm
10:51 AM 76.1°F24.5°C 64.3°F17.9°C 67% 1.7 mph S2.7 kmh S 4.4 mph7.1 kmh 30.05 in1017.6 mb 0.00 in0.0 mm 0.00 in0.0 mm 0.00 in0.0 mm
10:50 AM 76.5°F24.7°C 65.1°F18.4°C 68% 1.7 mph S2.7 kmh S 4.4 mph7.1 kmh 30.05 in1017.6 mb 0.00 in0.0 mm 0.00 in0.0 mm 0.00 in0.0 mm
10:49 AM 76.5°F24.7°C 65.9°F18.8°C 70% 1.5 mph S2.4 kmh S 4.4 mph7.1 kmh 30.05 in1017.6 mb 0.00 in0.0 mm 0.00 in0.0 mm 0.00 in0.0 mm
10:48 AM 76.1°F24.5°C 65.6°F18.7°C 70% 1.6 mph S2.6 kmh S 4.4 mph7.1 kmh 30.05 in1017.6 mb 0.00 in0.0 mm 0.00 in0.0 mm 0.00 in0.0 mm
10:47 AM 76.1°F24.5°C 65.2°F18.4°C 69% 1.5 mph S2.4 kmh S 4.4 mph7.1 kmh 30.05 in1017.6 mb 0.00 in0.0 mm 0.00 in0.0 mm 0.00 in0.0 mm
10:46 AM 75.4°F24.1°C 64.5°F18.1°C 69% 1.5 mph S2.4 kmh S 4.4 mph7.1 kmh 30.05 in1017.6 mb 0.00 in0.0 mm 0.00 in0.0 mm 0.00 in0.0 mm
10:45 AM 75.4°F24.1°C 64.1°F17.8°C 68% 1.8 mph S2.9 kmh S 4.4 mph7.1 kmh 30.05 in1017.6 mb 0.00 in0.0 mm 0.00 in0.0 mm 0.00 in0.0 mm
10:44 AM 74.8°F23.8°C 64.0°F17.8°C 69% 1.8 mph S2.9 kmh S 4.4 mph7.1 kmh 30.05 in1017.6 mb 0.00 in0.0 mm 0.00 in0.0 mm 0.00 in0.0 mm
10:43 AM 75.4°F24.1°C 64.5°F18.1°C 69% 1.6 mph SE2.6 kmh SE 4.4 mph7.1 kmh 30.05 in1017.6 mb 0.00 in0.0 mm 0.00 in0.0 mm 0.00 in0.0 mm
10:42 AM 75.4°F24.1°C 65.3°F18.5°C 71% 1.5 mph ESE2.4 kmh ESE 2.6 mph4.2 kmh 30.05 in1017.6 mb 0.00 in0.0 mm 0.00 in0.0 mm 0.00 in0.0 mm
10:41 AM 75.0°F23.9°C 65.4°F18.6°C 72% 1.5 mph E2.4 kmh E 2.6 mph4.2 kmh 30.05 in1017.6 mb 0.00 in0.0 mm 0.00 in0.0 mm 0.00 in0.0 mm
10:40 AM 74.8°F23.8°C 65.2°F18.4°C 72% 1.4 mph ENE2.3 kmh ENE 2.6 mph4.2 kmh 30.05 in1017.6 mb 0.00 in0.0 mm 0.00 in0.0 mm 0.00 in0.0 mm
10:39 AM 75.2°F24.0°C 64.3°F17.9°C 69% 1.4 mph E2.3 kmh E 2.6 mph4.2 kmh 30.05 in1017.6 mb 0.00 in0.0 mm 0.00 in0.0 mm 0.00 in0.0 mm
10:38 AM 75.0°F23.9°C 64.2°F17.9°C 69% 1.5 mph E2.4 kmh E 2.6 mph4.2 kmh 30.05 in1017.6 mb 0.00 in0.0 mm 0.00 in0.0 mm 0.00 in0.0 mm
10:37 AM 75.0°F23.9°C 64.2°F17.9°C 69% 1.7 mph E2.7 kmh E 2.6 mph4.2 kmh 30.05 in1017.6 mb 0.00 in0.0 mm 0.00 in0.0 mm 0.00 in0.0 mm
10:36 AM 74.7°F23.7°C 64.2°F17.9°C 70% 1.8 mph E2.9 kmh E 2.6 mph4.2 kmh 30.05 in1017.6 mb 0.00 in0.0 mm 0.00 in0.0 mm 0.00 in0.0 mm
10:35 AM 75.0°F23.9°C 64.2°F17.9°C 69% 1.6 mph E2.6 kmh E 2.6 mph4.2 kmh 30.05 in1017.6 mb 0.00 in0.0 mm 0.00 in0.0 mm 0.00 in0.0 mm
10:34 AM 74.7°F23.7°C 63.4°F17.4°C 68% 1.5 mph E2.4 kmh E 2.6 mph4.2 kmh 30.05 in1017.6 mb 0.00 in0.0 mm 0.00 in0.0 mm 0.00 in0.0 mm
10:33 AM 74.8°F23.8°C 63.6°F17.6°C 68% 1.6 mph ENE2.6 kmh ENE 2.6 mph4.2 kmh 30.05 in1017.6 mb 0.00 in0.0 mm 0.00 in0.0 mm 0.00 in0.0 mm
10:32 AM 75.4°F24.1°C 64.1°F17.8°C 68% 2.0 mph SE3.2 kmh SE 6.1 mph9.8 kmh 30.05 in1017.6 mb 0.00 in0.0 mm 0.00 in0.0 mm 0.00 in0.0 mm
10:31 AM 75.6°F24.2°C 64.3°F17.9°C 68% 2.2 mph S3.5 kmh S 6.1 mph9.8 kmh 30.05 in1017.6 mb 0.00 in0.0 mm 0.00 in0.0 mm 0.00 in0.0 mm
10:30 AM 75.0°F23.9°C 63.7°F17.6°C 68% 2.3 mph S3.7 kmh S 6.1 mph9.8 kmh 30.05 in1017.6 mb 0.00 in0.0 mm 0.00 in0.0 mm 0.00 in0.0 mm
10:29 AM 74.7°F23.7°C 64.2°F17.9°C 70% 2.4 mph S3.9 kmh S 6.1 mph9.8 kmh 30.06 in1017.9 mb 0.00 in0.0 mm 0.00 in0.0 mm 0.00 in0.0 mm
10:28 AM 75.4°F24.1°C 65.3°F18.5°C 71% 2.2 mph S3.5 kmh S 6.1 mph9.8 kmh 30.05 in1017.6 mb 0.00 in0.0 mm 0.00 in0.0 mm 0.00 in0.0 mm
10:27 AM 75.6°F24.2°C 65.1°F18.4°C 70% 2.1 mph S3.4 kmh S 6.1 mph9.8 kmh 30.05 in1017.6 mb 0.00 in0.0 mm 0.00 in0.0 mm 0.00 in0.0 mm
10:26 AM 75.0°F23.9°C 65.0°F18.3°C 71% 2.3 mph S3.7 kmh S 6.1 mph9.8 kmh 30.05 in1017.6 mb 0.00 in0.0 mm 0.00 in0.0 mm 0.00 in0.0 mm
10:25 AM 75.2°F24.0°C 64.7°F18.2°C 70% 2.4 mph S3.9 kmh S 6.1 mph9.8 kmh 30.06 in1017.9 mb 0.00 in0.0 mm 0.00 in0.0 mm 0.00 in0.0 mm
10:24 AM 74.5°F23.6°C 63.6°F17.6°C 69% 2.5 mph S4.0 kmh S 6.1 mph9.8 kmh 30.05 in1017.6 mb 0.00 in0.0 mm 0.00 in0.0 mm 0.00 in0.0 mm
10:23 AM 74.5°F23.6°C 64.1°F17.8°C 70% 2.3 mph S3.7 kmh S 6.1 mph9.8 kmh 30.05 in1017.6 mb 0.00 in0.0 mm 0.00 in0.0 mm 0.00 in0.0 mm
10:22 AM 74.1°F23.4°C 63.7°F17.6°C 70% 1.8 mph S2.9 kmh S 6.1 mph9.8 kmh 30.05 in1017.6 mb 0.00 in0.0 mm 0.00 in0.0 mm 0.00 in0.0 mm
10:21 AM 75.6°F24.2°C 65.9°F18.8°C 72% 1.3 mph S2.1 kmh S 6.1 mph9.8 kmh 30.05 in1017.6 mb 0.00 in0.0 mm 0.00 in0.0 mm 0.00 in0.0 mm
10:20 AM 74.3°F23.5°C 65.1°F18.4°C 73% 1.0 mph SSW1.6 kmh SSW 4.4 mph7.1 kmh 30.05 in1017.6 mb 0.00 in0.0 mm 0.00 in0.0 mm 0.00 in0.0 mm
10:19 AM 74.8°F23.8°C 65.6°F18.7°C 73% 1.1 mph S1.8 kmh S 4.4 mph7.1 kmh 30.05 in1017.6 mb 0.00 in0.0 mm 0.00 in0.0 mm 0.00 in0.0 mm
10:18 AM 74.8°F23.8°C 65.2°F18.4°C 72% 1.5 mph SSE2.4 kmh SSE 4.4 mph7.1 kmh 30.05 in1017.6 mb 0.00 in0.0 mm 0.00 in0.0 mm 0.00 in0.0 mm
10:17 AM 73.9°F23.3°C 64.7°F18.2°C 73% 1.8 mph SSE2.9 kmh SSE 4.4 mph7.1 kmh 30.06 in1017.9 mb 0.00 in0.0 mm 0.00 in0.0 mm 0.00 in0.0 mm
10:16 AM 73.9°F23.3°C 64.7°F18.2°C 73% 1.7 mph SE2.7 kmh SE 3.5 mph5.6 kmh 30.05 in1017.6 mb 0.00 in0.0 mm 0.00 in0.0 mm 0.00 in0.0 mm
10:15 AM 73.8°F23.2°C 64.6°F18.1°C 73% 2.0 mph SE3.2 kmh SE 3.5 mph5.6 kmh 30.05 in1017.6 mb 0.00 in0.0 mm 0.00 in0.0 mm 0.00 in0.0 mm
10:14 AM 73.8°F23.2°C 64.6°F18.1°C 73% 2.2 mph SE3.5 kmh SE 3.5 mph5.6 kmh 30.05 in1017.6 mb 0.00 in0.0 mm 0.00 in0.0 mm 0.00 in0.0 mm
10:13 AM 73.9°F23.3°C 64.7°F18.2°C 73% 2.5 mph SE4.0 kmh SE 3.5 mph5.6 kmh 30.05 in1017.6 mb 0.00 in0.0 mm 0.00 in0.0 mm 0.00 in0.0 mm
10:12 AM 73.4°F23.0°C 64.6°F18.1°C 74% 2.9 mph SE4.7 kmh SE 3.5 mph5.6 kmh 30.05 in1017.6 mb 0.00 in0.0 mm 0.00 in0.0 mm 0.00 in0.0 mm
10:11 AM 73.4°F23.0°C 64.6°F18.1°C 74% 3.2 mph SE5.1 kmh SE 3.5 mph5.6 kmh 30.05 in1017.6 mb 0.00 in0.0 mm 0.00 in0.0 mm 0.00 in0.0 mm
10:10 AM 73.4°F23.0°C 64.2°F17.9°C 73% 3.4 mph SE5.5 kmh SE 3.5 mph5.6 kmh 30.06 in1017.9 mb 0.00 in0.0 mm 0.00 in0.0 mm 0.00 in0.0 mm
10:09 AM 73.9°F23.3°C 65.1°F18.4°C 74% 3.5 mph SE5.6 kmh SE 3.5 mph5.6 kmh 30.05 in1017.6 mb 0.00 in0.0 mm 0.00 in0.0 mm 0.00 in0.0 mm
10:08 AM 73.9°F23.3°C 65.1°F18.4°C 74% 3.3 mph SE5.3 kmh SE 3.5 mph5.6 kmh 30.05 in1017.6 mb 0.00 in0.0 mm 0.00 in0.0 mm 0.00 in0.0 mm
10:07 AM 73.9°F23.3°C 65.1°F18.4°C 74% 3.0 mph SE4.8 kmh SE 3.5 mph5.6 kmh 30.06 in1017.9 mb 0.00 in0.0 mm 0.00 in0.0 mm 0.00 in0.0 mm
10:06 AM 73.9°F23.3°C 65.1°F18.4°C 74% 2.8 mph SE4.5 kmh SE 3.5 mph5.6 kmh 30.06 in1017.9 mb 0.00 in0.0 mm 0.00 in0.0 mm 0.00 in0.0 mm
10:05 AM 73.9°F23.3°C 65.1°F18.4°C 74% 2.8 mph SE4.5 kmh SE 3.5 mph5.6 kmh 30.05 in1017.6 mb 0.00 in0.0 mm 0.00 in0.0 mm 0.00 in0.0 mm
10:04 AM 73.9°F23.3°C 65.1°F18.4°C 74% 3.1 mph SSE5.0 kmh SSE 6.1 mph9.8 kmh 30.05 in1017.6 mb 0.00 in0.0 mm 0.00 in0.0 mm 0.00 in0.0 mm
10:03 AM 73.9°F23.3°C 65.1°F18.4°C 74% 3.0 mph SSE4.8 kmh SSE 6.1 mph9.8 kmh 30.05 in1017.6 mb 0.00 in0.0 mm 0.00 in0.0 mm 0.00 in0.0 mm
10:02 AM 73.9°F23.3°C 65.1°F18.4°C 74% 2.6 mph S4.2 kmh S 6.1 mph9.8 kmh 30.06 in1017.9 mb 0.00 in0.0 mm 0.00 in0.0 mm 0.00 in0.0 mm
10:01 AM 73.9°F23.3°C 65.1°F18.4°C 74% 2.4 mph S3.9 kmh S 6.1 mph9.8 kmh 30.06 in1017.9 mb 0.00 in0.0 mm 0.00 in0.0 mm 0.00 in0.0 mm
10:00 AM 73.2°F22.9°C 64.4°F18.0°C 74% 2.3 mph S3.7 kmh S 6.1 mph9.8 kmh 30.05 in1017.6 mb 0.00 in0.0 mm 0.00 in0.0 mm 0.00 in0.0 mm
09:59 AM 72.9°F22.7°C 64.5°F18.1°C 75% 2.1 mph S3.4 kmh S 6.1 mph9.8 kmh 30.06 in1017.9 mb 0.00 in0.0 mm 0.00 in0.0 mm 0.00 in0.0 mm
09:58 AM 72.7°F22.6°C 63.9°F17.7°C 74% 1.9 mph S3.1 kmh S 6.1 mph9.8 kmh 30.06 in1017.9 mb 0.00 in0.0 mm 0.00 in0.0 mm 0.00 in0.0 mm
09:57 AM 72.3°F22.4°C 62.8°F17.1°C 72% 1.9 mph S3.1 kmh S 6.1 mph9.8 kmh 30.05 in1017.6 mb 0.00 in0.0 mm 0.00 in0.0 mm 0.00 in0.0 mm
09:56 AM 72.1°F22.3°C 62.2°F16.8°C 71% 1.8 mph S2.9 kmh S 6.1 mph9.8 kmh 30.06 in1017.9 mb 0.00 in0.0 mm 0.00 in0.0 mm 0.00 in0.0 mm
09:55 AM 72.7°F22.6°C 63.1°F17.3°C 72% 1.6 mph S2.6 kmh S 6.1 mph9.8 kmh 30.06 in1017.9 mb 0.00 in0.0 mm 0.00 in0.0 mm 0.00 in0.0 mm
09:54 AM 73.4°F23.0°C 64.2°F17.9°C 73% 1.3 mph S2.1 kmh S 6.1 mph9.8 kmh 30.06 in1017.9 mb 0.00 in0.0 mm 0.00 in0.0 mm 0.00 in0.0 mm
09:53 AM 73.0°F22.8°C 63.9°F17.7°C 73% 1.1 mph S1.8 kmh S 2.6 mph4.2 kmh 30.06 in1017.9 mb 0.00 in0.0 mm 0.00 in0.0 mm 0.00 in0.0 mm
09:52 AM 72.1°F22.3°C 63.0°F17.2°C 73% 1.1 mph S1.8 kmh S 2.6 mph4.2 kmh 30.06 in1017.9 mb 0.00 in0.0 mm 0.00 in0.0 mm 0.00 in0.0 mm
09:51 AM 72.7°F22.6°C 63.5°F17.5°C 73% 1.0 mph S1.6 kmh S 2.6 mph4.2 kmh 30.06 in1017.9 mb 0.00 in0.0 mm 0.00 in0.0 mm 0.00 in0.0 mm
09:50 AM 72.9°F22.7°C 64.1°F17.8°C 74% 0.7 mph S1.1 kmh S 1.7 mph2.7 kmh 30.06 in1017.9 mb 0.00 in0.0 mm 0.00 in0.0 mm 0.00 in0.0 mm
09:49 AM 72.9°F22.7°C 64.5°F18.1°C 75% 0.6 mph S1.0 kmh S 1.7 mph2.7 kmh 30.06 in1017.9 mb 0.00 in0.0 mm 0.00 in0.0 mm 0.00 in0.0 mm
09:48 AM 72.1°F22.3°C 64.2°F17.9°C 76% 0.6 mph S1.0 kmh S 1.7 mph2.7 kmh 30.06 in1017.9 mb 0.00 in0.0 mm 0.00 in0.0 mm 0.00 in0.0 mm
09:47 AM 71.2°F21.8°C 63.3°F17.4°C 76% 0.6 mph S1.0 kmh S 1.7 mph2.7 kmh 30.06 in1017.9 mb 0.00 in0.0 mm 0.00 in0.0 mm 0.00 in0.0 mm
09:46 AM 71.1°F21.7°C 63.1°F17.3°C 76% 0.5 mph S0.8 kmh S 1.7 mph2.7 kmh 30.06 in1017.9 mb 0.00 in0.0 mm 0.00 in0.0 mm 0.00 in0.0 mm
09:45 AM 71.2°F21.8°C 63.3°F17.4°C 76% 0.3 mph S0.5 kmh S 1.7 mph2.7 kmh 30.07 in1018.3 mb 0.00 in0.0 mm 0.00 in0.0 mm 0.00 in0.0 mm
09:44 AM 71.6°F22.0°C 63.3°F17.4°C 75% 0.1 mph S0.2 kmh S 1.7 mph2.7 kmh 30.07 in1018.3 mb 0.00 in0.0 mm 0.00 in0.0 mm 0.00 in0.0 mm
09:43 AM 72.3°F22.4°C 63.9°F17.7°C 75% Calm Calm -- 30.06 in1017.9 mb 0.00 in0.0 mm 0.00 in0.0 mm 0.00 in0.0 mm
09:42 AM 72.0°F22.2°C 63.6°F17.6°C 75% Calm Calm -- 30.06 in1017.9 mb 0.00 in0.0 mm 0.00 in0.0 mm 0.00 in0.0 mm
09:41 AM 72.1°F22.3°C 64.2°F17.9°C 76% Calm Calm -- 30.07 in1018.3 mb 0.00 in0.0 mm 0.00 in0.0 mm 0.00 in0.0 mm
09:40 AM 70.5°F21.4°C 62.6°F17.0°C 76% Calm Calm -- 30.07 in1018.3 mb 0.00 in0.0 mm 0.00 in0.0 mm 0.00 in0.0 mm
09:39 AM 70.7°F21.5°C 62.4°F16.9°C 75% Calm Calm -- 30.07 in1018.3 mb 0.00 in0.0 mm 0.00 in0.0 mm 0.00 in0.0 mm
09:38 AM 71.1°F21.7°C 62.4°F16.9°C 74% Calm Calm -- 30.07 in1018.3 mb 0.00 in0.0 mm 0.00 in0.0 mm 0.00 in0.0 mm
09:37 AM 71.2°F21.8°C 62.1°F16.7°C 73% Calm Calm -- 30.07 in1018.3 mb 0.00 in0.0 mm 0.00 in0.0 mm 0.00 in0.0 mm
09:36 AM 72.7°F22.6°C 63.1°F17.3°C 72% Calm Calm -- 30.07 in1018.3 mb 0.00 in0.0 mm 0.00 in0.0 mm 0.00 in0.0 mm
09:35 AM 73.9°F23.3°C 64.7°F18.2°C 73% Calm Calm -- 30.07 in1018.3 mb 0.00 in0.0 mm 0.00 in0.0 mm 0.00 in0.0 mm
09:34 AM 73.9°F23.3°C 64.7°F18.2°C 73% Calm Calm -- 30.07 in1018.3 mb 0.00 in0.0 mm 0.00 in0.0 mm 0.00 in0.0 mm
09:33 AM 73.2°F22.9°C 63.6°F17.6°C 72% Calm Calm -- 30.08 in1018.6 mb 0.00 in0.0 mm 0.00 in0.0 mm 0.00 in0.0 mm
09:32 AM 72.9°F22.7°C 63.3°F17.4°C 72% Calm Calm -- 30.08 in1018.6 mb 0.00 in0.0 mm 0.00 in0.0 mm 0.00 in0.0 mm
09:31 AM 73.9°F23.3°C 64.7°F18.2°C 73% Calm Calm -- 30.07 in1018.3 mb 0.00 in0.0 mm 0.00 in0.0 mm 0.00 in0.0 mm
09:30 AM 73.4°F23.0°C 64.2°F17.9°C 73% Calm Calm -- 30.07 in1018.3 mb 0.00 in0.0 mm 0.00 in0.0 mm 0.00 in0.0 mm
09:29 AM 72.1°F22.3°C 62.6°F17.0°C 72% Calm Calm -- 30.08 in1018.6 mb 0.00 in0.0 mm 0.00 in0.0 mm 0.00 in0.0 mm
09:28 AM 73.2°F22.9°C 64.4°F18.0°C 74% Calm Calm -- 30.07 in1018.3 mb 0.00 in0.0 mm 0.00 in0.0 mm 0.00 in0.0 mm
09:27 AM 72.7°F22.6°C 63.9°F17.7°C 74% Calm Calm -- 30.07 in1018.3 mb 0.00 in0.0 mm 0.00 in0.0 mm 0.00 in0.0 mm
09:26 AM 72.3°F22.4°C 63.9°F17.7°C 75% Calm Calm -- 30.07 in1018.3 mb 0.00 in0.0 mm 0.00 in0.0 mm 0.00 in0.0 mm
09:25 AM 71.6°F22.0°C 63.3°F17.4°C 75% Calm Calm -- 30.08 in1018.6 mb 0.00 in0.0 mm 0.00 in0.0 mm 0.00 in0.0 mm
09:24 AM 70.5°F21.4°C 63.0°F17.2°C 77% Calm Calm -- 30.07 in1018.3 mb 0.00 in0.0 mm 0.00 in0.0 mm 0.00 in0.0 mm
09:23 AM 70.3°F21.3°C 62.8°F17.1°C 77% Calm Calm -- 30.07 in1018.3 mb 0.00 in0.0 mm 0.00 in0.0 mm 0.00 in0.0 mm
09:22 AM 70.2°F21.2°C 62.6°F17.0°C 77% Calm Calm -- 30.07 in1018.3 mb 0.00 in0.0 mm 0.00 in0.0 mm 0.00 in0.0 mm
09:21 AM 71.2°F21.8°C 64.4°F18.0°C 79% Calm Calm -- 30.07 in1018.3 mb 0.00 in0.0 mm 0.00 in0.0 mm 0.00 in0.0 mm
09:20 AM 72.0°F22.2°C 65.1°F18.4°C 79% Calm Calm -- 30.07 in1018.3 mb 0.00 in0.0 mm 0.00 in0.0 mm 0.00 in0.0 mm
09:19 AM 71.2°F21.8°C 64.8°F18.2°C 80% Calm Calm -- 30.07 in1018.3 mb 0.00 in0.0 mm 0.00 in0.0 mm 0.00 in0.0 mm
09:18 AM 70.7°F21.5°C 64.6°F18.1°C 81% Calm Calm -- 30.08 in1018.6 mb 0.00 in0.0 mm 0.00 in0.0 mm 0.00 in0.0 mm
09:17 AM 69.4°F20.8°C 63.7°F17.6°C 82% Calm Calm -- 30.08 in1018.6 mb 0.00 in0.0 mm 0.00 in0.0 mm 0.00 in0.0 mm
09:16 AM 69.3°F20.7°C 63.5°F17.5°C 82% Calm Calm -- 30.07 in1018.3 mb 0.00 in0.0 mm 0.00 in0.0 mm 0.00 in0.0 mm
09:15 AM 68.4°F20.2°C 62.6°F17.0°C 82% Calm Calm -- 30.07 in1018.3 mb 0.00 in0.0 mm 0.00 in0.0 mm 0.00 in0.0 mm
09:14 AM 69.3°F20.7°C 63.5°F17.5°C 82% Calm Calm -- 30.08 in1018.6 mb 0.00 in0.0 mm 0.00 in0.0 mm 0.00 in0.0 mm
09:13 AM 68.5°F20.3°C 62.8°F17.1°C 82% Calm Calm -- 30.07 in1018.3 mb 0.00 in0.0 mm 0.00 in0.0 mm 0.00 in0.0 mm
09:12 AM 68.0°F20.0°C 62.6°F17.0°C 83% Calm Calm -- 30.08 in1018.6 mb 0.00 in0.0 mm 0.00 in0.0 mm 0.00 in0.0 mm
09:11 AM 68.2°F20.1°C 62.8°F17.1°C 83% Calm Calm -- 30.07 in1018.3 mb 0.00 in0.0 mm 0.00 in0.0 mm 0.00 in0.0 mm
09:10 AM 68.5°F20.3°C 63.2°F17.3°C 83% Calm Calm -- 30.08 in1018.6 mb 0.00 in0.0 mm 0.00 in0.0 mm 0.00 in0.0 mm
09:09 AM 68.7°F20.4°C 63.3°F17.4°C 83% Calm Calm -- 30.08 in1018.6 mb 0.00 in0.0 mm 0.00 in0.0 mm 0.00 in0.0 mm
09:08 AM 66.7°F19.3°C 61.7°F16.5°C 84% Calm Calm -- 30.08 in1018.6 mb 0.00 in0.0 mm 0.00 in0.0 mm 0.00 in0.0 mm
09:07 AM 66.7°F19.3°C 62.1°F16.7°C 85% Calm Calm -- 30.08 in1018.6 mb 0.00 in0.0 mm 0.00 in0.0 mm 0.00 in0.0 mm
09:06 AM 67.1°F19.5°C 62.4°F16.9°C 85% Calm Calm -- 30.08 in1018.6 mb 0.00 in0.0 mm 0.00 in0.0 mm 0.00 in0.0 mm
09:05 AM 67.3°F19.6°C 62.6°F17.0°C 85% Calm Calm -- 30.08 in1018.6 mb 0.00 in0.0 mm 0.00 in0.0 mm 0.00 in0.0 mm
09:04 AM 66.9°F19.4°C 62.6°F17.0°C 86% Calm Calm -- 30.08 in1018.6 mb 0.00 in0.0 mm 0.00 in0.0 mm 0.00 in0.0 mm
09:03 AM 66.9°F19.4°C 62.6°F17.0°C 86% Calm Calm -- 30.08 in1018.6 mb 0.00 in0.0 mm 0.00 in0.0 mm 0.00 in0.0 mm
09:02 AM 67.1°F19.5°C 63.1°F17.3°C 87% Calm Calm -- 30.08 in1018.6 mb 0.00 in0.0 mm 0.00 in0.0 mm 0.00 in0.0 mm
09:01 AM 67.1°F19.5°C 63.4°F17.4°C 88% Calm Calm -- 30.08 in1018.6 mb 0.00 in0.0 mm 0.00 in0.0 mm 0.00 in0.0 mm
09:00 AM 66.2°F19.0°C 62.9°F17.2°C 89% Calm Calm -- 30.09 in1019.0 mb 0.00 in0.0 mm 0.00 in0.0 mm 0.00 in0.0 mm
08:59 AM 66.2°F19.0°C 63.2°F17.3°C 90% Calm Calm -- 30.08 in1018.6 mb 0.00 in0.0 mm 0.00 in0.0 mm 0.00 in0.0 mm
08:58 AM 67.3°F19.6°C 64.6°F18.1°C 91% Calm Calm -- 30.08 in1018.6 mb 0.00 in0.0 mm 0.00 in0.0 mm 0.00 in0.0 mm
08:57 AM 66.9°F19.4°C 64.2°F17.9°C 91% Calm Calm -- 30.08 in1018.6 mb 0.00 in0.0 mm 0.00 in0.0 mm 0.00 in0.0 mm
08:56 AM 66.2°F19.0°C 63.8°F17.7°C 92% Calm Calm -- 30.08 in1018.6 mb 0.00 in0.0 mm 0.00 in0.0 mm 0.00 in0.0 mm
08:55 AM 66.9°F19.4°C 64.8°F18.2°C 93% Calm Calm -- 30.08 in1018.6 mb 0.00 in0.0 mm 0.00 in0.0 mm 0.00 in0.0 mm
08:54 AM 66.2°F19.0°C 64.1°F17.8°C 93% Calm Calm -- 30.09 in1019.0 mb 0.00 in0.0 mm 0.00 in0.0 mm 0.00 in0.0 mm
08:53 AM 65.5°F18.6°C 63.7°F17.6°C 94% 0.1 mph S0.2 kmh S 0.9 mph1.4 kmh 30.09 in1019.0 mb 0.00 in0.0 mm 0.00 in0.0 mm 0.00 in0.0 mm
08:52 AM 65.1°F18.4°C 63.3°F17.4°C 94% 0.3 mph SW0.5 kmh SW 2.6 mph4.2 kmh 30.09 in1019.0 mb 0.00 in0.0 mm 0.00 in0.0 mm 0.00 in0.0 mm
08:51 AM 64.0°F17.8°C 62.6°F17.0°C 95% 0.6 mph SW1.0 kmh SW 2.6 mph4.2 kmh 30.09 in1019.0 mb 0.00 in0.0 mm 0.00 in0.0 mm 0.00 in0.0 mm
08:50 AM 64.0°F17.8°C 62.6°F17.0°C 95% 0.6 mph SW1.0 kmh SW 2.6 mph4.2 kmh 30.08 in1018.6 mb 0.00 in0.0 mm 0.00 in0.0 mm 0.00 in0.0 mm
08:49 AM 63.7°F17.6°C 62.2°F16.8°C 95% 0.8 mph SW1.3 kmh SW 2.6 mph4.2 kmh 30.09 in1019.0 mb 0.00 in0.0 mm 0.00 in0.0 mm 0.00 in0.0 mm
08:48 AM 63.9°F17.7°C 62.7°F17.1°C 96% 0.9 mph SW1.4 kmh SW 2.6 mph4.2 kmh 30.08 in1018.6 mb 0.00 in0.0 mm 0.00 in0.0 mm 0.00 in0.0 mm
08:47 AM 63.5°F17.5°C 62.3°F16.8°C 96% 0.9 mph SW1.4 kmh SW 2.6 mph4.2 kmh 30.08 in1018.6 mb 0.00 in0.0 mm 0.00 in0.0 mm 0.00 in0.0 mm
08:46 AM 63.3°F17.4°C 62.2°F16.8°C 96% 0.9 mph SW1.4 kmh SW 2.6 mph4.2 kmh 30.09 in1019.0 mb 0.00 in0.0 mm 0.00 in0.0 mm 0.00 in0.0 mm
08:45 AM 63.0°F17.2°C 62.1°F16.7°C 97% 0.9 mph SW1.4 kmh SW 2.6 mph4.2 kmh 30.08 in1018.6 mb 0.00 in0.0 mm 0.00 in0.0 mm 0.00 in0.0 mm
08:44 AM 62.8°F17.1°C 61.9°F16.6°C 97% 0.9 mph SW1.4 kmh SW 2.6 mph4.2 kmh 30.08 in1018.6 mb 0.00 in0.0 mm 0.00 in0.0 mm 0.00 in0.0 mm
08:43 AM 62.2°F16.8°C 61.7°F16.5°C 98% 0.8 mph SW1.3 kmh SW 2.6 mph4.2 kmh 30.08 in1018.6 mb 0.00 in0.0 mm 0.00 in0.0 mm 0.00 in0.0 mm
08:42 AM 62.1°F16.7°C 61.5°F16.4°C 98% 0.6 mph SW1.0 kmh SW 2.6 mph4.2 kmh 30.08 in1018.6 mb 0.00 in0.0 mm 0.00 in0.0 mm 0.00 in0.0 mm
08:41 AM 61.9°F16.6°C 61.3°F16.3°C 98% 0.3 mph S0.5 kmh S 1.7 mph2.7 kmh 30.08 in1018.6 mb 0.00 in0.0 mm 0.00 in0.0 mm 0.00 in0.0 mm
08:40 AM 61.7°F16.5°C 61.1°F16.2°C 98% 0.3 mph S0.5 kmh S 1.7 mph2.7 kmh 30.08 in1018.6 mb 0.00 in0.0 mm 0.00 in0.0 mm 0.00 in0.0 mm
08:39 AM 62.1°F16.7°C 61.5°F16.4°C 98% 0.1 mph S0.2 kmh S 1.7 mph2.7 kmh 30.08 in1018.6 mb 0.00 in0.0 mm 0.00 in0.0 mm 0.00 in0.0 mm
08:38 AM 62.1°F16.7°C 61.5°F16.4°C 98% Calm Calm -- 30.08 in1018.6 mb 0.00 in0.0 mm 0.00 in0.0 mm 0.00 in0.0 mm
08:37 AM 61.9°F16.6°C 61.3°F16.3°C 98% Calm Calm -- 30.08 in1018.6 mb 0.00 in0.0 mm 0.00 in0.0 mm 0.00 in0.0 mm
08:36 AM 61.7°F16.5°C 61.1°F16.2°C 98% Calm Calm -- 30.09 in1019.0 mb 0.00 in0.0 mm 0.00 in0.0 mm 0.00 in0.0 mm
08:35 AM 61.7°F16.5°C 61.1°F16.2°C 98% Calm Calm -- 30.09 in1019.0 mb 0.00 in0.0 mm 0.00 in0.0 mm 0.00 in0.0 mm
08:34 AM 61.5°F16.4°C 61.0°F16.1°C 98% Calm Calm -- 30.08 in1018.6 mb 0.00 in0.0 mm 0.00 in0.0 mm 0.00 in0.0 mm
08:33 AM 61.3°F16.3°C 60.8°F16.0°C 98% Calm Calm -- 30.09 in1019.0 mb 0.00 in0.0 mm 0.00 in0.0 mm 0.00 in0.0 mm
08:32 AM 61.2°F16.2°C 60.6°F15.9°C 98% Calm Calm -- 30.08 in1018.6 mb 0.00 in0.0 mm 0.00 in0.0 mm 0.00 in0.0 mm
08:31 AM 61.2°F16.2°C 60.6°F15.9°C 98% Calm Calm -- 30.08 in1018.6 mb 0.00 in0.0 mm 0.00 in0.0 mm 0.00 in0.0 mm
08:30 AM 61.2°F16.2°C 60.6°F15.9°C 98% Calm Calm -- 30.09 in1019.0 mb 0.00 in0.0 mm 0.00 in0.0 mm 0.00 in0.0 mm
08:29 AM 61.0°F16.1°C 60.4°F15.8°C 98% Calm Calm -- 30.09 in1019.0 mb 0.00 in0.0 mm 0.00 in0.0 mm 0.00 in0.0 mm
08:28 AM 60.8°F16.0°C 60.2°F15.7°C 98% Calm Calm -- 30.08 in1018.6 mb 0.00 in0.0 mm 0.00 in0.0 mm 0.00 in0.0 mm
08:27 AM 60.8°F16.0°C 60.2°F15.7°C 98% Calm Calm -- 30.08 in1018.6 mb 0.00 in0.0 mm 0.00 in0.0 mm 0.00 in0.0 mm
08:26 AM 61.0°F16.1°C 60.4°F15.8°C 98% Calm Calm -- 30.08 in1018.6 mb 0.00 in0.0 mm 0.00 in0.0 mm 0.00 in0.0 mm
08:25 AM 61.0°F16.1°C 60.4°F15.8°C 98% Calm Calm -- 30.08 in1018.6 mb 0.00 in0.0 mm 0.00 in0.0 mm 0.00 in0.0 mm
08:24 AM 61.0°F16.1°C 60.4°F15.8°C 98% Calm Calm -- 30.08 in1018.6 mb 0.00 in0.0 mm 0.00 in0.0 mm 0.00 in0.0 mm
08:23 AM 60.6°F15.9°C 60.3°F15.7°C 99% Calm Calm -- 30.09 in1019.0 mb 0.00 in0.0 mm 0.00 in0.0 mm 0.00 in0.0 mm
08:22 AM 60.1°F15.6°C 59.8°F15.4°C 99% Calm Calm -- 30.09 in1019.0 mb 0.00 in0.0 mm 0.00 in0.0 mm 0.00 in0.0 mm
08:21 AM 59.7°F15.4°C 59.4°F15.2°C 99% Calm Calm -- 30.09 in1019.0 mb 0.00 in0.0 mm 0.00 in0.0 mm 0.00 in0.0 mm
08:20 AM 59.7°F15.4°C 59.4°F15.2°C 99% Calm Calm -- 30.09 in1019.0 mb 0.00 in0.0 mm 0.00 in0.0 mm 0.00 in0.0 mm
08:19 AM 59.5°F15.3°C 59.3°F15.2°C 99% 0.1 mph S0.2 kmh S 1.7 mph2.7 kmh 30.09 in1019.0 mb 0.00 in0.0 mm 0.00 in0.0 mm 0.00 in0.0 mm
08:18 AM 59.4°F15.2°C 59.1°F15.1°C 99% 0.3 mph S0.5 kmh S 1.7 mph2.7 kmh 30.09 in1019.0 mb 0.00 in0.0 mm 0.00 in0.0 mm 0.00 in0.0 mm
08:17 AM 59.2°F15.1°C 58.9°F14.9°C 99% 0.3 mph S0.5 kmh S 1.7 mph2.7 kmh 30.09 in1019.0 mb 0.00 in0.0 mm 0.00 in0.0 mm 0.00 in0.0 mm
08:16 AM 58.8°F14.9°C 58.5°F14.7°C 99% 0.3 mph S0.5 kmh S 1.7 mph2.7 kmh 30.09 in1019.0 mb 0.00 in0.0 mm 0.00 in0.0 mm 0.00 in0.0 mm
08:15 AM 58.8°F14.9°C 58.5°F14.7°C 99% 0.4 mph SSE0.6 kmh SSE 1.7 mph2.7 kmh 30.08 in1018.6 mb 0.00 in0.0 mm 0.00 in0.0 mm 0.00 in0.0 mm
08:14 AM 58.6°F14.8°C 58.4°F14.7°C 99% 0.6 mph SE1.0 kmh SE 1.7 mph2.7 kmh 30.09 in1019.0 mb 0.00 in0.0 mm 0.00 in0.0 mm 0.00 in0.0 mm
08:13 AM 58.5°F14.7°C 58.2°F14.6°C 99% 0.7 mph SE1.1 kmh SE 1.7 mph2.7 kmh 30.09 in1019.0 mb 0.00 in0.0 mm 0.00 in0.0 mm 0.00 in0.0 mm
08:12 AM 58.5°F14.7°C 58.2°F14.6°C 99% 1.0 mph ESE1.6 kmh ESE 1.7 mph2.7 kmh 30.09 in1019.0 mb 0.00 in0.0 mm 0.00 in0.0 mm 0.00 in0.0 mm
08:11 AM 58.3°F14.6°C 58.0°F14.4°C 99% 1.1 mph ESE1.8 kmh ESE 1.7 mph2.7 kmh 30.09 in1019.0 mb 0.00 in0.0 mm 0.00 in0.0 mm 0.00 in0.0 mm
08:10 AM 58.1°F14.5°C 57.8°F14.3°C 99% 1.3 mph ESE2.1 kmh ESE 1.7 mph2.7 kmh 30.09 in1019.0 mb 0.00 in0.0 mm 0.00 in0.0 mm 0.00 in0.0 mm
08:09 AM 57.9°F14.4°C 57.6°F14.2°C 99% 1.3 mph E2.1 kmh E 1.7 mph2.7 kmh 30.09 in1019.0 mb 0.00 in0.0 mm 0.00 in0.0 mm 0.00 in0.0 mm
08:08 AM 57.9°F14.4°C 57.6°F14.2°C 99% 1.1 mph E1.8 kmh E 1.7 mph2.7 kmh 30.08 in1018.6 mb 0.00 in0.0 mm 0.00 in0.0 mm 0.00 in0.0 mm
08:07 AM 57.7°F14.3°C 57.5°F14.2°C 99% 1.1 mph E1.8 kmh E 1.7 mph2.7 kmh 30.09 in1019.0 mb 0.00 in0.0 mm 0.00 in0.0 mm 0.00 in0.0 mm
08:06 AM 57.4°F14.1°C 57.1°F13.9°C 99% 1.0 mph E1.6 kmh E 1.7 mph2.7 kmh 30.09 in1019.0 mb 0.00 in0.0 mm 0.00 in0.0 mm 0.00 in0.0 mm
08:05 AM 57.4°F14.1°C 57.1°F13.9°C 99% 1.0 mph E1.6 kmh E 1.7 mph2.7 kmh 30.09 in1019.0 mb 0.00 in0.0 mm 0.00 in0.0 mm 0.00 in0.0 mm
08:04 AM 57.4°F14.1°C 57.1°F13.9°C 99% 0.8 mph E1.3 kmh E 1.7 mph2.7 kmh 30.09 in1019.0 mb 0.00 in0.0 mm 0.00 in0.0 mm 0.00 in0.0 mm
08:03 AM 57.4°F14.1°C 57.1°F13.9°C 99% 0.6 mph E1.0 kmh E 1.7 mph2.7 kmh 30.09 in1019.0 mb 0.00 in0.0 mm 0.00 in0.0 mm 0.00 in0.0 mm
08:02 AM 57.4°F14.1°C 57.1°F13.9°C 99% 0.5 mph E0.8 kmh E 1.7 mph2.7 kmh 30.09 in1019.0 mb 0.00 in0.0 mm 0.00 in0.0 mm 0.00 in0.0 mm
08:01 AM 57.4°F14.1°C 57.1°F13.9°C 99% 0.4 mph E0.6 kmh E 1.7 mph2.7 kmh 30.09 in1019.0 mb 0.00 in0.0 mm 0.00 in0.0 mm 0.00 in0.0 mm
08:00 AM 57.4°F14.1°C 57.1°F13.9°C 99% 0.4 mph ESE0.6 kmh ESE 1.7 mph2.7 kmh 30.09 in1019.0 mb 0.00 in0.0 mm 0.00 in0.0 mm 0.00 in0.0 mm
07:59 AM 57.4°F14.1°C 57.1°F13.9°C 99% 0.3 mph ESE0.5 kmh ESE 1.7 mph2.7 kmh 30.09 in1019.0 mb 0.00 in0.0 mm 0.00 in0.0 mm 0.00 in0.0 mm
07:58 AM 57.2°F14.0°C 56.9°F13.8°C 99% 0.3 mph ESE0.5 kmh ESE 1.7 mph2.7 kmh 30.09 in1019.0 mb 0.00 in0.0 mm 0.00 in0.0 mm 0.00 in0.0 mm
07:57 AM 57.2°F14.0°C 56.9°F13.8°C 99% 0.3 mph SE0.5 kmh SE 1.7 mph2.7 kmh 30.09 in1019.0 mb 0.00 in0.0 mm 0.00 in0.0 mm 0.00 in0.0 mm
07:56 AM 57.2°F14.0°C 56.9°F13.8°C 99% 0.5 mph SE0.8 kmh SE 1.7 mph2.7 kmh 30.09 in1019.0 mb 0.00 in0.0 mm 0.00 in0.0 mm 0.00 in0.0 mm
07:55 AM 57.0°F13.9°C 56.7°F13.7°C 99% 0.6 mph SSE1.0 kmh SSE 1.7 mph2.7 kmh 30.09 in1019.0 mb 0.00 in0.0 mm 0.00 in0.0 mm 0.00 in0.0 mm
07:54 AM 56.8°F13.8°C 56.6°F13.7°C 99% 0.8 mph SSE1.3 kmh SSE 1.7 mph2.7 kmh 30.09 in1019.0 mb 0.00 in0.0 mm 0.00 in0.0 mm 0.00 in0.0 mm
07:53 AM 56.8°F13.8°C 56.6°F13.7°C 99% 0.9 mph SSE1.4 kmh SSE 1.7 mph2.7 kmh 30.09 in1019.0 mb 0.00 in0.0 mm 0.00 in0.0 mm 0.00 in0.0 mm
07:52 AM 56.7°F13.7°C 56.4°F13.6°C 99% 1.0 mph SSE1.6 kmh SSE 1.7 mph2.7 kmh 30.10 in1019.3 mb 0.00 in0.0 mm 0.00 in0.0 mm 0.00 in0.0 mm
07:51 AM 56.7°F13.7°C 56.4°F13.6°C 99% 0.8 mph S1.3 kmh S 1.7 mph2.7 kmh 30.09 in1019.0 mb 0.00 in0.0 mm 0.00 in0.0 mm 0.00 in0.0 mm
07:50 AM 56.7°F13.7°C 56.4°F13.6°C 99% 0.7 mph S1.1 kmh S 1.7 mph2.7 kmh 30.09 in1019.0 mb 0.00 in0.0 mm 0.00 in0.0 mm 0.00 in0.0 mm
07:49 AM 56.7°F13.7°C 56.4°F13.6°C 99% 0.7 mph S1.1 kmh S 1.7 mph2.7 kmh 30.08 in1018.6 mb 0.00 in0.0 mm 0.00 in0.0 mm 0.00 in0.0 mm
07:48 AM 56.7°F13.7°C 56.4°F13.6°C 99% 0.7 mph S1.1 kmh S 1.7 mph2.7 kmh 30.09 in1019.0 mb 0.00 in0.0 mm 0.00 in0.0 mm 0.00 in0.0 mm
07:47 AM 56.3°F13.5°C 56.0°F13.3°C 99% 0.6 mph S1.0 kmh S 1.7 mph2.7 kmh 30.09 in1019.0 mb 0.00 in0.0 mm 0.00 in0.0 mm 0.00 in0.0 mm
07:46 AM 56.3°F13.5°C 56.0°F13.3°C 99% 0.5 mph S0.8 kmh S 1.7 mph2.7 kmh 30.09 in1019.0 mb 0.00 in0.0 mm 0.00 in0.0 mm 0.00 in0.0 mm
07:45 AM 56.3°F13.5°C 56.0°F13.3°C 99% 0.3 mph S0.5 kmh S 1.7 mph2.7 kmh 30.09 in1019.0 mb 0.00 in0.0 mm 0.00 in0.0 mm 0.00 in0.0 mm
07:44 AM 56.1°F13.4°C 55.8°F13.2°C 99% 0.2 mph S0.3 kmh S 1.7 mph2.7 kmh 30.09 in1019.0 mb 0.00 in0.0 mm 0.00 in0.0 mm 0.00 in0.0 mm
07:43 AM 56.3°F13.5°C 56.0°F13.3°C 99% Calm Calm -- 30.09 in1019.0 mb 0.00 in0.0 mm 0.00 in0.0 mm 0.00 in0.0 mm
07:42 AM 56.1°F13.4°C 55.8°F13.2°C 99% Calm Calm -- 30.09 in1019.0 mb 0.00 in0.0 mm 0.00 in0.0 mm 0.00 in0.0 mm
07:41 AM 56.1°F13.4°C 55.8°F13.2°C 99% Calm Calm -- 30.09 in1019.0 mb 0.00 in0.0 mm 0.00 in0.0 mm 0.00 in0.0 mm
07:40 AM 55.9°F13.3°C 55.7°F13.2°C 99% Calm Calm -- 30.09 in1019.0 mb 0.00 in0.0 mm 0.00 in0.0 mm 0.00 in0.0 mm
07:39 AM 55.9°F13.3°C 55.7°F13.2°C 99% Calm Calm -- 30.09 in1019.0 mb 0.00 in0.0 mm 0.00 in0.0 mm 0.00 in0.0 mm
07:38 AM 55.9°F13.3°C 55.7°F13.2°C 99% Calm Calm -- 30.09 in1019.0 mb 0.00 in0.0 mm 0.00 in0.0 mm 0.00 in0.0 mm
07:37 AM 55.9°F13.3°C 55.7°F13.2°C 99% Calm Calm -- 30.09 in1019.0 mb 0.00 in0.0 mm 0.00 in0.0 mm 0.00 in0.0 mm
07:36 AM 55.9°F13.3°C 55.7°F13.2°C 99% Calm Calm -- 30.09 in1019.0 mb 0.00 in0.0 mm 0.00 in0.0 mm 0.00 in0.0 mm
07:35 AM 55.8°F13.2°C 55.5°F13.1°C 99% Calm Calm -- 30.09 in1019.0 mb 0.00 in0.0 mm 0.00 in0.0 mm 0.00 in0.0 mm
07:34 AM 55.8°F13.2°C 55.5°F13.1°C 99% Calm Calm -- 30.08 in1018.6 mb 0.00 in0.0 mm 0.00 in0.0 mm 0.00 in0.0 mm
07:33 AM 55.8°F13.2°C 55.5°F13.1°C 99% Calm Calm -- 30.09 in1019.0 mb 0.00 in0.0 mm 0.00 in0.0 mm 0.00 in0.0 mm
07:32 AM 55.6°F13.1°C 55.3°F12.9°C 99% Calm Calm -- 30.08 in1018.6 mb 0.00 in0.0 mm 0.00 in0.0 mm 0.00 in0.0 mm
07:31 AM 55.6°F13.1°C 55.3°F12.9°C 99% Calm Calm -- 30.09 in1019.0 mb 0.00 in0.0 mm 0.00 in0.0 mm 0.00 in0.0 mm
07:30 AM 55.6°F13.1°C 55.3°F12.9°C 99% Calm Calm -- 30.09 in1019.0 mb 0.00 in0.0 mm 0.00 in0.0 mm 0.00 in0.0 mm
07:29 AM 55.6°F13.1°C 55.3°F12.9°C 99% Calm Calm -- 30.09 in1019.0 mb 0.00 in0.0 mm 0.00 in0.0 mm 0.00 in0.0 mm
07:28 AM 55.4°F13.0°C 55.1°F12.8°C 99% Calm Calm -- 30.09 in1019.0 mb 0.00 in0.0 mm 0.00 in0.0 mm 0.00 in0.0 mm
07:27 AM 55.2°F12.9°C 54.4°F12.4°C 97% Calm Calm -- 30.08 in1018.6 mb 0.00 in0.0 mm 0.00 in0.0 mm 0.00 in0.0 mm
07:26 AM 55.2°F12.9°C 54.4°F12.4°C 97% Calm Calm -- 30.09 in1019.0 mb 0.00 in0.0 mm 0.00 in0.0 mm 0.00 in0.0 mm
07:25 AM 55.2°F12.9°C 54.4°F12.4°C 97% Calm Calm -- 30.08 in1018.6 mb 0.00 in0.0 mm 0.00 in0.0 mm 0.00 in0.0 mm
07:24 AM 54.9°F12.7°C 54.0°F12.2°C 97% Calm Calm -- 30.08 in1018.6 mb 0.00 in0.0 mm 0.00 in0.0 mm 0.00 in0.0 mm
07:23 AM 54.9°F12.7°C 54.0°F12.2°C 97% Calm Calm -- 30.08 in1018.6 mb 0.00 in0.0 mm 0.00 in0.0 mm 0.00 in0.0 mm
07:22 AM 54.9°F12.7°C 54.0°F12.2°C 97% Calm Calm -- 30.09 in1019.0 mb 0.00 in0.0 mm 0.00 in0.0 mm 0.00 in0.0 mm
07:21 AM 54.9°F12.7°C 54.0°F12.2°C 97% Calm Calm -- 30.08 in1018.6 mb 0.00 in0.0 mm 0.00 in0.0 mm 0.00 in0.0 mm
07:20 AM 54.9°F12.7°C 54.0°F12.2°C 97% Calm Calm -- 30.08 in1018.6 mb 0.00 in0.0 mm 0.00 in0.0 mm 0.00 in0.0 mm
07:19 AM 54.9°F12.7°C 54.0°F12.2°C 97% Calm Calm -- 30.08 in1018.6 mb 0.00 in0.0 mm 0.00 in0.0 mm 0.00 in0.0 mm
07:18 AM 54.9°F12.7°C 54.0°F12.2°C 97% Calm Calm -- 30.08 in1018.6 mb 0.00 in0.0 mm 0.00 in0.0 mm 0.00 in0.0 mm
07:17 AM 54.9°F12.7°C 54.0°F12.2°C 97% Calm Calm -- 30.08 in1018.6 mb 0.00 in0.0 mm 0.00 in0.0 mm 0.00 in0.0 mm
07:16 AM 54.9°F12.7°C 54.0°F12.2°C 97% Calm Calm -- 30.08 in1018.6 mb 0.00 in0.0 mm 0.00 in0.0 mm 0.00 in0.0 mm
07:15 AM 54.9°F12.7°C 54.0°F12.2°C 97% Calm Calm -- 30.08 in1018.6 mb 0.00 in0.0 mm 0.00 in0.0 mm 0.00 in0.0 mm
07:14 AM 54.9°F12.7°C 54.0°F12.2°C 97% Calm Calm -- 30.08 in1018.6 mb 0.00 in0.0 mm 0.00 in0.0 mm 0.00 in0.0 mm
07:13 AM 54.9°F12.7°C 54.0°F12.2°C 97% Calm Calm -- 30.08 in1018.6 mb 0.00 in0.0 mm 0.00 in0.0 mm 0.00 in0.0 mm
07:12 AM 54.9°F12.7°C 54.0°F12.2°C 97% Calm Calm -- 30.08 in1018.6 mb 0.00 in0.0 mm 0.00 in0.0 mm 0.00 in0.0 mm
07:11 AM 54.9°F12.7°C 54.0°F12.2°C 97% Calm Calm -- 30.08 in1018.6 mb 0.00 in0.0 mm 0.00 in0.0 mm 0.00 in0.0 mm
07:10 AM 54.9°F12.7°C 54.0°F12.2°C 97% Calm Calm -- 30.08 in1018.6 mb 0.00 in0.0 mm 0.00 in0.0 mm 0.00 in0.0 mm
07:09 AM 54.9°F12.7°C 54.0°F12.2°C 97% Calm Calm -- 30.09 in1019.0 mb 0.00 in0.0 mm 0.00 in0.0 mm 0.00 in0.0 mm
07:08 AM 54.9°F12.7°C 54.0°F12.2°C 97% Calm Calm -- 30.09 in1019.0 mb 0.00 in0.0 mm 0.00 in0.0 mm 0.00 in0.0 mm
07:07 AM 54.9°F12.7°C 54.0°F12.2°C 97% Calm Calm -- 30.08 in1018.6 mb 0.00 in0.0 mm 0.00 in0.0 mm 0.00 in0.0 mm
07:06 AM 54.9°F12.7°C 54.0°F12.2°C 97% Calm Calm -- 30.08 in1018.6 mb 0.00 in0.0 mm 0.00 in0.0 mm 0.00 in0.0 mm
07:05 AM 54.9°F12.7°C 54.0°F12.2°C 97% Calm Calm -- 30.09 in1019.0 mb 0.00 in0.0 mm 0.00 in0.0 mm 0.00 in0.0 mm
07:04 AM 54.9°F12.7°C 54.0°F12.2°C 97% Calm Calm -- 30.08 in1018.6 mb 0.00 in0.0 mm 0.00 in0.0 mm 0.00 in0.0 mm
07:03 AM 54.9°F12.7°C 54.0°F12.2°C 97% Calm Calm -- 30.08 in1018.6 mb 0.00 in0.0 mm 0.00 in0.0 mm 0.00 in0.0 mm
07:02 AM 54.9°F12.7°C 54.0°F12.2°C 97% Calm Calm -- 30.08 in1018.6 mb 0.00 in0.0 mm 0.00 in0.0 mm 0.00 in0.0 mm
07:01 AM 54.9°F12.7°C 54.0°F12.2°C 97% Calm Calm -- 30.08 in1018.6 mb 0.00 in0.0 mm 0.00 in0.0 mm 0.00 in0.0 mm
07:00 AM 54.9°F12.7°C 54.0°F12.2°C 97% Calm Calm -- 30.08 in1018.6 mb 0.00 in0.0 mm 0.00 in0.0 mm 0.00 in0.0 mm
06:59 AM 54.9°F12.7°C 54.0°F12.2°C 97% Calm Calm -- 30.08 in1018.6 mb 0.00 in0.0 mm 0.00 in0.0 mm 0.00 in0.0 mm
06:58 AM 54.9°F12.7°C 54.0°F12.2°C 97% Calm Calm -- 30.08 in1018.6 mb 0.00 in0.0 mm 0.00 in0.0 mm 0.00 in0.0 mm
06:57 AM 54.7°F12.6°C 53.8°F12.1°C 97% Calm Calm -- 30.08 in1018.6 mb 0.00 in0.0 mm 0.00 in0.0 mm 0.00 in0.0 mm
06:56 AM 54.7°F12.6°C 53.8°F12.1°C 97% Calm Calm -- 30.09 in1019.0 mb 0.00 in0.0 mm 0.00 in0.0 mm 0.00 in0.0 mm
06:55 AM 54.7°F12.6°C 53.8°F12.1°C 97% Calm Calm -- 30.08 in1018.6 mb 0.00 in0.0 mm 0.00 in0.0 mm 0.00 in0.0 mm
06:54 AM 54.7°F12.6°C 53.8°F12.1°C 97% Calm Calm -- 30.08 in1018.6 mb 0.00 in0.0 mm 0.00 in0.0 mm 0.00 in0.0 mm
06:53 AM 54.5°F12.5°C 53.7°F12.1°C 97% Calm Calm -- 30.08 in1018.6 mb 0.00 in0.0 mm 0.00 in0.0 mm 0.00 in0.0 mm
06:52 AM 54.5°F12.5°C 53.7°F12.1°C 97% Calm Calm -- 30.08 in1018.6 mb 0.00 in0.0 mm 0.00 in0.0 mm 0.00 in0.0 mm
06:51 AM 54.3°F12.4°C 53.5°F11.9°C 97% Calm Calm -- 30.08 in1018.6 mb 0.00 in0.0 mm 0.00 in0.0 mm 0.00 in0.0 mm
06:50 AM 54.3°F12.4°C 53.5°F11.9°C 97% Calm Calm -- 30.08 in1018.6 mb 0.00 in0.0 mm 0.00 in0.0 mm 0.00 in0.0 mm
06:49 AM 54.3°F12.4°C 53.5°F11.9°C 97% Calm Calm -- 30.08 in1018.6 mb 0.00 in0.0 mm 0.00 in0.0 mm 0.00 in0.0 mm
06:48 AM 54.3°F12.4°C 53.5°F11.9°C 97% Calm Calm -- 30.08 in1018.6 mb 0.00 in0.0 mm 0.00 in0.0 mm 0.00 in0.0 mm
06:47 AM 54.3°F12.4°C 53.5°F11.9°C 97% Calm Calm -- 30.08 in1018.6 mb 0.00 in0.0 mm 0.00 in0.0 mm 0.00 in0.0 mm
06:46 AM 54.3°F12.4°C 53.5°F11.9°C 97% Calm Calm -- 30.08 in1018.6 mb 0.00 in0.0 mm 0.00 in0.0 mm 0.00 in0.0 mm
06:45 AM 54.3°F12.4°C 53.5°F11.9°C 97% Calm Calm -- 30.08 in1018.6 mb 0.00 in0.0 mm 0.00 in0.0 mm 0.00 in0.0 mm
06:44 AM 54.3°F12.4°C 53.5°F11.9°C 97% Calm Calm -- 30.08 in1018.6 mb 0.00 in0.0 mm 0.00 in0.0 mm 0.00 in0.0 mm
06:43 AM 54.5°F12.5°C 53.7°F12.1°C 97% Calm Calm -- 30.08 in1018.6 mb 0.00 in0.0 mm 0.00 in0.0 mm 0.00 in0.0 mm
06:42 AM 54.5°F12.5°C 53.7°F12.1°C 97% Calm Calm -- 30.07 in1018.3 mb 0.00 in0.0 mm 0.00 in0.0 mm 0.00 in0.0 mm
06:41 AM 54.3°F12.4°C 53.5°F11.9°C 97% Calm Calm -- 30.08 in1018.6 mb 0.00 in0.0 mm 0.00 in0.0 mm 0.00 in0.0 mm
06:40 AM 54.3°F12.4°C 53.5°F11.9°C 97% Calm Calm -- 30.08 in1018.6 mb 0.00 in0.0 mm 0.00 in0.0 mm 0.00 in0.0 mm
06:39 AM 54.3°F12.4°C 53.5°F11.9°C 97% Calm Calm -- 30.08 in1018.6 mb 0.00 in0.0 mm 0.00 in0.0 mm 0.00 in0.0 mm
06:38 AM 54.3°F12.4°C 53.5°F11.9°C 97% Calm Calm -- 30.08 in1018.6 mb 0.00 in0.0 mm 0.00 in0.0 mm 0.00 in0.0 mm
06:37 AM 54.3°F12.4°C 53.5°F11.9°C 97% Calm Calm -- 30.08 in1018.6 mb 0.00 in0.0 mm 0.00 in0.0 mm 0.00 in0.0 mm
06:36 AM 54.1°F12.3°C 53.3°F11.8°C 97% Calm Calm -- 30.07 in1018.3 mb 0.00 in0.0 mm 0.00 in0.0 mm 0.00 in0.0 mm
06:35 AM 54.3°F12.4°C 53.5°F11.9°C 97% Calm Calm -- 30.07 in1018.3 mb 0.00 in0.0 mm 0.00 in0.0 mm 0.00 in0.0 mm
06:34 AM 54.3°F12.4°C 53.5°F11.9°C 97% Calm Calm -- 30.07 in1018.3 mb 0.00 in0.0 mm 0.00 in0.0 mm 0.00 in0.0 mm
06:33 AM 54.3°F12.4°C 53.5°F11.9°C 97% Calm Calm -- 30.07 in1018.3 mb 0.00 in0.0 mm 0.00 in0.0 mm 0.00 in0.0 mm
06:32 AM 54.3°F12.4°C 53.5°F11.9°C 97% Calm Calm -- 30.07 in1018.3 mb 0.00 in0.0 mm 0.00 in0.0 mm 0.00 in0.0 mm
06:31 AM 54.3°F12.4°C 53.5°F11.9°C 97% Calm Calm -- 30.07 in1018.3 mb 0.00 in0.0 mm 0.00 in0.0 mm 0.00 in0.0 mm
06:30 AM 54.3°F12.4°C 53.5°F11.9°C 97% Calm Calm -- 30.08 in1018.6 mb 0.00 in0.0 mm 0.00 in0.0 mm 0.00 in0.0 mm
06:29 AM 54.3°F12.4°C 53.5°F11.9°C 97% Calm Calm -- 30.07 in1018.3 mb 0.00 in0.0 mm 0.00 in0.0 mm 0.00 in0.0 mm
06:28 AM 54.3°F12.4°C 53.5°F11.9°C 97% Calm Calm -- 30.07 in1018.3 mb 0.00 in0.0 mm 0.00 in0.0 mm 0.00 in0.0 mm
06:27 AM 54.3°F12.4°C 53.5°F11.9°C 97% Calm Calm -- 30.07 in1018.3 mb 0.00 in0.0 mm 0.00 in0.0 mm 0.00 in0.0 mm
06:26 AM 54.1°F12.3°C 53.3°F11.8°C 97% Calm Calm -- 30.07 in1018.3 mb 0.00 in0.0 mm 0.00 in0.0 mm 0.00 in0.0 mm
06:25 AM 54.3°F12.4°C 53.5°F11.9°C 97% Calm Calm -- 30.07 in1018.3 mb 0.00 in0.0 mm 0.00 in0.0 mm 0.00 in0.0 mm
06:24 AM 54.3°F12.4°C 53.5°F11.9°C 97% Calm Calm -- 30.07 in1018.3 mb 0.00 in0.0 mm 0.00 in0.0 mm 0.00 in0.0 mm
06:23 AM 54.1°F12.3°C 53.3°F11.8°C 97% Calm Calm -- 30.07 in1018.3 mb 0.00 in0.0 mm 0.00 in0.0 mm 0.00 in0.0 mm
06:22 AM 54.3°F12.4°C 53.5°F11.9°C 97% Calm Calm -- 30.07 in1018.3 mb 0.00 in0.0 mm 0.00 in0.0 mm 0.00 in0.0 mm
06:21 AM 54.3°F12.4°C 53.5°F11.9°C 97% Calm Calm -- 30.07 in1018.3 mb 0.00 in0.0 mm 0.00 in0.0 mm 0.00 in0.0 mm
06:20 AM 54.3°F12.4°C 53.5°F11.9°C 97% Calm Calm -- 30.06 in1017.9 mb 0.00 in0.0 mm 0.00 in0.0 mm 0.00 in0.0 mm
06:19 AM 54.3°F12.4°C 53.5°F11.9°C 97% Calm Calm -- 30.07 in1018.3 mb 0.00 in0.0 mm 0.00 in0.0 mm 0.00 in0.0 mm
06:18 AM 54.3°F12.4°C 53.5°F11.9°C 97% Calm Calm -- 30.06 in1017.9 mb 0.00 in0.0 mm 0.00 in0.0 mm 0.00 in0.0 mm
06:17 AM 54.3°F12.4°C 53.5°F11.9°C 97% Calm Calm -- 30.06 in1017.9 mb 0.00 in0.0 mm 0.00 in0.0 mm 0.00 in0.0 mm
06:16 AM 54.3°F12.4°C 53.5°F11.9°C 97% Calm Calm -- 30.06 in1017.9 mb 0.00 in0.0 mm 0.00 in0.0 mm 0.00 in0.0 mm
06:15 AM 54.5°F12.5°C 53.7°F12.1°C 97% Calm Calm -- 30.07 in1018.3 mb 0.00 in0.0 mm 0.00 in0.0 mm 0.00 in0.0 mm
06:14 AM 54.5°F12.5°C 53.7°F12.1°C 97% Calm Calm -- 30.06 in1017.9 mb 0.00 in0.0 mm 0.00 in0.0 mm 0.00 in0.0 mm
06:13 AM 54.5°F12.5°C 53.7°F12.1°C 97% Calm Calm -- 30.06 in1017.9 mb 0.00 in0.0 mm 0.00 in0.0 mm 0.00 in0.0 mm
06:12 AM 54.5°F12.5°C 53.7°F12.1°C 97% Calm Calm -- 30.06 in1017.9 mb 0.00 in0.0 mm 0.00 in0.0 mm 0.00 in0.0 mm
06:11 AM 54.3°F12.4°C 53.5°F11.9°C 97% Calm Calm -- 30.07 in1018.3 mb 0.00 in0.0 mm 0.00 in0.0 mm 0.00 in0.0 mm
06:10 AM 54.3°F12.4°C 53.5°F11.9°C 97% Calm Calm -- 30.06 in1017.9 mb 0.00 in0.0 mm 0.00 in0.0 mm 0.00 in0.0 mm
06:09 AM 54.3°F12.4°C 53.5°F11.9°C 97% Calm Calm -- 30.06 in1017.9 mb 0.00 in0.0 mm 0.00 in0.0 mm 0.00 in0.0 mm
06:08 AM 54.3°F12.4°C 53.5°F11.9°C 97% Calm Calm -- 30.06 in1017.9 mb 0.00 in0.0 mm 0.00 in0.0 mm 0.00 in0.0 mm
06:07 AM 54.3°F12.4°C 53.5°F11.9°C 97% Calm Calm -- 30.06 in1017.9 mb 0.00 in0.0 mm 0.00 in0.0 mm 0.00 in0.0 mm
06:06 AM 54.3°F12.4°C 53.5°F11.9°C 97% Calm Calm -- 30.06 in1017.9 mb 0.00 in0.0 mm 0.00 in0.0 mm 0.00 in0.0 mm
06:05 AM 54.3°F12.4°C 53.5°F11.9°C 97% Calm Calm -- 30.06 in1017.9 mb 0.00 in0.0 mm 0.00 in0.0 mm 0.00 in0.0 mm
06:04 AM 54.3°F12.4°C 53.5°F11.9°C 97% Calm Calm -- 30.06 in1017.9 mb 0.00 in0.0 mm 0.00 in0.0 mm 0.00 in0.0 mm
06:03 AM 54.3°F12.4°C 53.5°F11.9°C 97% Calm Calm -- 30.06 in1017.9 mb 0.00 in0.0 mm 0.00 in0.0 mm 0.00 in0.0 mm
06:02 AM 54.3°F12.4°C 53.5°F11.9°C 97% Calm Calm -- 30.05 in1017.6 mb 0.00 in0.0 mm 0.00 in0.0 mm 0.00 in0.0 mm
06:01 AM 54.3°F12.4°C 53.5°F11.9°C 97% Calm Calm -- 30.06 in1017.9 mb 0.00 in0.0 mm 0.00 in0.0 mm 0.00 in0.0 mm
06:00 AM 54.1°F12.3°C 53.3°F11.8°C 97% Calm Calm -- 30.06 in1017.9 mb 0.00 in0.0 mm 0.00 in0.0 mm 0.00 in0.0 mm
05:59 AM 54.1°F12.3°C 53.3°F11.8°C 97% Calm Calm -- 30.06 in1017.9 mb 0.00 in0.0 mm 0.00 in0.0 mm 0.00 in0.0 mm
05:58 AM 54.1°F12.3°C 53.3°F11.8°C 97% Calm Calm -- 30.05 in1017.6 mb 0.00 in0.0 mm 0.00 in0.0 mm 0.00 in0.0 mm
05:57 AM 54.1°F12.3°C 53.3°F11.8°C 97% Calm Calm -- 30.06 in1017.9 mb 0.00 in0.0 mm 0.00 in0.0 mm 0.00 in0.0 mm
05:56 AM 54.1°F12.3°C 53.3°F11.8°C 97% Calm Calm -- 30.06 in1017.9 mb 0.00 in0.0 mm 0.00 in0.0 mm 0.00 in0.0 mm
05:55 AM 54.3°F12.4°C 53.5°F11.9°C 97% Calm Calm -- 30.05 in1017.6 mb 0.00 in0.0 mm 0.00 in0.0 mm 0.00 in0.0 mm
05:54 AM 54.3°F12.4°C 53.5°F11.9°C 97% Calm Calm -- 30.05 in1017.6 mb 0.00 in0.0 mm 0.00 in0.0 mm 0.00 in0.0 mm
05:53 AM 54.3°F12.4°C 53.5°F11.9°C 97% Calm Calm -- 30.05 in1017.6 mb 0.00 in0.0 mm 0.00 in0.0 mm 0.00 in0.0 mm
05:52 AM 54.3°F12.4°C 53.5°F11.9°C 97% Calm Calm -- 30.05 in1017.6 mb 0.00 in0.0 mm 0.00 in0.0 mm 0.00 in0.0 mm
05:51 AM 54.1°F12.3°C 53.3°F11.8°C 97% Calm Calm -- 30.05 in1017.6 mb 0.00 in0.0 mm 0.00 in0.0 mm 0.00 in0.0 mm
05:50 AM 54.1°F12.3°C 53.3°F11.8°C 97% Calm Calm -- 30.05 in1017.6 mb 0.00 in0.0 mm 0.00 in0.0 mm 0.00 in0.0 mm
05:49 AM 54.1°F12.3°C 53.3°F11.8°C 97% Calm Calm -- 30.05 in1017.6 mb 0.00 in0.0 mm 0.00 in0.0 mm 0.00 in0.0 mm
05:48 AM 54.1°F12.3°C 53.3°F11.8°C 97% Calm Calm -- 30.05 in1017.6 mb 0.00 in0.0 mm 0.00 in0.0 mm 0.00 in0.0 mm
05:47 AM 54.3°F12.4°C 53.5°F11.9°C 97% Calm Calm -- 30.05 in1017.6 mb 0.00 in0.0 mm 0.00 in0.0 mm 0.00 in0.0 mm
05:46 AM 54.3°F12.4°C 53.5°F11.9°C 97% Calm Calm -- 30.05 in1017.6 mb 0.00 in0.0 mm 0.00 in0.0 mm 0.00 in0.0 mm
05:45 AM 54.3°F12.4°C 53.5°F11.9°C 97% Calm Calm -- 30.05 in1017.6 mb 0.00 in0.0 mm 0.00 in0.0 mm 0.00 in0.0 mm
05:44 AM 54.3°F12.4°C 53.5°F11.9°C 97% Calm Calm -- 30.05 in1017.6 mb 0.00 in0.0 mm 0.00 in0.0 mm 0.00 in0.0 mm
05:43 AM 54.3°F12.4°C 53.5°F11.9°C 97% Calm Calm -- 30.05 in1017.6 mb 0.00 in0.0 mm 0.00 in0.0 mm 0.00 in0.0 mm
05:42 AM 54.3°F12.4°C 53.5°F11.9°C 97% Calm Calm -- 30.05 in1017.6 mb 0.00 in0.0 mm 0.00 in0.0 mm 0.00 in0.0 mm
05:41 AM 54.3°F12.4°C 53.5°F11.9°C 97% Calm Calm -- 30.04 in1017.3 mb 0.00 in0.0 mm 0.00 in0.0 mm 0.00 in0.0 mm
05:40 AM 54.3°F12.4°C 53.5°F11.9°C 97% Calm Calm -- 30.05 in1017.6 mb 0.00 in0.0 mm 0.00 in0.0 mm 0.00 in0.0 mm
05:39 AM 54.3°F12.4°C 53.5°F11.9°C 97% Calm Calm -- 30.05 in1017.6 mb 0.00 in0.0 mm 0.00 in0.0 mm 0.00 in0.0 mm
05:38 AM 54.3°F12.4°C 53.5°F11.9°C 97% Calm Calm -- 30.04 in1017.3 mb 0.00 in0.0 mm 0.00 in0.0 mm 0.00 in0.0 mm
05:37 AM 54.3°F12.4°C 53.5°F11.9°C 97% Calm Calm -- 30.05 in1017.6 mb 0.00 in0.0 mm 0.00 in0.0 mm 0.00 in0.0 mm
05:36 AM 54.3°F12.4°C 53.5°F11.9°C 97% Calm Calm -- 30.04 in1017.3 mb 0.00 in0.0 mm 0.00 in0.0 mm 0.00 in0.0 mm
05:35 AM 54.1°F12.3°C 53.3°F11.8°C 97% Calm Calm -- 30.04 in1017.3 mb 0.00 in0.0 mm 0.00 in0.0 mm 0.00 in0.0 mm
05:34 AM 54.1°F12.3°C 53.3°F11.8°C 97% Calm Calm -- 30.04 in1017.3 mb 0.00 in0.0 mm 0.00 in0.0 mm 0.00 in0.0 mm
05:33 AM 54.3°F12.4°C 53.5°F11.9°C 97% Calm Calm -- 30.04 in1017.3 mb 0.00 in0.0 mm 0.00 in0.0 mm 0.00 in0.0 mm
05:32 AM 54.1°F12.3°C 53.3°F11.8°C 97% Calm Calm -- 30.04 in1017.3 mb 0.00 in0.0 mm 0.00 in0.0 mm 0.00 in0.0 mm
05:31 AM 54.1°F12.3°C 53.3°F11.8°C 97% Calm Calm -- 30.04 in1017.3 mb 0.00 in0.0 mm 0.00 in0.0 mm 0.00 in0.0 mm
05:30 AM 54.1°F12.3°C 53.3°F11.8°C 97% Calm Calm -- 30.04 in1017.3 mb 0.00 in0.0 mm 0.00 in0.0 mm 0.00 in0.0 mm
05:29 AM 54.1°F12.3°C 53.3°F11.8°C 97% Calm Calm -- 30.04 in1017.3 mb 0.00 in0.0 mm 0.00 in0.0 mm 0.00 in0.0 mm
05:28 AM 54.1°F12.3°C 53.3°F11.8°C 97% Calm Calm -- 30.04 in1017.3 mb 0.00 in0.0 mm 0.00 in0.0 mm 0.00 in0.0 mm
05:27 AM 54.1°F12.3°C 53.3°F11.8°C 97% Calm Calm -- 30.04 in1017.3 mb 0.00 in0.0 mm 0.00 in0.0 mm 0.00 in0.0 mm
05:26 AM 54.1°F12.3°C 53.3°F11.8°C 97% Calm Calm -- 30.05 in1017.6 mb 0.00 in0.0 mm 0.00 in0.0 mm 0.00 in0.0 mm
05:25 AM 54.1°F12.3°C 53.3°F11.8°C 97% Calm Calm -- 30.04 in1017.3 mb 0.00 in0.0 mm 0.00 in0.0 mm 0.00 in0.0 mm
05:24 AM 54.1°F12.3°C 53.3°F11.8°C 97% Calm Calm -- 30.03 in1016.9 mb 0.00 in0.0 mm 0.00 in0.0 mm 0.00 in0.0 mm
05:23 AM 54.1°F12.3°C 53.3°F11.8°C 97% Calm Calm -- 30.04 in1017.3 mb 0.00 in0.0 mm 0.00 in0.0 mm 0.00 in0.0 mm
05:22 AM 54.1°F12.3°C 53.3°F11.8°C 97% Calm Calm -- 30.04 in1017.3 mb 0.00 in0.0 mm 0.00 in0.0 mm 0.00 in0.0 mm
05:21 AM 54.1°F12.3°C 53.3°F11.8°C 97% Calm Calm -- 30.03 in1016.9 mb 0.00 in0.0 mm 0.00 in0.0 mm 0.00 in0.0 mm
05:20 AM 54.1°F12.3°C 53.3°F11.8°C 97% Calm Calm -- 30.04 in1017.3 mb 0.00 in0.0 mm 0.00 in0.0 mm 0.00 in0.0 mm
05:19 AM 54.1°F12.3°C 53.3°F11.8°C 97% Calm Calm -- 30.03 in1016.9 mb 0.00 in0.0 mm 0.00 in0.0 mm 0.00 in0.0 mm
05:18 AM 54.1°F12.3°C 53.3°F11.8°C 97% Calm Calm -- 30.03 in1016.9 mb 0.00 in0.0 mm 0.00 in0.0 mm 0.00 in0.0 mm
05:17 AM 54.1°F12.3°C 53.3°F11.8°C 97% Calm Calm -- 30.04 in1017.3 mb 0.00 in0.0 mm 0.00 in0.0 mm 0.00 in0.0 mm
05:16 AM 54.1°F12.3°C 53.3°F11.8°C 97% Calm Calm -- 30.03 in1016.9 mb 0.00 in0.0 mm 0.00 in0.0 mm 0.00 in0.0 mm
05:15 AM 54.1°F12.3°C 53.3°F11.8°C 97% Calm Calm -- 30.03 in1016.9 mb 0.00 in0.0 mm 0.00 in0.0 mm 0.00 in0.0 mm
05:14 AM 54.1°F12.3°C 53.3°F11.8°C 97% Calm Calm -- 30.03 in1016.9 mb 0.00 in0.0 mm 0.00 in0.0 mm 0.00 in0.0 mm
05:13 AM 54.1°F12.3°C 53.3°F11.8°C 97% Calm Calm -- 30.03 in1016.9 mb 0.00 in0.0 mm 0.00 in0.0 mm 0.00 in0.0 mm
05:12 AM 54.1°F12.3°C 53.3°F11.8°C 97% Calm Calm -- 30.03 in1016.9 mb 0.00 in0.0 mm 0.00 in0.0 mm 0.00 in0.0 mm
05:11 AM 54.1°F12.3°C 53.3°F11.8°C 97% Calm Calm -- 30.03 in1016.9 mb 0.00 in0.0 mm 0.00 in0.0 mm 0.00 in0.0 mm
05:10 AM 54.1°F12.3°C 53.3°F11.8°C 97% Calm Calm -- 30.03 in1016.9 mb 0.00 in0.0 mm 0.00 in0.0 mm 0.00 in0.0 mm
05:09 AM 54.1°F12.3°C 53.3°F11.8°C 97% Calm Calm -- 30.03 in1016.9 mb 0.00 in0.0 mm 0.00 in0.0 mm 0.00 in0.0 mm
05:08 AM 54.1°F12.3°C 53.3°F11.8°C 97% Calm Calm -- 30.03 in1016.9 mb 0.00 in0.0 mm 0.00 in0.0 mm 0.00 in0.0 mm
05:07 AM 54.1°F12.3°C 53.3°F11.8°C 97% Calm Calm -- 30.03 in1016.9 mb 0.00 in0.0 mm 0.00 in0.0 mm 0.00 in0.0 mm
05:06 AM 54.1°F12.3°C 53.3°F11.8°C 97% Calm Calm -- 30.03 in1016.9 mb 0.00 in0.0 mm 0.00 in0.0 mm 0.00 in0.0 mm
05:05 AM 54.1°F12.3°C 53.3°F11.8°C 97% Calm Calm -- 30.03 in1016.9 mb 0.00 in0.0 mm 0.00 in0.0 mm 0.00 in0.0 mm
05:04 AM 54.1°F12.3°C 53.3°F11.8°C 97% Calm Calm -- 30.03 in1016.9 mb 0.00 in0.0 mm 0.00 in0.0 mm 0.00 in0.0 mm
05:03 AM 54.1°F12.3°C 53.3°F11.8°C 97% Calm Calm -- 30.03 in1016.9 mb 0.00 in0.0 mm 0.00 in0.0 mm 0.00 in0.0 mm
05:02 AM 54.1°F12.3°C 53.3°F11.8°C 97% Calm Calm -- 30.02 in1016.6 mb 0.00 in0.0 mm 0.00 in0.0 mm 0.00 in0.0 mm
05:01 AM 54.3°F12.4°C 53.5°F11.9°C 97% Calm Calm -- 30.02 in1016.6 mb 0.00 in0.0 mm 0.00 in0.0 mm 0.00 in0.0 mm
05:00 AM 54.3°F12.4°C 53.5°F11.9°C 97% Calm Calm -- 30.02 in1016.6 mb 0.00 in0.0 mm 0.00 in0.0 mm 0.00 in0.0 mm
04:59 AM 54.3°F12.4°C 53.5°F11.9°C 97% Calm Calm -- 30.02 in1016.6 mb 0.00 in0.0 mm 0.00 in0.0 mm 0.00 in0.0 mm
04:58 AM 54.3°F12.4°C 53.5°F11.9°C 97% Calm Calm -- 30.02 in1016.6 mb 0.00 in0.0 mm 0.00 in0.0 mm 0.00 in0.0 mm
04:57 AM 54.3°F12.4°C 53.5°F11.9°C 97% Calm Calm -- 30.02 in1016.6 mb 0.00 in0.0 mm 0.00 in0.0 mm 0.00 in0.0 mm
04:56 AM 54.5°F12.5°C 53.7°F12.1°C 97% Calm Calm -- 30.02 in1016.6 mb 0.00 in0.0 mm 0.00 in0.0 mm 0.00 in0.0 mm
04:55 AM 54.5°F12.5°C 53.7°F12.1°C 97% Calm Calm -- 30.02 in1016.6 mb 0.00 in0.0 mm 0.00 in0.0 mm 0.00 in0.0 mm
04:54 AM 54.5°F12.5°C 53.7°F12.1°C 97% Calm Calm -- 30.02 in1016.6 mb 0.00 in0.0 mm 0.00 in0.0 mm 0.00 in0.0 mm
04:53 AM 54.5°F12.5°C 53.7°F12.1°C 97% Calm Calm -- 30.02 in1016.6 mb 0.00 in0.0 mm 0.00 in0.0 mm 0.00 in0.0 mm
04:52 AM 54.5°F12.5°C 53.7°F12.1°C 97% Calm Calm -- 30.02 in1016.6 mb 0.00 in0.0 mm 0.00 in0.0 mm 0.00 in0.0 mm
04:51 AM 54.5°F12.5°C 53.7°F12.1°C 97% Calm Calm -- 30.02 in1016.6 mb 0.00 in0.0 mm 0.00 in0.0 mm 0.00 in0.0 mm
04:50 AM 54.5°F12.5°C 53.7°F12.1°C 97% Calm Calm -- 30.02 in1016.6 mb 0.00 in0.0 mm 0.00 in0.0 mm 0.00 in0.0 mm
04:49 AM 54.5°F12.5°C 53.7°F12.1°C 97% Calm Calm -- 30.02 in1016.6 mb 0.00 in0.0 mm 0.00 in0.0 mm 0.00 in0.0 mm
04:48 AM 54.5°F12.5°C 53.7°F12.1°C 97% Calm Calm -- 30.02 in1016.6 mb 0.00 in0.0 mm 0.00 in0.0 mm 0.00 in0.0 mm
04:47 AM 54.7°F12.6°C 53.8°F12.1°C 97% Calm Calm -- 30.02 in1016.6 mb 0.00 in0.0 mm 0.00 in0.0 mm 0.00 in0.0 mm
04:46 AM 54.7°F12.6°C 53.8°F12.1°C 97% Calm Calm -- 30.01 in1016.3 mb 0.00 in0.0 mm 0.00 in0.0 mm 0.00 in0.0 mm
04:45 AM 54.7°F12.6°C 53.8°F12.1°C 97% Calm Calm -- 30.02 in1016.6 mb 0.00 in0.0 mm 0.00 in0.0 mm 0.00 in0.0 mm
04:44 AM 54.7°F12.6°C 53.8°F12.1°C 97% Calm Calm -- 30.02 in1016.6 mb 0.00 in0.0 mm 0.00 in0.0 mm 0.00 in0.0 mm
04:43 AM 54.7°F12.6°C 53.8°F12.1°C 97% Calm Calm -- 30.02 in1016.6 mb 0.00 in0.0 mm 0.00 in0.0 mm 0.00 in0.0 mm
04:42 AM 54.7°F12.6°C 53.8°F12.1°C 97% Calm Calm -- 30.01 in1016.3 mb 0.00 in0.0 mm 0.00 in0.0 mm 0.00 in0.0 mm
04:41 AM 54.7°F12.6°C 53.8°F12.1°C 97% Calm Calm -- 30.02 in1016.6 mb 0.00 in0.0 mm 0.00 in0.0 mm 0.00 in0.0 mm
04:40 AM 54.7°F12.6°C 53.8°F12.1°C 97% Calm Calm -- 30.02 in1016.6 mb 0.00 in0.0 mm 0.00 in0.0 mm 0.00 in0.0 mm
04:39 AM 54.7°F12.6°C 53.8°F12.1°C 97% Calm Calm -- 30.01 in1016.3 mb 0.00 in0.0 mm 0.00 in0.0 mm 0.00 in0.0 mm
04:38 AM 54.7°F12.6°C 53.8°F12.1°C 97% Calm Calm -- 30.01 in1016.3 mb 0.00 in0.0 mm 0.00 in0.0 mm 0.00 in0.0 mm
04:37 AM 54.9°F12.7°C 54.0°F12.2°C 97% Calm Calm -- 30.02 in1016.6 mb 0.00 in0.0 mm 0.00 in0.0 mm 0.00 in0.0 mm
04:36 AM 54.9°F12.7°C 54.0°F12.2°C 97% Calm Calm -- 30.01 in1016.3 mb 0.00 in0.0 mm 0.00 in0.0 mm 0.00 in0.0 mm
04:35 AM 54.9°F12.7°C 54.0°F12.2°C 97% Calm Calm -- 30.01 in1016.3 mb 0.00 in0.0 mm 0.00 in0.0 mm 0.00 in0.0 mm
04:34 AM 54.9°F12.7°C 54.0°F12.2°C 97% Calm Calm -- 30.01 in1016.3 mb 0.00 in0.0 mm 0.00 in0.0 mm 0.00 in0.0 mm
04:33 AM 54.9°F12.7°C 54.0°F12.2°C 97% Calm Calm -- 30.01 in1016.3 mb 0.00 in0.0 mm 0.00 in0.0 mm 0.00 in0.0 mm
04:32 AM 54.9°F12.7°C 54.0°F12.2°C 97% Calm Calm -- 30.02 in1016.6 mb 0.00 in0.0 mm 0.00 in0.0 mm 0.00 in0.0 mm
04:31 AM 54.9°F12.7°C 54.0°F12.2°C 97% Calm Calm -- 30.01 in1016.3 mb 0.00 in0.0 mm 0.00 in0.0 mm 0.00 in0.0 mm
04:30 AM 54.9°F12.7°C 54.0°F12.2°C 97% Calm Calm -- 30.01 in1016.3 mb 0.00 in0.0 mm 0.00 in0.0 mm 0.00 in0.0 mm
04:29 AM 54.9°F12.7°C 54.0°F12.2°C 97% Calm Calm -- 30.01 in1016.3 mb 0.00 in0.0 mm 0.00 in0.0 mm 0.00 in0.0 mm
04:28 AM 54.9°F12.7°C 54.0°F12.2°C 97% Calm Calm -- 30.01 in1016.3 mb 0.00 in0.0 mm 0.00 in0.0 mm 0.00 in0.0 mm
04:27 AM 54.9°F12.7°C 54.0°F12.2°C 97% Calm Calm -- 30.01 in1016.3 mb 0.00 in0.0 mm 0.00 in0.0 mm 0.00 in0.0 mm
04:26 AM 54.9°F12.7°C 54.0°F12.2°C 97% Calm Calm -- 30.01 in1016.3 mb 0.00 in0.0 mm 0.00 in0.0 mm 0.00 in0.0 mm
04:25 AM 54.9°F12.7°C 54.0°F12.2°C 97% Calm Calm -- 30.01 in1016.3 mb 0.00 in0.0 mm 0.00 in0.0 mm 0.00 in0.0 mm
04:24 AM 54.9°F12.7°C 54.0°F12.2°C 97% Calm Calm -- 30.00 in1015.9 mb 0.00 in0.0 mm 0.00 in0.0 mm 0.00 in0.0 mm
04:23 AM 54.9°F12.7°C 54.0°F12.2°C 97% Calm Calm -- 30.01 in1016.3 mb 0.00 in0.0 mm 0.00 in0.0 mm 0.00 in0.0 mm
04:22 AM 54.9°F12.7°C 54.0°F12.2°C 97% Calm Calm -- 30.00 in1015.9 mb 0.00 in0.0 mm 0.00 in0.0 mm 0.00 in0.0 mm
04:21 AM 54.9°F12.7°C 54.0°F12.2°C 97% Calm Calm -- 30.01 in1016.3 mb 0.00 in0.0 mm 0.00 in0.0 mm 0.00 in0.0 mm
04:20 AM 54.9°F12.7°C 54.0°F12.2°C 97% Calm Calm -- 30.01 in1016.3 mb 0.00 in0.0 mm 0.00 in0.0 mm 0.00 in0.0 mm
04:19 AM 54.9°F12.7°C 54.0°F12.2°C 97% Calm Calm -- 30.00 in1015.9 mb 0.00 in0.0 mm 0.00 in0.0 mm 0.00 in0.0 mm
04:18 AM 54.9°F12.7°C 54.0°F12.2°C 97% Calm Calm -- 30.00 in1015.9 mb 0.00 in0.0 mm 0.00 in0.0 mm 0.00 in0.0 mm
04:17 AM 54.9°F12.7°C 54.0°F12.2°C 97% Calm Calm -- 30.01 in1016.3 mb 0.00 in0.0 mm 0.00 in0.0 mm 0.00 in0.0 mm
04:16 AM 54.9°F12.7°C 54.0°F12.2°C 97% Calm Calm -- 30.00 in1015.9 mb 0.00 in0.0 mm 0.00 in0.0 mm 0.00 in0.0 mm
04:15 AM 54.9°F12.7°C 54.0°F12.2°C 97% Calm Calm -- 30.00 in1015.9 mb 0.00 in0.0 mm 0.00 in0.0 mm 0.00 in0.0 mm
04:14 AM 54.9°F12.7°C 54.0°F12.2°C 97% Calm Calm -- 30.00 in1015.9 mb 0.00 in0.0 mm 0.00 in0.0 mm 0.00 in0.0 mm
04:13 AM 54.9°F12.7°C 54.0°F12.2°C 97% Calm Calm -- 30.00 in1015.9 mb 0.00 in0.0 mm 0.00 in0.0 mm 0.00 in0.0 mm
04:12 AM 54.9°F12.7°C 54.0°F12.2°C 97% Calm Calm -- 30.00 in1015.9 mb 0.00 in0.0 mm 0.00 in0.0 mm 0.00 in0.0 mm
04:11 AM 54.9°F12.7°C 54.0°F12.2°C 97% Calm Calm -- 30.00 in1015.9 mb 0.00 in0.0 mm 0.00 in0.0 mm 0.00 in0.0 mm
04:10 AM 54.9°F12.7°C 54.0°F12.2°C 97% Calm Calm -- 30.00 in1015.9 mb 0.00 in0.0 mm 0.00 in0.0 mm 0.00 in0.0 mm
04:09 AM 54.9°F12.7°C 54.0°F12.2°C 97% Calm Calm -- 30.00 in1015.9 mb 0.00 in0.0 mm 0.00 in0.0 mm 0.00 in0.0 mm
04:08 AM 54.9°F12.7°C 54.0°F12.2°C 97% Calm Calm -- 30.00 in1015.9 mb 0.00 in0.0 mm 0.00 in0.0 mm 0.00 in0.0 mm
04:07 AM 54.9°F12.7°C 54.0°F12.2°C 97% Calm Calm -- 30.00 in1015.9 mb 0.00 in0.0 mm 0.00 in0.0 mm 0.00 in0.0 mm
04:06 AM 54.9°F12.7°C 54.0°F12.2°C 97% Calm Calm -- 30.00 in1015.9 mb 0.00 in0.0 mm 0.00 in0.0 mm 0.00 in0.0 mm
04:05 AM 54.9°F12.7°C 54.0°F12.2°C 97% Calm Calm -- 30.00 in1015.9 mb 0.00 in0.0 mm 0.00 in0.0 mm 0.00 in0.0 mm
04:04 AM 54.9°F12.7°C 54.0°F12.2°C 97% Calm Calm -- 30.00 in1015.9 mb 0.00 in0.0 mm 0.00 in0.0 mm 0.00 in0.0 mm
04:03 AM 54.9°F12.7°C 54.0°F12.2°C 97% Calm Calm -- 30.00 in1015.9 mb 0.00 in0.0 mm 0.00 in0.0 mm 0.00 in0.0 mm
04:02 AM 54.9°F12.7°C 54.0°F12.2°C 97% Calm Calm -- 30.00 in1015.9 mb 0.00 in0.0 mm 0.00 in0.0 mm 0.00 in0.0 mm
04:01 AM 54.9°F12.7°C 54.0°F12.2°C 97% Calm Calm -- 30.00 in1015.9 mb 0.00 in0.0 mm 0.00 in0.0 mm 0.00 in0.0 mm
04:00 AM 54.9°F12.7°C 54.0°F12.2°C 97% Calm Calm -- 30.00 in1015.9 mb 0.00 in0.0 mm 0.00 in0.0 mm 0.00 in0.0 mm
03:59 AM 54.9°F12.7°C 54.0°F12.2°C 97% Calm Calm -- 30.00 in1015.9 mb 0.00 in0.0 mm 0.00 in0.0 mm 0.00 in0.0 mm
03:58 AM 54.9°F12.7°C 54.0°F12.2°C 97% Calm Calm -- 30.00 in1015.9 mb 0.00 in0.0 mm 0.00 in0.0 mm 0.00 in0.0 mm
03:57 AM 54.9°F12.7°C 54.0°F12.2°C 97% Calm Calm -- 30.00 in1015.9 mb 0.00 in0.0 mm 0.00 in0.0 mm 0.00 in0.0 mm
03:56 AM 54.9°F12.7°C 54.0°F12.2°C 97% Calm Calm -- 30.00 in1015.9 mb 0.00 in0.0 mm 0.00 in0.0 mm 0.00 in0.0 mm
03:55 AM 54.9°F12.7°C 54.0°F12.2°C 97% Calm Calm -- 30.00 in1015.9 mb 0.00 in0.0 mm 0.00 in0.0 mm 0.00 in0.0 mm
03:54 AM 54.9°F12.7°C 54.0°F12.2°C 97% Calm Calm -- 30.00 in1015.9 mb 0.00 in0.0 mm 0.00 in0.0 mm 0.00 in0.0 mm
03:53 AM 54.9°F12.7°C 54.0°F12.2°C 97% Calm Calm -- 30.00 in1015.9 mb 0.00 in0.0 mm 0.00 in0.0 mm 0.00 in0.0 mm
03:52 AM 54.9°F12.7°C 54.0°F12.2°C 97% Calm Calm -- 30.00 in1015.9 mb 0.00 in0.0 mm 0.00 in0.0 mm 0.00 in0.0 mm
03:51 AM 54.9°F12.7°C 54.0°F12.2°C 97% Calm Calm -- 30.00 in1015.9 mb 0.00 in0.0 mm 0.00 in0.0 mm 0.00 in0.0 mm
03:50 AM 54.9°F12.7°C 54.0°F12.2°C 97% Calm Calm -- 30.00 in1015.9 mb 0.00 in0.0 mm 0.00 in0.0 mm 0.00 in0.0 mm
03:49 AM 54.9°F12.7°C 54.0°F12.2°C 97% Calm Calm -- 30.00 in1015.9 mb 0.00 in0.0 mm 0.00 in0.0 mm 0.00 in0.0 mm
03:48 AM 54.9°F12.7°C 54.0°F12.2°C 97% Calm Calm -- 30.00 in1015.9 mb 0.00 in0.0 mm 0.00 in0.0 mm 0.00 in0.0 mm
03:47 AM 54.9°F12.7°C 54.0°F12.2°C 97% Calm Calm -- 30.00 in1015.9 mb 0.00 in0.0 mm 0.00 in0.0 mm 0.00 in0.0 mm
03:46 AM 54.9°F12.7°C 54.0°F12.2°C 97% Calm Calm -- 30.00 in1015.9 mb 0.00 in0.0 mm 0.00 in0.0 mm 0.00 in0.0 mm
03:45 AM 54.9°F12.7°C 54.0°F12.2°C 97% Calm Calm -- 30.00 in1015.9 mb 0.00 in0.0 mm 0.00 in0.0 mm 0.00 in0.0 mm
03:44 AM 54.9°F12.7°C 54.0°F12.2°C 97% Calm Calm -- 30.00 in1015.9 mb 0.00 in0.0 mm 0.00 in0.0 mm 0.00 in0.0 mm
03:43 AM 54.9°F12.7°C 54.0°F12.2°C 97% Calm Calm -- 30.00 in1015.9 mb 0.00 in0.0 mm 0.00 in0.0 mm 0.00 in0.0 mm
03:42 AM 54.9°F12.7°C 54.0°F12.2°C 97% Calm Calm -- 30.00 in1015.9 mb 0.00 in0.0 mm 0.00 in0.0 mm 0.00 in0.0 mm
03:41 AM 54.9°F12.7°C 54.0°F12.2°C 97% Calm Calm -- 30.00 in1015.9 mb 0.00 in0.0 mm 0.00 in0.0 mm 0.00 in0.0 mm
03:40 AM 54.9°F12.7°C 54.0°F12.2°C 97% Calm Calm -- 30.00 in1015.9 mb 0.00 in0.0 mm 0.00 in0.0 mm 0.00 in0.0 mm
03:39 AM 54.9°F12.7°C 54.0°F12.2°C 97% Calm Calm -- 30.00 in1015.9 mb 0.00 in0.0 mm 0.00 in0.0 mm 0.00 in0.0 mm
03:38 AM 55.0°F12.8°C 54.2°F12.3°C 97% Calm Calm -- 30.00 in1015.9 mb 0.00 in0.0 mm 0.00 in0.0 mm 0.00 in0.0 mm
03:37 AM 54.9°F12.7°C 54.0°F12.2°C 97% Calm Calm -- 30.00 in1015.9 mb 0.00 in0.0 mm 0.00 in0.0 mm 0.00 in0.0 mm
03:36 AM 55.0°F12.8°C 54.2°F12.3°C 97% Calm Calm -- 30.00 in1015.9 mb 0.00 in0.0 mm 0.00 in0.0 mm 0.00 in0.0 mm
03:35 AM 55.0°F12.8°C 54.2°F12.3°C 97% Calm Calm -- 30.00 in1015.9 mb 0.00 in0.0 mm 0.00 in0.0 mm 0.00 in0.0 mm
03:34 AM 55.0°F12.8°C 54.2°F12.3°C 97% Calm Calm -- 30.00 in1015.9 mb 0.00 in0.0 mm 0.00 in0.0 mm 0.00 in0.0 mm
03:33 AM 55.0°F12.8°C 54.2°F12.3°C 97% Calm Calm -- 30.00 in1015.9 mb 0.00 in0.0 mm 0.00 in0.0 mm 0.00 in0.0 mm
03:32 AM 55.0°F12.8°C 54.2°F12.3°C 97% Calm Calm -- 29.99 in1015.6 mb 0.00 in0.0 mm 0.00 in0.0 mm 0.00 in0.0 mm
03:31 AM 55.0°F12.8°C 54.2°F12.3°C 97% Calm Calm -- 29.99 in1015.6 mb 0.00 in0.0 mm 0.00 in0.0 mm 0.00 in0.0 mm
03:30 AM 55.0°F12.8°C 54.2°F12.3°C 97% Calm Calm -- 29.99 in1015.6 mb 0.00 in0.0 mm 0.00 in0.0 mm 0.00 in0.0 mm
03:29 AM 55.2°F12.9°C 54.4°F12.4°C 97% Calm Calm -- 30.00 in1015.9 mb 0.00 in0.0 mm 0.00 in0.0 mm 0.00 in0.0 mm
03:28 AM 55.2°F12.9°C 54.4°F12.4°C 97% Calm Calm -- 29.99 in1015.6 mb 0.00 in0.0 mm 0.00 in0.0 mm 0.00 in0.0 mm
03:27 AM 55.2°F12.9°C 54.4°F12.4°C 97% Calm Calm -- 29.99 in1015.6 mb 0.00 in0.0 mm 0.00 in0.0 mm 0.00 in0.0 mm
03:26 AM 55.4°F13.0°C 55.1°F12.8°C 99% Calm Calm -- 30.00 in1015.9 mb 0.00 in0.0 mm 0.00 in0.0 mm 0.00 in0.0 mm
03:25 AM 55.4°F13.0°C 55.1°F12.8°C 99% Calm Calm -- 30.00 in1015.9 mb 0.00 in0.0 mm 0.00 in0.0 mm 0.00 in0.0 mm
03:24 AM 55.4°F13.0°C 55.1°F12.8°C 99% Calm Calm -- 29.99 in1015.6 mb 0.00 in0.0 mm 0.00 in0.0 mm 0.00 in0.0 mm
03:23 AM 55.4°F13.0°C 55.1°F12.8°C 99% Calm Calm -- 30.00 in1015.9 mb 0.00 in0.0 mm 0.00 in0.0 mm 0.00 in0.0 mm
03:22 AM 55.4°F13.0°C 55.1°F12.8°C 99% Calm Calm -- 29.99 in1015.6 mb 0.00 in0.0 mm 0.00 in0.0 mm 0.00 in0.0 mm
03:21 AM 55.4°F13.0°C 55.1°F12.8°C 99% Calm Calm -- 29.99 in1015.6 mb 0.00 in0.0 mm 0.00 in0.0 mm 0.00 in0.0 mm
03:20 AM 55.4°F13.0°C 55.1°F12.8°C 99% Calm Calm -- 29.99 in1015.6 mb 0.00 in0.0 mm 0.00 in0.0 mm 0.00 in0.0 mm
03:19 AM 55.4°F13.0°C 55.1°F12.8°C 99% Calm Calm -- 30.00 in1015.9 mb 0.00 in0.0 mm 0.00 in0.0 mm 0.00 in0.0 mm
03:18 AM 55.4°F13.0°C 55.1°F12.8°C 99% Calm Calm -- 30.00 in1015.9 mb 0.00 in0.0 mm 0.00 in0.0 mm 0.00 in0.0 mm
03:17 AM 55.4°F13.0°C 55.1°F12.8°C 99% Calm Calm -- 29.99 in1015.6 mb 0.00 in0.0 mm 0.00 in0.0 mm 0.00 in0.0 mm
03:16 AM 55.4°F13.0°C 55.1°F12.8°C 99% Calm Calm -- 29.99 in1015.6 mb 0.00 in0.0 mm 0.00 in0.0 mm 0.00 in0.0 mm
03:15 AM 55.4°F13.0°C 55.1°F12.8°C 99% Calm Calm -- 29.99 in1015.6 mb 0.00 in0.0 mm 0.00 in0.0 mm 0.00 in0.0 mm
03:14 AM 55.4°F13.0°C 55.1°F12.8°C 99% Calm Calm -- 29.99 in1015.6 mb 0.00 in0.0 mm 0.00 in0.0 mm 0.00 in0.0 mm
03:13 AM 55.4°F13.0°C 55.1°F12.8°C 99% Calm Calm -- 29.99 in1015.6 mb 0.00 in0.0 mm 0.00 in0.0 mm 0.00 in0.0 mm
03:12 AM 55.4°F13.0°C 55.1°F12.8°C 99% Calm Calm -- 29.99 in1015.6 mb 0.00 in0.0 mm 0.00 in0.0 mm 0.00 in0.0 mm
03:11 AM 55.8°F13.2°C 55.5°F13.1°C 99% Calm Calm -- 29.99 in1015.6 mb 0.00 in0.0 mm 0.00 in0.0 mm 0.00 in0.0 mm
03:10 AM 55.8°F13.2°C 55.5°F13.1°C 99% Calm Calm -- 29.99 in1015.6 mb 0.00 in0.0 mm 0.00 in0.0 mm 0.00 in0.0 mm
03:09 AM 55.6°F13.1°C 55.3°F12.9°C 99% Calm Calm -- 29.99 in1015.6 mb 0.00 in0.0 mm 0.00 in0.0 mm 0.00 in0.0 mm
03:08 AM 55.6°F13.1°C 55.3°F12.9°C 99% Calm Calm -- 29.99 in1015.6 mb 0.00 in0.0 mm 0.00 in0.0 mm 0.00 in0.0 mm
03:07 AM 55.6°F13.1°C 55.3°F12.9°C 99% Calm Calm -- 29.99 in1015.6 mb 0.00 in0.0 mm 0.00 in0.0 mm 0.00 in0.0 mm
03:06 AM 55.6°F13.1°C 55.3°F12.9°C 99% Calm Calm -- 29.99 in1015.6 mb 0.00 in0.0 mm 0.00 in0.0 mm 0.00 in0.0 mm
03:05 AM 55.6°F13.1°C 55.3°F12.9°C 99% Calm Calm -- 29.99 in1015.6 mb 0.00 in0.0 mm 0.00 in0.0 mm 0.00 in0.0 mm
03:04 AM 55.6°F13.1°C 55.3°F12.9°C 99% Calm Calm -- 29.99 in1015.6 mb 0.00 in0.0 mm 0.00 in0.0 mm 0.00 in0.0 mm
03:03 AM 55.6°F13.1°C 55.3°F12.9°C 99% Calm Calm -- 29.99 in1015.6 mb 0.00 in0.0 mm 0.00 in0.0 mm 0.00 in0.0 mm
03:02 AM 55.6°F13.1°C 55.3°F12.9°C 99% Calm Calm -- 29.99 in1015.6 mb 0.00 in0.0 mm 0.00 in0.0 mm 0.00 in0.0 mm
03:01 AM 55.6°F13.1°C 55.3°F12.9°C 99% Calm Calm -- 29.98 in1015.2 mb 0.00 in0.0 mm 0.00 in0.0 mm 0.00 in0.0 mm
03:00 AM 55.6°F13.1°C 55.3°F12.9°C 99% Calm Calm -- 29.99 in1015.6 mb 0.00 in0.0 mm 0.00 in0.0 mm 0.00 in0.0 mm
02:59 AM 55.8°F13.2°C 55.5°F13.1°C 99% Calm Calm -- 29.99 in1015.6 mb 0.00 in0.0 mm 0.00 in0.0 mm 0.00 in0.0 mm
02:58 AM 55.8°F13.2°C 55.5°F13.1°C 99% Calm Calm -- 29.98 in1015.2 mb 0.00 in0.0 mm 0.00 in0.0 mm 0.00 in0.0 mm
02:57 AM 55.9°F13.3°C 55.7°F13.2°C 99% Calm Calm -- 29.98 in1015.2 mb 0.00 in0.0 mm 0.00 in0.0 mm 0.00 in0.0 mm
02:56 AM 55.9°F13.3°C 55.7°F13.2°C 99% Calm Calm -- 29.99 in1015.6 mb 0.00 in0.0 mm 0.00 in0.0 mm 0.00 in0.0 mm
02:55 AM 55.9°F13.3°C 55.7°F13.2°C 99% Calm Calm -- 29.98 in1015.2 mb 0.00 in0.0 mm 0.00 in0.0 mm 0.00 in0.0 mm
02:54 AM 55.9°F13.3°C 55.7°F13.2°C 99% Calm Calm -- 29.98 in1015.2 mb 0.00 in0.0 mm 0.00 in0.0 mm 0.00 in0.0 mm
02:53 AM 55.9°F13.3°C 55.7°F13.2°C 99% Calm Calm